<?xml version="1.0" encoding="UTF-8" standalone="no" ?>
<gpx xmlns="http://www.topografix.com/GPX/1/1" xmlns:xsi="http://www.w3.org/2001/XMLSchema-instance" xsi:schemaLocation="http://www.topografix.com/GPX/1/1 http://www.topografix.com/GPX/1/1/gpx.xsd" version="1.1" creator="VisuGPX - https://www.visugpx.com">
  <metadata>
    <name>RANDONNEE RSPG Du 27/10/2011 Serres/Arambre</name>
    <desc><![CDATA[Circuite : départ Serres, Chemin de petite randonnée jusqu\'au sommet d\'Arambre , retour par le Bersac
39 participants]]></desc>
  </metadata>
  <trk>
    <name><![CDATA[N°17   Serres Arambre le Bersac]]></name>
    <trkseg>
      <trkpt lat="44.4314" lon="5.71349">
        <ele>628.358887</ele>
        <time>2011-10-27T07:20:06Z</time>
      </trkpt>
      <trkpt lat="44.43147" lon="5.71357">
        <ele>631.723389</ele>
        <time>2011-10-27T07:20:20Z</time>
      </trkpt>
      <trkpt lat="44.4315" lon="5.71358">
        <ele>635.568604</ele>
        <time>2011-10-27T07:20:24Z</time>
      </trkpt>
      <trkpt lat="44.43149" lon="5.71358">
        <ele>639.414063</ele>
        <time>2011-10-27T07:20:28Z</time>
      </trkpt>
      <trkpt lat="44.43149" lon="5.71358">
        <ele>642.778809</ele>
        <time>2011-10-27T07:20:32Z</time>
      </trkpt>
      <trkpt lat="44.43149" lon="5.71357">
        <ele>644.701172</ele>
        <time>2011-10-27T07:20:36Z</time>
      </trkpt>
      <trkpt lat="44.43148" lon="5.71357">
        <ele>648.065918</ele>
        <time>2011-10-27T07:20:42Z</time>
      </trkpt>
      <trkpt lat="44.43148" lon="5.71356">
        <ele>650.469238</ele>
        <time>2011-10-27T07:20:48Z</time>
      </trkpt>
      <trkpt lat="44.43148" lon="5.71356">
        <ele>653.833984</ele>
        <time>2011-10-27T07:20:57Z</time>
      </trkpt>
      <trkpt lat="44.43148" lon="5.71356">
        <ele>655.275879</ele>
        <time>2011-10-27T07:21:01Z</time>
      </trkpt>
      <trkpt lat="44.43149" lon="5.71356">
        <ele>658.640381</ele>
        <time>2011-10-27T07:21:16Z</time>
      </trkpt>
      <trkpt lat="44.43149" lon="5.71356">
        <ele>660.082275</ele>
        <time>2011-10-27T07:21:38Z</time>
      </trkpt>
      <trkpt lat="44.43149" lon="5.71356">
        <ele>662.005127</ele>
        <time>2011-10-27T07:21:47Z</time>
      </trkpt>
      <trkpt lat="44.43148" lon="5.71353">
        <ele>662.005127</ele>
        <time>2011-10-27T07:22:57Z</time>
      </trkpt>
      <trkpt lat="44.43149" lon="5.71353">
        <ele>661.524414</ele>
        <time>2011-10-27T07:23:25Z</time>
      </trkpt>
      <trkpt lat="44.43152" lon="5.71336">
        <ele>662.005127</ele>
        <time>2011-10-27T07:23:41Z</time>
      </trkpt>
      <trkpt lat="44.43156" lon="5.71332">
        <ele>661.524414</ele>
        <time>2011-10-27T07:24:01Z</time>
      </trkpt>
      <trkpt lat="44.43156" lon="5.71331">
        <ele>662.485596</ele>
        <time>2011-10-27T07:24:11Z</time>
      </trkpt>
      <trkpt lat="44.43159" lon="5.71328">
        <ele>661.524414</ele>
        <time>2011-10-27T07:24:40Z</time>
      </trkpt>
      <trkpt lat="44.43177" lon="5.71319">
        <ele>661.043701</ele>
        <time>2011-10-27T07:25:02Z</time>
      </trkpt>
      <trkpt lat="44.43197" lon="5.7132">
        <ele>661.524414</ele>
        <time>2011-10-27T07:25:21Z</time>
      </trkpt>
      <trkpt lat="44.43214" lon="5.71329">
        <ele>661.524414</ele>
        <time>2011-10-27T07:25:40Z</time>
      </trkpt>
      <trkpt lat="44.43237" lon="5.7134">
        <ele>662.005127</ele>
        <time>2011-10-27T07:26:02Z</time>
      </trkpt>
      <trkpt lat="44.43254" lon="5.71357">
        <ele>663.447021</ele>
        <time>2011-10-27T07:26:19Z</time>
      </trkpt>
      <trkpt lat="44.43243" lon="5.71386">
        <ele>665.369629</ele>
        <time>2011-10-27T07:26:37Z</time>
      </trkpt>
      <trkpt lat="44.43239" lon="5.71402">
        <ele>666.330811</ele>
        <time>2011-10-27T07:26:54Z</time>
      </trkpt>
      <trkpt lat="44.43234" lon="5.71428">
        <ele>667.292236</ele>
        <time>2011-10-27T07:27:11Z</time>
      </trkpt>
      <trkpt lat="44.43234" lon="5.71456">
        <ele>668.734375</ele>
        <time>2011-10-27T07:27:30Z</time>
      </trkpt>
      <trkpt lat="44.43232" lon="5.71475">
        <ele>669.695801</ele>
        <time>2011-10-27T07:27:46Z</time>
      </trkpt>
      <trkpt lat="44.43229" lon="5.71489">
        <ele>671.137695</ele>
        <time>2011-10-27T07:27:58Z</time>
      </trkpt>
      <trkpt lat="44.4323" lon="5.71513">
        <ele>672.098877</ele>
        <time>2011-10-27T07:28:16Z</time>
      </trkpt>
      <trkpt lat="44.4323" lon="5.71517">
        <ele>672.57959</ele>
        <time>2011-10-27T07:28:19Z</time>
      </trkpt>
      <trkpt lat="44.43231" lon="5.71522">
        <ele>672.57959</ele>
        <time>2011-10-27T07:28:23Z</time>
      </trkpt>
      <trkpt lat="44.43235" lon="5.71544">
        <ele>673.060303</ele>
        <time>2011-10-27T07:28:38Z</time>
      </trkpt>
      <trkpt lat="44.43236" lon="5.71548">
        <ele>673.060303</ele>
        <time>2011-10-27T07:28:40Z</time>
      </trkpt>
      <trkpt lat="44.43235" lon="5.71553">
        <ele>673.060303</ele>
        <time>2011-10-27T07:28:45Z</time>
      </trkpt>
      <trkpt lat="44.4324" lon="5.71574">
        <ele>674.021484</ele>
        <time>2011-10-27T07:29:04Z</time>
      </trkpt>
      <trkpt lat="44.43237" lon="5.71604">
        <ele>674.502197</ele>
        <time>2011-10-27T07:29:26Z</time>
      </trkpt>
      <trkpt lat="44.43236" lon="5.71629">
        <ele>674.98291</ele>
        <time>2011-10-27T07:29:43Z</time>
      </trkpt>
      <trkpt lat="44.43233" lon="5.71654">
        <ele>674.502197</ele>
        <time>2011-10-27T07:29:59Z</time>
      </trkpt>
      <trkpt lat="44.43233" lon="5.71661">
        <ele>675.944092</ele>
        <time>2011-10-27T07:30:02Z</time>
      </trkpt>
      <trkpt lat="44.43233" lon="5.71663">
        <ele>675.463379</ele>
        <time>2011-10-27T07:30:04Z</time>
      </trkpt>
      <trkpt lat="44.43233" lon="5.71673">
        <ele>676.424805</ele>
        <time>2011-10-27T07:30:11Z</time>
      </trkpt>
      <trkpt lat="44.43233" lon="5.71679">
        <ele>674.98291</ele>
        <time>2011-10-27T07:30:15Z</time>
      </trkpt>
      <trkpt lat="44.43233" lon="5.71705">
        <ele>674.98291</ele>
        <time>2011-10-27T07:30:33Z</time>
      </trkpt>
      <trkpt lat="44.43234" lon="5.71727">
        <ele>674.021484</ele>
        <time>2011-10-27T07:30:48Z</time>
      </trkpt>
      <trkpt lat="44.43233" lon="5.71744">
        <ele>673.060303</ele>
        <time>2011-10-27T07:31:04Z</time>
      </trkpt>
      <trkpt lat="44.4323" lon="5.71746">
        <ele>672.57959</ele>
        <time>2011-10-27T07:31:16Z</time>
      </trkpt>
      <trkpt lat="44.43227" lon="5.71749">
        <ele>673.060303</ele>
        <time>2011-10-27T07:31:23Z</time>
      </trkpt>
      <trkpt lat="44.43222" lon="5.71754">
        <ele>673.541016</ele>
        <time>2011-10-27T07:31:28Z</time>
      </trkpt>
      <trkpt lat="44.43214" lon="5.71759">
        <ele>674.98291</ele>
        <time>2011-10-27T07:31:35Z</time>
      </trkpt>
      <trkpt lat="44.43201" lon="5.7177">
        <ele>674.502197</ele>
        <time>2011-10-27T07:31:49Z</time>
      </trkpt>
      <trkpt lat="44.43197" lon="5.71778">
        <ele>675.463379</ele>
        <time>2011-10-27T07:31:56Z</time>
      </trkpt>
      <trkpt lat="44.43188" lon="5.71802">
        <ele>674.502197</ele>
        <time>2011-10-27T07:32:13Z</time>
      </trkpt>
      <trkpt lat="44.43183" lon="5.71817">
        <ele>674.021484</ele>
        <time>2011-10-27T07:32:24Z</time>
      </trkpt>
      <trkpt lat="44.43183" lon="5.71821">
        <ele>674.021484</ele>
        <time>2011-10-27T07:32:27Z</time>
      </trkpt>
      <trkpt lat="44.4317" lon="5.71838">
        <ele>674.502197</ele>
        <time>2011-10-27T07:32:46Z</time>
      </trkpt>
      <trkpt lat="44.43169" lon="5.71838">
        <ele>674.502197</ele>
        <time>2011-10-27T07:32:47Z</time>
      </trkpt>
      <trkpt lat="44.43166" lon="5.71839">
        <ele>674.021484</ele>
        <time>2011-10-27T07:32:52Z</time>
      </trkpt>
      <trkpt lat="44.43155" lon="5.71849">
        <ele>672.57959</ele>
        <time>2011-10-27T07:33:05Z</time>
      </trkpt>
      <trkpt lat="44.43139" lon="5.71877">
        <ele>670.17627</ele>
        <time>2011-10-27T07:33:27Z</time>
      </trkpt>
      <trkpt lat="44.43126" lon="5.71896">
        <ele>668.253662</ele>
        <time>2011-10-27T07:33:48Z</time>
      </trkpt>
      <trkpt lat="44.43121" lon="5.71907">
        <ele>667.772705</ele>
        <time>2011-10-27T07:33:55Z</time>
      </trkpt>
      <trkpt lat="44.43113" lon="5.71924">
        <ele>665.850342</ele>
        <time>2011-10-27T07:34:08Z</time>
      </trkpt>
      <trkpt lat="44.43092" lon="5.71939">
        <ele>664.888916</ele>
        <time>2011-10-27T07:34:25Z</time>
      </trkpt>
      <trkpt lat="44.43071" lon="5.71958">
        <ele>665.850342</ele>
        <time>2011-10-27T07:34:48Z</time>
      </trkpt>
      <trkpt lat="44.43055" lon="5.71964">
        <ele>666.811523</ele>
        <time>2011-10-27T07:35:01Z</time>
      </trkpt>
      <trkpt lat="44.43039" lon="5.71972">
        <ele>667.772705</ele>
        <time>2011-10-27T07:35:12Z</time>
      </trkpt>
      <trkpt lat="44.43027" lon="5.71973">
        <ele>668.734375</ele>
        <time>2011-10-27T07:35:23Z</time>
      </trkpt>
      <trkpt lat="44.43006" lon="5.71969">
        <ele>670.17627</ele>
        <time>2011-10-27T07:35:41Z</time>
      </trkpt>
      <trkpt lat="44.42986" lon="5.71972">
        <ele>671.137695</ele>
        <time>2011-10-27T07:35:57Z</time>
      </trkpt>
      <trkpt lat="44.42977" lon="5.71969">
        <ele>672.098877</ele>
        <time>2011-10-27T07:36:06Z</time>
      </trkpt>
      <trkpt lat="44.42972" lon="5.7197">
        <ele>671.618164</ele>
        <time>2011-10-27T07:36:09Z</time>
      </trkpt>
      <trkpt lat="44.42949" lon="5.71959">
        <ele>671.618164</ele>
        <time>2011-10-27T07:36:30Z</time>
      </trkpt>
      <trkpt lat="44.42924" lon="5.71944">
        <ele>670.656982</ele>
        <time>2011-10-27T07:36:55Z</time>
      </trkpt>
      <trkpt lat="44.4291" lon="5.71937">
        <ele>670.17627</ele>
        <time>2011-10-27T07:37:09Z</time>
      </trkpt>
      <trkpt lat="44.42892" lon="5.71924">
        <ele>670.17627</ele>
        <time>2011-10-27T07:37:28Z</time>
      </trkpt>
      <trkpt lat="44.42872" lon="5.71912">
        <ele>670.17627</ele>
        <time>2011-10-27T07:37:48Z</time>
      </trkpt>
      <trkpt lat="44.42858" lon="5.71896">
        <ele>669.695801</ele>
        <time>2011-10-27T07:38:05Z</time>
      </trkpt>
      <trkpt lat="44.42852" lon="5.7189">
        <ele>669.215088</ele>
        <time>2011-10-27T07:38:21Z</time>
      </trkpt>
      <trkpt lat="44.4285" lon="5.71888">
        <ele>669.215088</ele>
        <time>2011-10-27T07:38:46Z</time>
      </trkpt>
      <trkpt lat="44.42845" lon="5.71896">
        <ele>668.734375</ele>
        <time>2011-10-27T07:40:34Z</time>
      </trkpt>
      <trkpt lat="44.42845" lon="5.71897">
        <ele>672.098877</ele>
        <time>2011-10-27T07:41:29Z</time>
      </trkpt>
      <trkpt lat="44.42849" lon="5.71909">
        <ele>673.060303</ele>
        <time>2011-10-27T07:41:59Z</time>
      </trkpt>
      <trkpt lat="44.42844" lon="5.71916">
        <ele>676.424805</ele>
        <time>2011-10-27T07:42:16Z</time>
      </trkpt>
      <trkpt lat="44.42852" lon="5.7192">
        <ele>677.866699</ele>
        <time>2011-10-27T07:42:31Z</time>
      </trkpt>
      <trkpt lat="44.42853" lon="5.71919">
        <ele>679.308594</ele>
        <time>2011-10-27T07:42:50Z</time>
      </trkpt>
      <trkpt lat="44.42864" lon="5.71923">
        <ele>681.711914</ele>
        <time>2011-10-27T07:43:20Z</time>
      </trkpt>
      <trkpt lat="44.42862" lon="5.71927">
        <ele>684.596191</ele>
        <time>2011-10-27T07:43:41Z</time>
      </trkpt>
      <trkpt lat="44.42863" lon="5.7194">
        <ele>686.999268</ele>
        <time>2011-10-27T07:44:03Z</time>
      </trkpt>
      <trkpt lat="44.42873" lon="5.71952">
        <ele>689.883301</ele>
        <time>2011-10-27T07:44:17Z</time>
      </trkpt>
      <trkpt lat="44.42876" lon="5.71964">
        <ele>691.325195</ele>
        <time>2011-10-27T07:44:32Z</time>
      </trkpt>
      <trkpt lat="44.42879" lon="5.71976">
        <ele>692.767334</ele>
        <time>2011-10-27T07:44:48Z</time>
      </trkpt>
      <trkpt lat="44.42877" lon="5.71988">
        <ele>694.689697</ele>
        <time>2011-10-27T07:45:04Z</time>
      </trkpt>
      <trkpt lat="44.42886" lon="5.71993">
        <ele>697.093018</ele>
        <time>2011-10-27T07:45:19Z</time>
      </trkpt>
      <trkpt lat="44.42897" lon="5.71997">
        <ele>699.015625</ele>
        <time>2011-10-27T07:45:37Z</time>
      </trkpt>
      <trkpt lat="44.42904" lon="5.72002">
        <ele>700.938477</ele>
        <time>2011-10-27T07:45:55Z</time>
      </trkpt>
      <trkpt lat="44.42909" lon="5.72003">
        <ele>701.899902</ele>
        <time>2011-10-27T07:46:12Z</time>
      </trkpt>
      <trkpt lat="44.42921" lon="5.72012">
        <ele>704.303223</ele>
        <time>2011-10-27T07:46:29Z</time>
      </trkpt>
      <trkpt lat="44.42924" lon="5.72014">
        <ele>704.783691</ele>
        <time>2011-10-27T07:46:32Z</time>
      </trkpt>
      <trkpt lat="44.42934" lon="5.72019">
        <ele>708.148438</ele>
        <time>2011-10-27T07:46:49Z</time>
      </trkpt>
      <trkpt lat="44.42943" lon="5.72021">
        <ele>708.628906</ele>
        <time>2011-10-27T07:47:06Z</time>
      </trkpt>
      <trkpt lat="44.42941" lon="5.72024">
        <ele>711.032227</ele>
        <time>2011-10-27T07:47:21Z</time>
      </trkpt>
      <trkpt lat="44.42926" lon="5.72028">
        <ele>713.435547</ele>
        <time>2011-10-27T07:47:38Z</time>
      </trkpt>
      <trkpt lat="44.42911" lon="5.72037">
        <ele>715.838867</ele>
        <time>2011-10-27T07:47:59Z</time>
      </trkpt>
      <trkpt lat="44.42896" lon="5.72043">
        <ele>718.7229</ele>
        <time>2011-10-27T07:48:21Z</time>
      </trkpt>
      <trkpt lat="44.42885" lon="5.72045">
        <ele>720.164795</ele>
        <time>2011-10-27T07:48:37Z</time>
      </trkpt>
      <trkpt lat="44.42878" lon="5.72053">
        <ele>723.048828</ele>
        <time>2011-10-27T07:49:00Z</time>
      </trkpt>
      <trkpt lat="44.42871" lon="5.7206">
        <ele>724.490723</ele>
        <time>2011-10-27T07:49:15Z</time>
      </trkpt>
      <trkpt lat="44.42858" lon="5.72068">
        <ele>727.374756</ele>
        <time>2011-10-27T07:49:38Z</time>
      </trkpt>
      <trkpt lat="44.42849" lon="5.72067">
        <ele>727.855225</ele>
        <time>2011-10-27T07:49:44Z</time>
      </trkpt>
      <trkpt lat="44.42838" lon="5.72062">
        <ele>729.297119</ele>
        <time>2011-10-27T07:49:58Z</time>
      </trkpt>
      <trkpt lat="44.42838" lon="5.72063">
        <ele>730.739258</ele>
        <time>2011-10-27T07:50:13Z</time>
      </trkpt>
      <trkpt lat="44.4285" lon="5.72064">
        <ele>733.142578</ele>
        <time>2011-10-27T07:50:40Z</time>
      </trkpt>
      <trkpt lat="44.42864" lon="5.72079">
        <ele>735.06543</ele>
        <time>2011-10-27T07:51:10Z</time>
      </trkpt>
      <trkpt lat="44.42873" lon="5.72078">
        <ele>736.987793</ele>
        <time>2011-10-27T07:51:29Z</time>
      </trkpt>
      <trkpt lat="44.42882" lon="5.7208">
        <ele>738.429932</ele>
        <time>2011-10-27T07:51:43Z</time>
      </trkpt>
      <trkpt lat="44.42889" lon="5.72079">
        <ele>740.352539</ele>
        <time>2011-10-27T07:52:01Z</time>
      </trkpt>
      <trkpt lat="44.42892" lon="5.72083">
        <ele>742.275146</ele>
        <time>2011-10-27T07:52:20Z</time>
      </trkpt>
      <trkpt lat="44.42879" lon="5.72095">
        <ele>744.197754</ele>
        <time>2011-10-27T07:52:40Z</time>
      </trkpt>
      <trkpt lat="44.4286" lon="5.72104">
        <ele>747.081543</ele>
        <time>2011-10-27T07:52:59Z</time>
      </trkpt>
      <trkpt lat="44.42848" lon="5.72115">
        <ele>749.485107</ele>
        <time>2011-10-27T07:53:18Z</time>
      </trkpt>
      <trkpt lat="44.42838" lon="5.72119">
        <ele>751.888428</ele>
        <time>2011-10-27T07:53:44Z</time>
      </trkpt>
      <trkpt lat="44.42834" lon="5.72132">
        <ele>753.811035</ele>
        <time>2011-10-27T07:54:03Z</time>
      </trkpt>
      <trkpt lat="44.42829" lon="5.72132">
        <ele>754.772217</ele>
        <time>2011-10-27T07:54:24Z</time>
      </trkpt>
      <trkpt lat="44.42831" lon="5.72126">
        <ele>753.811035</ele>
        <time>2011-10-27T07:55:05Z</time>
      </trkpt>
      <trkpt lat="44.42823" lon="5.72139">
        <ele>755.733643</ele>
        <time>2011-10-27T07:55:24Z</time>
      </trkpt>
      <trkpt lat="44.42835" lon="5.72142">
        <ele>756.694824</ele>
        <time>2011-10-27T07:55:33Z</time>
      </trkpt>
      <trkpt lat="44.42838" lon="5.7214">
        <ele>758.136963</ele>
        <time>2011-10-27T07:55:38Z</time>
      </trkpt>
      <trkpt lat="44.42844" lon="5.72138">
        <ele>759.578857</ele>
        <time>2011-10-27T07:55:47Z</time>
      </trkpt>
      <trkpt lat="44.42861" lon="5.72141">
        <ele>762.943359</ele>
        <time>2011-10-27T07:56:05Z</time>
      </trkpt>
      <trkpt lat="44.42864" lon="5.72149">
        <ele>764.385498</ele>
        <time>2011-10-27T07:56:20Z</time>
      </trkpt>
      <trkpt lat="44.42858" lon="5.72151">
        <ele>766.308105</ele>
        <time>2011-10-27T07:56:27Z</time>
      </trkpt>
      <trkpt lat="44.42842" lon="5.72164">
        <ele>767.75</ele>
        <time>2011-10-27T07:56:43Z</time>
      </trkpt>
      <trkpt lat="44.42834" lon="5.72173">
        <ele>769.672852</ele>
        <time>2011-10-27T07:56:58Z</time>
      </trkpt>
      <trkpt lat="44.42822" lon="5.72188">
        <ele>772.556641</ele>
        <time>2011-10-27T07:57:24Z</time>
      </trkpt>
      <trkpt lat="44.42816" lon="5.72195">
        <ele>774.959961</ele>
        <time>2011-10-27T07:57:40Z</time>
      </trkpt>
      <trkpt lat="44.42809" lon="5.722">
        <ele>775.921143</ele>
        <time>2011-10-27T07:58:00Z</time>
      </trkpt>
      <trkpt lat="44.42819" lon="5.72211">
        <ele>778.805176</ele>
        <time>2011-10-27T07:58:19Z</time>
      </trkpt>
      <trkpt lat="44.42834" lon="5.72209">
        <ele>781.20874</ele>
        <time>2011-10-27T07:58:38Z</time>
      </trkpt>
      <trkpt lat="44.42846" lon="5.72204">
        <ele>782.650635</ele>
        <time>2011-10-27T07:58:55Z</time>
      </trkpt>
      <trkpt lat="44.42858" lon="5.72195">
        <ele>783.611816</ele>
        <time>2011-10-27T07:59:14Z</time>
      </trkpt>
      <trkpt lat="44.42864" lon="5.7219">
        <ele>785.534424</ele>
        <time>2011-10-27T07:59:29Z</time>
      </trkpt>
      <trkpt lat="44.42872" lon="5.72183">
        <ele>786.49585</ele>
        <time>2011-10-27T07:59:47Z</time>
      </trkpt>
      <trkpt lat="44.42873" lon="5.72187">
        <ele>788.418457</ele>
        <time>2011-10-27T08:00:00Z</time>
      </trkpt>
      <trkpt lat="44.42859" lon="5.72195">
        <ele>790.821533</ele>
        <time>2011-10-27T08:00:19Z</time>
      </trkpt>
      <trkpt lat="44.42843" lon="5.72211">
        <ele>794.186279</ele>
        <time>2011-10-27T08:00:43Z</time>
      </trkpt>
      <trkpt lat="44.42841" lon="5.72214">
        <ele>794.186279</ele>
        <time>2011-10-27T08:00:47Z</time>
      </trkpt>
      <trkpt lat="44.42834" lon="5.72221">
        <ele>796.589844</ele>
        <time>2011-10-27T08:01:01Z</time>
      </trkpt>
      <trkpt lat="44.42825" lon="5.72228">
        <ele>798.512207</ele>
        <time>2011-10-27T08:01:21Z</time>
      </trkpt>
      <trkpt lat="44.42809" lon="5.72242">
        <ele>801.39624</ele>
        <time>2011-10-27T08:01:43Z</time>
      </trkpt>
      <trkpt lat="44.42802" lon="5.72259">
        <ele>803.799561</ele>
        <time>2011-10-27T08:02:02Z</time>
      </trkpt>
      <trkpt lat="44.42791" lon="5.72267">
        <ele>804.760742</ele>
        <time>2011-10-27T08:02:19Z</time>
      </trkpt>
      <trkpt lat="44.42779" lon="5.7228">
        <ele>806.68335</ele>
        <time>2011-10-27T08:02:34Z</time>
      </trkpt>
      <trkpt lat="44.42775" lon="5.72283">
        <ele>808.125488</ele>
        <time>2011-10-27T08:02:54Z</time>
      </trkpt>
      <trkpt lat="44.42779" lon="5.72285">
        <ele>810.528564</ele>
        <time>2011-10-27T08:03:17Z</time>
      </trkpt>
      <trkpt lat="44.42783" lon="5.72285">
        <ele>811.009277</ele>
        <time>2011-10-27T08:03:20Z</time>
      </trkpt>
      <trkpt lat="44.42791" lon="5.72282">
        <ele>813.412842</ele>
        <time>2011-10-27T08:03:36Z</time>
      </trkpt>
      <trkpt lat="44.42791" lon="5.7228">
        <ele>813.412842</ele>
        <time>2011-10-27T08:03:49Z</time>
      </trkpt>
      <trkpt lat="44.42792" lon="5.72282">
        <ele>813.412842</ele>
        <time>2011-10-27T08:04:43Z</time>
      </trkpt>
      <trkpt lat="44.42792" lon="5.72279">
        <ele>813.412842</ele>
        <time>2011-10-27T08:07:24Z</time>
      </trkpt>
      <trkpt lat="44.42801" lon="5.72278">
        <ele>814.854736</ele>
        <time>2011-10-27T08:07:52Z</time>
      </trkpt>
      <trkpt lat="44.42809" lon="5.72279">
        <ele>816.296631</ele>
        <time>2011-10-27T08:08:08Z</time>
      </trkpt>
      <trkpt lat="44.42819" lon="5.7228">
        <ele>818.699951</ele>
        <time>2011-10-27T08:08:27Z</time>
      </trkpt>
      <trkpt lat="44.42822" lon="5.72297">
        <ele>821.58374</ele>
        <time>2011-10-27T08:08:44Z</time>
      </trkpt>
      <trkpt lat="44.42816" lon="5.72304">
        <ele>823.025879</ele>
        <time>2011-10-27T08:08:56Z</time>
      </trkpt>
      <trkpt lat="44.42804" lon="5.72318">
        <ele>823.987061</ele>
        <time>2011-10-27T08:09:15Z</time>
      </trkpt>
      <trkpt lat="44.42796" lon="5.72333">
        <ele>826.390381</ele>
        <time>2011-10-27T08:09:35Z</time>
      </trkpt>
      <trkpt lat="44.42788" lon="5.72338">
        <ele>826.390381</ele>
        <time>2011-10-27T08:09:53Z</time>
      </trkpt>
      <trkpt lat="44.42788" lon="5.72349">
        <ele>827.832275</ele>
        <time>2011-10-27T08:10:08Z</time>
      </trkpt>
      <trkpt lat="44.42783" lon="5.72353">
        <ele>828.793945</ele>
        <time>2011-10-27T08:10:38Z</time>
      </trkpt>
      <trkpt lat="44.4278" lon="5.72348">
        <ele>829.755127</ele>
        <time>2011-10-27T08:10:52Z</time>
      </trkpt>
      <trkpt lat="44.42788" lon="5.72354">
        <ele>833.119629</ele>
        <time>2011-10-27T08:11:21Z</time>
      </trkpt>
      <trkpt lat="44.42796" lon="5.72351">
        <ele>834.081055</ele>
        <time>2011-10-27T08:11:29Z</time>
      </trkpt>
      <trkpt lat="44.42806" lon="5.72339">
        <ele>836.484375</ele>
        <time>2011-10-27T08:11:49Z</time>
      </trkpt>
      <trkpt lat="44.42807" lon="5.72343">
        <ele>837.92627</ele>
        <time>2011-10-27T08:12:07Z</time>
      </trkpt>
      <trkpt lat="44.42788" lon="5.72352">
        <ele>839.368164</ele>
        <time>2011-10-27T08:12:26Z</time>
      </trkpt>
      <trkpt lat="44.42783" lon="5.72356">
        <ele>841.771484</ele>
        <time>2011-10-27T08:12:40Z</time>
      </trkpt>
      <trkpt lat="44.42769" lon="5.72375">
        <ele>844.175049</ele>
        <time>2011-10-27T08:13:01Z</time>
      </trkpt>
      <trkpt lat="44.42781" lon="5.72381">
        <ele>847.058838</ele>
        <time>2011-10-27T08:13:23Z</time>
      </trkpt>
      <trkpt lat="44.42786" lon="5.7237">
        <ele>848.020264</ele>
        <time>2011-10-27T08:13:29Z</time>
      </trkpt>
      <trkpt lat="44.42793" lon="5.72367">
        <ele>849.462158</ele>
        <time>2011-10-27T08:13:42Z</time>
      </trkpt>
      <trkpt lat="44.42796" lon="5.72364">
        <ele>849.942871</ele>
        <time>2011-10-27T08:13:44Z</time>
      </trkpt>
      <trkpt lat="44.42808" lon="5.72361">
        <ele>851.865479</ele>
        <time>2011-10-27T08:14:05Z</time>
      </trkpt>
      <trkpt lat="44.42814" lon="5.72358">
        <ele>853.788086</ele>
        <time>2011-10-27T08:14:22Z</time>
      </trkpt>
      <trkpt lat="44.42808" lon="5.72368">
        <ele>855.22998</ele>
        <time>2011-10-27T08:14:41Z</time>
      </trkpt>
      <trkpt lat="44.42798" lon="5.72381">
        <ele>858.594482</ele>
        <time>2011-10-27T08:14:59Z</time>
      </trkpt>
      <trkpt lat="44.42788" lon="5.72392">
        <ele>860.036621</ele>
        <time>2011-10-27T08:15:17Z</time>
      </trkpt>
      <trkpt lat="44.42776" lon="5.72408">
        <ele>861.959473</ele>
        <time>2011-10-27T08:15:36Z</time>
      </trkpt>
      <trkpt lat="44.42761" lon="5.72428">
        <ele>864.843262</ele>
        <time>2011-10-27T08:16:06Z</time>
      </trkpt>
      <trkpt lat="44.42764" lon="5.72446">
        <ele>865.804688</ele>
        <time>2011-10-27T08:16:22Z</time>
      </trkpt>
      <trkpt lat="44.42754" lon="5.72449">
        <ele>868.688477</ele>
        <time>2011-10-27T08:16:39Z</time>
      </trkpt>
      <trkpt lat="44.42737" lon="5.72447">
        <ele>870.611084</ele>
        <time>2011-10-27T08:16:58Z</time>
      </trkpt>
      <trkpt lat="44.4273" lon="5.72444">
        <ele>873.495117</ele>
        <time>2011-10-27T08:17:18Z</time>
      </trkpt>
      <trkpt lat="44.42726" lon="5.72457">
        <ele>872.533691</ele>
        <time>2011-10-27T08:17:23Z</time>
      </trkpt>
      <trkpt lat="44.42715" lon="5.72464">
        <ele>871.572266</ele>
        <time>2011-10-27T08:17:29Z</time>
      </trkpt>
      <trkpt lat="44.4271" lon="5.72467">
        <ele>870.611084</ele>
        <time>2011-10-27T08:17:35Z</time>
      </trkpt>
      <trkpt lat="44.42697" lon="5.72468">
        <ele>869.649902</ele>
        <time>2011-10-27T08:17:48Z</time>
      </trkpt>
      <trkpt lat="44.42696" lon="5.72467">
        <ele>869.649902</ele>
        <time>2011-10-27T08:17:49Z</time>
      </trkpt>
      <trkpt lat="44.42681" lon="5.72458">
        <ele>867.727051</ele>
        <time>2011-10-27T08:18:07Z</time>
      </trkpt>
      <trkpt lat="44.42665" lon="5.72436">
        <ele>865.804688</ele>
        <time>2011-10-27T08:18:25Z</time>
      </trkpt>
      <trkpt lat="44.42659" lon="5.72417">
        <ele>864.362549</ele>
        <time>2011-10-27T08:18:42Z</time>
      </trkpt>
      <trkpt lat="44.42652" lon="5.7241">
        <ele>861.959473</ele>
        <time>2011-10-27T08:18:50Z</time>
      </trkpt>
      <trkpt lat="44.42636" lon="5.72425">
        <ele>858.594482</ele>
        <time>2011-10-27T08:19:09Z</time>
      </trkpt>
      <trkpt lat="44.42627" lon="5.72432">
        <ele>854.749268</ele>
        <time>2011-10-27T08:19:23Z</time>
      </trkpt>
      <trkpt lat="44.4261" lon="5.72455">
        <ele>853.788086</ele>
        <time>2011-10-27T08:19:49Z</time>
      </trkpt>
      <trkpt lat="44.42595" lon="5.72483">
        <ele>855.710693</ele>
        <time>2011-10-27T08:20:17Z</time>
      </trkpt>
      <trkpt lat="44.4259" lon="5.72489">
        <ele>855.710693</ele>
        <time>2011-10-27T08:20:22Z</time>
      </trkpt>
      <trkpt lat="44.42574" lon="5.72522">
        <ele>856.191162</ele>
        <time>2011-10-27T08:20:45Z</time>
      </trkpt>
      <trkpt lat="44.42561" lon="5.72558">
        <ele>857.152588</ele>
        <time>2011-10-27T08:21:10Z</time>
      </trkpt>
      <trkpt lat="44.42563" lon="5.72568">
        <ele>860.517334</ele>
        <time>2011-10-27T08:21:24Z</time>
      </trkpt>
      <trkpt lat="44.42567" lon="5.72578">
        <ele>862.439941</ele>
        <time>2011-10-27T08:21:42Z</time>
      </trkpt>
      <trkpt lat="44.4257" lon="5.72581">
        <ele>865.323975</ele>
        <time>2011-10-27T08:21:57Z</time>
      </trkpt>
      <trkpt lat="44.42572" lon="5.72585">
        <ele>867.246582</ele>
        <time>2011-10-27T08:22:05Z</time>
      </trkpt>
      <trkpt lat="44.42576" lon="5.72589">
        <ele>869.169189</ele>
        <time>2011-10-27T08:22:20Z</time>
      </trkpt>
      <trkpt lat="44.4258" lon="5.72593">
        <ele>872.533691</ele>
        <time>2011-10-27T08:22:35Z</time>
      </trkpt>
      <trkpt lat="44.42577" lon="5.72603">
        <ele>873.975586</ele>
        <time>2011-10-27T08:22:45Z</time>
      </trkpt>
      <trkpt lat="44.4258" lon="5.72611">
        <ele>877.340576</ele>
        <time>2011-10-27T08:23:12Z</time>
      </trkpt>
      <trkpt lat="44.42579" lon="5.72619">
        <ele>880.224365</ele>
        <time>2011-10-27T08:23:33Z</time>
      </trkpt>
      <trkpt lat="44.42573" lon="5.72632">
        <ele>883.588867</ele>
        <time>2011-10-27T08:23:49Z</time>
      </trkpt>
      <trkpt lat="44.42568" lon="5.72645">
        <ele>886.953369</ele>
        <time>2011-10-27T08:24:06Z</time>
      </trkpt>
      <trkpt lat="44.42568" lon="5.72648">
        <ele>887.434082</ele>
        <time>2011-10-27T08:24:07Z</time>
      </trkpt>
      <trkpt lat="44.42566" lon="5.72669">
        <ele>886.953369</ele>
        <time>2011-10-27T08:24:16Z</time>
      </trkpt>
      <trkpt lat="44.42565" lon="5.72693">
        <ele>889.356689</ele>
        <time>2011-10-27T08:24:35Z</time>
      </trkpt>
      <trkpt lat="44.42565" lon="5.72703">
        <ele>890.318115</ele>
        <time>2011-10-27T08:24:47Z</time>
      </trkpt>
      <trkpt lat="44.42565" lon="5.72711">
        <ele>891.279297</ele>
        <time>2011-10-27T08:24:55Z</time>
      </trkpt>
      <trkpt lat="44.42562" lon="5.72724">
        <ele>893.202148</ele>
        <time>2011-10-27T08:25:10Z</time>
      </trkpt>
      <trkpt lat="44.42567" lon="5.72739">
        <ele>895.124756</ele>
        <time>2011-10-27T08:25:29Z</time>
      </trkpt>
      <trkpt lat="44.42574" lon="5.72752">
        <ele>898.008789</ele>
        <time>2011-10-27T08:25:49Z</time>
      </trkpt>
      <trkpt lat="44.42579" lon="5.72763">
        <ele>900.892578</ele>
        <time>2011-10-27T08:26:08Z</time>
      </trkpt>
      <trkpt lat="44.4258" lon="5.72776">
        <ele>904.257324</ele>
        <time>2011-10-27T08:26:29Z</time>
      </trkpt>
      <trkpt lat="44.42584" lon="5.72788">
        <ele>906.6604</ele>
        <time>2011-10-27T08:26:46Z</time>
      </trkpt>
      <trkpt lat="44.42581" lon="5.72797">
        <ele>907.621826</ele>
        <time>2011-10-27T08:26:55Z</time>
      </trkpt>
      <trkpt lat="44.42586" lon="5.7282">
        <ele>910.505859</ele>
        <time>2011-10-27T08:27:12Z</time>
      </trkpt>
      <trkpt lat="44.42587" lon="5.72831">
        <ele>913.389893</ele>
        <time>2011-10-27T08:27:26Z</time>
      </trkpt>
      <trkpt lat="44.4259" lon="5.72841">
        <ele>915.793213</ele>
        <time>2011-10-27T08:27:41Z</time>
      </trkpt>
      <trkpt lat="44.42584" lon="5.7285">
        <ele>918.677002</ele>
        <time>2011-10-27T08:27:59Z</time>
      </trkpt>
      <trkpt lat="44.42586" lon="5.72863">
        <ele>921.560791</ele>
        <time>2011-10-27T08:28:16Z</time>
      </trkpt>
      <trkpt lat="44.42587" lon="5.72871">
        <ele>923.964111</ele>
        <time>2011-10-27T08:28:32Z</time>
      </trkpt>
      <trkpt lat="44.42579" lon="5.7288">
        <ele>925.886963</ele>
        <time>2011-10-27T08:28:52Z</time>
      </trkpt>
      <trkpt lat="44.42586" lon="5.72877">
        <ele>928.290283</ele>
        <time>2011-10-27T08:29:05Z</time>
      </trkpt>
      <trkpt lat="44.42588" lon="5.72886">
        <ele>931.174316</ele>
        <time>2011-10-27T08:29:21Z</time>
      </trkpt>
      <trkpt lat="44.42588" lon="5.72897">
        <ele>933.577393</ele>
        <time>2011-10-27T08:29:36Z</time>
      </trkpt>
      <trkpt lat="44.42584" lon="5.72918">
        <ele>936.941895</ele>
        <time>2011-10-27T08:29:56Z</time>
      </trkpt>
      <trkpt lat="44.42587" lon="5.72927">
        <ele>939.345215</ele>
        <time>2011-10-27T08:30:13Z</time>
      </trkpt>
      <trkpt lat="44.42586" lon="5.72933">
        <ele>942.710205</ele>
        <time>2011-10-27T08:30:34Z</time>
      </trkpt>
      <trkpt lat="44.42587" lon="5.72942">
        <ele>945.113281</ele>
        <time>2011-10-27T08:30:50Z</time>
      </trkpt>
      <trkpt lat="44.42588" lon="5.72951">
        <ele>947.997314</ele>
        <time>2011-10-27T08:31:05Z</time>
      </trkpt>
      <trkpt lat="44.42591" lon="5.72961">
        <ele>951.361816</ele>
        <time>2011-10-27T08:31:21Z</time>
      </trkpt>
      <trkpt lat="44.42593" lon="5.72976">
        <ele>953.284424</ele>
        <time>2011-10-27T08:31:37Z</time>
      </trkpt>
      <trkpt lat="44.42594" lon="5.72989">
        <ele>955.687744</ele>
        <time>2011-10-27T08:31:53Z</time>
      </trkpt>
      <trkpt lat="44.42599" lon="5.72996">
        <ele>957.129883</ele>
        <time>2011-10-27T08:32:06Z</time>
      </trkpt>
      <trkpt lat="44.42602" lon="5.73009">
        <ele>958.571777</ele>
        <time>2011-10-27T08:32:19Z</time>
      </trkpt>
      <trkpt lat="44.42599" lon="5.73026">
        <ele>960.013672</ele>
        <time>2011-10-27T08:32:34Z</time>
      </trkpt>
      <trkpt lat="44.426" lon="5.7304">
        <ele>962.897705</ele>
        <time>2011-10-27T08:32:51Z</time>
      </trkpt>
      <trkpt lat="44.42601" lon="5.7305">
        <ele>964.820313</ele>
        <time>2011-10-27T08:33:05Z</time>
      </trkpt>
      <trkpt lat="44.42598" lon="5.73062">
        <ele>967.704102</ele>
        <time>2011-10-27T08:33:20Z</time>
      </trkpt>
      <trkpt lat="44.42597" lon="5.73065">
        <ele>969.14624</ele>
        <time>2011-10-27T08:33:25Z</time>
      </trkpt>
      <trkpt lat="44.42596" lon="5.73068">
        <ele>969.626953</ele>
        <time>2011-10-27T08:33:29Z</time>
      </trkpt>
      <trkpt lat="44.42589" lon="5.73089">
        <ele>972.030273</ele>
        <time>2011-10-27T08:33:51Z</time>
      </trkpt>
      <trkpt lat="44.42589" lon="5.73091">
        <ele>972.510986</ele>
        <time>2011-10-27T08:33:52Z</time>
      </trkpt>
      <trkpt lat="44.42589" lon="5.73105">
        <ele>975.394775</ele>
        <time>2011-10-27T08:34:08Z</time>
      </trkpt>
      <trkpt lat="44.42592" lon="5.73118">
        <ele>975.394775</ele>
        <time>2011-10-27T08:34:25Z</time>
      </trkpt>
      <trkpt lat="44.42594" lon="5.73122">
        <ele>978.759521</ele>
        <time>2011-10-27T08:34:33Z</time>
      </trkpt>
      <trkpt lat="44.42594" lon="5.73122">
        <ele>978.278809</ele>
        <time>2011-10-27T08:34:34Z</time>
      </trkpt>
      <trkpt lat="44.42597" lon="5.73129">
        <ele>981.162842</ele>
        <time>2011-10-27T08:34:49Z</time>
      </trkpt>
      <trkpt lat="44.42598" lon="5.7313">
        <ele>979.23999</ele>
        <time>2011-10-27T08:35:20Z</time>
      </trkpt>
      <trkpt lat="44.42596" lon="5.73131">
        <ele>980.201416</ele>
        <time>2011-10-27T08:35:46Z</time>
      </trkpt>
      <trkpt lat="44.426" lon="5.73134">
        <ele>979.720703</ele>
        <time>2011-10-27T08:36:39Z</time>
      </trkpt>
      <trkpt lat="44.42601" lon="5.73135">
        <ele>979.720703</ele>
        <time>2011-10-27T08:39:59Z</time>
      </trkpt>
      <trkpt lat="44.426" lon="5.73135">
        <ele>978.278809</ele>
        <time>2011-10-27T08:41:28Z</time>
      </trkpt>
      <trkpt lat="44.42601" lon="5.73137">
        <ele>977.798096</ele>
        <time>2011-10-27T08:42:39Z</time>
      </trkpt>
      <trkpt lat="44.42603" lon="5.73142">
        <ele>978.278809</ele>
        <time>2011-10-27T08:44:57Z</time>
      </trkpt>
      <trkpt lat="44.42606" lon="5.73146">
        <ele>979.720703</ele>
        <time>2011-10-27T08:45:03Z</time>
      </trkpt>
      <trkpt lat="44.42612" lon="5.73162">
        <ele>983.085205</ele>
        <time>2011-10-27T08:45:19Z</time>
      </trkpt>
      <trkpt lat="44.42613" lon="5.73165">
        <ele>983.085205</ele>
        <time>2011-10-27T08:45:23Z</time>
      </trkpt>
      <trkpt lat="44.42613" lon="5.73168">
        <ele>984.046631</ele>
        <time>2011-10-27T08:45:25Z</time>
      </trkpt>
      <trkpt lat="44.42616" lon="5.73181">
        <ele>986.449951</ele>
        <time>2011-10-27T08:45:40Z</time>
      </trkpt>
      <trkpt lat="44.4262" lon="5.7319">
        <ele>988.853516</ele>
        <time>2011-10-27T08:45:55Z</time>
      </trkpt>
      <trkpt lat="44.42622" lon="5.73204">
        <ele>991.737305</ele>
        <time>2011-10-27T08:46:09Z</time>
      </trkpt>
      <trkpt lat="44.42625" lon="5.73214">
        <ele>994.621094</ele>
        <time>2011-10-27T08:46:26Z</time>
      </trkpt>
      <trkpt lat="44.42626" lon="5.73229">
        <ele>997.505127</ele>
        <time>2011-10-27T08:46:41Z</time>
      </trkpt>
      <trkpt lat="44.42622" lon="5.73245">
        <ele>1000.869629</ele>
        <time>2011-10-27T08:46:57Z</time>
      </trkpt>
      <trkpt lat="44.42611" lon="5.73263">
        <ele>1003.753662</ele>
        <time>2011-10-27T08:47:19Z</time>
      </trkpt>
      <trkpt lat="44.42605" lon="5.73275">
        <ele>1006.637695</ele>
        <time>2011-10-27T08:47:38Z</time>
      </trkpt>
      <trkpt lat="44.42591" lon="5.73284">
        <ele>1009.041016</ele>
        <time>2011-10-27T08:48:04Z</time>
      </trkpt>
      <trkpt lat="44.42582" lon="5.73299">
        <ele>1010.002197</ele>
        <time>2011-10-27T08:48:18Z</time>
      </trkpt>
      <trkpt lat="44.42575" lon="5.73311">
        <ele>1011.925049</ele>
        <time>2011-10-27T08:48:37Z</time>
      </trkpt>
      <trkpt lat="44.42572" lon="5.7332">
        <ele>1013.366943</ele>
        <time>2011-10-27T08:48:53Z</time>
      </trkpt>
      <trkpt lat="44.42566" lon="5.73342">
        <ele>1014.808838</ele>
        <time>2011-10-27T08:49:13Z</time>
      </trkpt>
      <trkpt lat="44.42562" lon="5.73352">
        <ele>1015.289551</ele>
        <time>2011-10-27T08:49:34Z</time>
      </trkpt>
      <trkpt lat="44.42563" lon="5.73358">
        <ele>1016.250732</ele>
        <time>2011-10-27T08:49:41Z</time>
      </trkpt>
      <trkpt lat="44.42563" lon="5.73365">
        <ele>1017.692627</ele>
        <time>2011-10-27T08:49:52Z</time>
      </trkpt>
      <trkpt lat="44.4257" lon="5.73378">
        <ele>1017.692627</ele>
        <time>2011-10-27T08:50:11Z</time>
      </trkpt>
      <trkpt lat="44.42578" lon="5.73396">
        <ele>1019.615479</ele>
        <time>2011-10-27T08:50:31Z</time>
      </trkpt>
      <trkpt lat="44.42577" lon="5.73417">
        <ele>1021.057617</ele>
        <time>2011-10-27T08:50:47Z</time>
      </trkpt>
      <trkpt lat="44.42581" lon="5.73439">
        <ele>1022.980225</ele>
        <time>2011-10-27T08:51:08Z</time>
      </trkpt>
      <trkpt lat="44.42589" lon="5.73456">
        <ele>1023.941406</ele>
        <time>2011-10-27T08:51:28Z</time>
      </trkpt>
      <trkpt lat="44.42596" lon="5.73473">
        <ele>1025.864014</ele>
        <time>2011-10-27T08:51:48Z</time>
      </trkpt>
      <trkpt lat="44.42603" lon="5.73491">
        <ele>1029.228516</ele>
        <time>2011-10-27T08:52:13Z</time>
      </trkpt>
      <trkpt lat="44.42605" lon="5.73502">
        <ele>1029.709229</ele>
        <time>2011-10-27T08:52:22Z</time>
      </trkpt>
      <trkpt lat="44.42602" lon="5.73522">
        <ele>1030.189941</ele>
        <time>2011-10-27T08:52:44Z</time>
      </trkpt>
      <trkpt lat="44.42596" lon="5.73529">
        <ele>1031.631836</ele>
        <time>2011-10-27T08:53:00Z</time>
      </trkpt>
      <trkpt lat="44.42586" lon="5.73539">
        <ele>1034.996582</ele>
        <time>2011-10-27T08:53:19Z</time>
      </trkpt>
      <trkpt lat="44.42575" lon="5.73549">
        <ele>1037.399902</ele>
        <time>2011-10-27T08:53:36Z</time>
      </trkpt>
      <trkpt lat="44.4258" lon="5.73554">
        <ele>1040.764404</ele>
        <time>2011-10-27T08:53:51Z</time>
      </trkpt>
      <trkpt lat="44.42582" lon="5.7356">
        <ele>1043.648438</ele>
        <time>2011-10-27T08:54:12Z</time>
      </trkpt>
      <trkpt lat="44.42579" lon="5.73574">
        <ele>1047.012939</ele>
        <time>2011-10-27T08:54:32Z</time>
      </trkpt>
      <trkpt lat="44.4258" lon="5.73582">
        <ele>1049.896973</ele>
        <time>2011-10-27T08:54:53Z</time>
      </trkpt>
      <trkpt lat="44.42581" lon="5.73599">
        <ele>1053.261719</ele>
        <time>2011-10-27T08:55:12Z</time>
      </trkpt>
      <trkpt lat="44.42581" lon="5.7361">
        <ele>1056.626221</ele>
        <time>2011-10-27T08:55:28Z</time>
      </trkpt>
      <trkpt lat="44.42582" lon="5.73622">
        <ele>1059.990723</ele>
        <time>2011-10-27T08:55:47Z</time>
      </trkpt>
      <trkpt lat="44.42579" lon="5.73632">
        <ele>1063.835938</ele>
        <time>2011-10-27T08:56:05Z</time>
      </trkpt>
      <trkpt lat="44.42578" lon="5.7365">
        <ele>1067.200684</ele>
        <time>2011-10-27T08:56:26Z</time>
      </trkpt>
      <trkpt lat="44.42579" lon="5.73667">
        <ele>1070.56543</ele>
        <time>2011-10-27T08:56:45Z</time>
      </trkpt>
      <trkpt lat="44.42576" lon="5.73689">
        <ele>1073.929932</ele>
        <time>2011-10-27T08:57:06Z</time>
      </trkpt>
      <trkpt lat="44.42582" lon="5.73712">
        <ele>1077.294678</ele>
        <time>2011-10-27T08:57:31Z</time>
      </trkpt>
      <trkpt lat="44.42584" lon="5.73728">
        <ele>1079.697754</ele>
        <time>2011-10-27T08:57:50Z</time>
      </trkpt>
      <trkpt lat="44.42589" lon="5.73749">
        <ele>1082.581787</ele>
        <time>2011-10-27T08:58:17Z</time>
      </trkpt>
      <trkpt lat="44.42596" lon="5.73775">
        <ele>1085.946533</ele>
        <time>2011-10-27T08:58:44Z</time>
      </trkpt>
      <trkpt lat="44.42596" lon="5.73786">
        <ele>1087.869141</ele>
        <time>2011-10-27T08:59:04Z</time>
      </trkpt>
      <trkpt lat="44.42602" lon="5.73811">
        <ele>1090.75293</ele>
        <time>2011-10-27T08:59:29Z</time>
      </trkpt>
      <trkpt lat="44.42607" lon="5.73838">
        <ele>1094.117676</ele>
        <time>2011-10-27T09:00:01Z</time>
      </trkpt>
      <trkpt lat="44.42607" lon="5.73862">
        <ele>1096.520996</ele>
        <time>2011-10-27T09:00:33Z</time>
      </trkpt>
      <trkpt lat="44.42612" lon="5.73877">
        <ele>1097.962891</ele>
        <time>2011-10-27T09:00:51Z</time>
      </trkpt>
      <trkpt lat="44.4262" lon="5.73898">
        <ele>1098.443359</ele>
        <time>2011-10-27T09:01:07Z</time>
      </trkpt>
      <trkpt lat="44.42625" lon="5.73908">
        <ele>1099.404785</ele>
        <time>2011-10-27T09:01:21Z</time>
      </trkpt>
      <trkpt lat="44.42628" lon="5.73914">
        <ele>1099.885498</ele>
        <time>2011-10-27T09:01:25Z</time>
      </trkpt>
      <trkpt lat="44.42637" lon="5.73922">
        <ele>1100.366455</ele>
        <time>2011-10-27T09:01:31Z</time>
      </trkpt>
      <trkpt lat="44.42628" lon="5.73935">
        <ele>1103.250244</ele>
        <time>2011-10-27T09:01:44Z</time>
      </trkpt>
      <trkpt lat="44.42625" lon="5.73942">
        <ele>1104.692139</ele>
        <time>2011-10-27T09:01:59Z</time>
      </trkpt>
      <trkpt lat="44.42621" lon="5.7395">
        <ele>1106.134033</ele>
        <time>2011-10-27T09:02:06Z</time>
      </trkpt>
      <trkpt lat="44.42616" lon="5.73962">
        <ele>1109.018066</ele>
        <time>2011-10-27T09:02:19Z</time>
      </trkpt>
      <trkpt lat="44.42613" lon="5.73977">
        <ele>1110.940674</ele>
        <time>2011-10-27T09:02:35Z</time>
      </trkpt>
      <trkpt lat="44.42609" lon="5.73986">
        <ele>1113.824463</ele>
        <time>2011-10-27T09:02:45Z</time>
      </trkpt>
      <trkpt lat="44.42601" lon="5.73994">
        <ele>1115.747314</ele>
        <time>2011-10-27T09:02:58Z</time>
      </trkpt>
      <trkpt lat="44.42601" lon="5.74004">
        <ele>1118.150635</ele>
        <time>2011-10-27T09:03:10Z</time>
      </trkpt>
      <trkpt lat="44.42596" lon="5.74014">
        <ele>1121.034668</ele>
        <time>2011-10-27T09:03:23Z</time>
      </trkpt>
      <trkpt lat="44.42594" lon="5.74027">
        <ele>1123.437988</ele>
        <time>2011-10-27T09:03:40Z</time>
      </trkpt>
      <trkpt lat="44.42593" lon="5.74032">
        <ele>1125.841064</ele>
        <time>2011-10-27T09:03:52Z</time>
      </trkpt>
      <trkpt lat="44.42594" lon="5.7404">
        <ele>1128.244385</ele>
        <time>2011-10-27T09:04:05Z</time>
      </trkpt>
      <trkpt lat="44.42588" lon="5.74048">
        <ele>1130.166992</ele>
        <time>2011-10-27T09:04:13Z</time>
      </trkpt>
      <trkpt lat="44.42581" lon="5.74055">
        <ele>1134.012451</ele>
        <time>2011-10-27T09:04:30Z</time>
      </trkpt>
      <trkpt lat="44.42577" lon="5.74064">
        <ele>1137.376953</ele>
        <time>2011-10-27T09:04:44Z</time>
      </trkpt>
      <trkpt lat="44.42569" lon="5.7407">
        <ele>1140.260986</ele>
        <time>2011-10-27T09:05:03Z</time>
      </trkpt>
      <trkpt lat="44.42564" lon="5.74084">
        <ele>1143.625488</ele>
        <time>2011-10-27T09:05:19Z</time>
      </trkpt>
      <trkpt lat="44.42557" lon="5.74087">
        <ele>1144.58667</ele>
        <time>2011-10-27T09:05:48Z</time>
      </trkpt>
      <trkpt lat="44.4255" lon="5.74086">
        <ele>1147.951416</ele>
        <time>2011-10-27T09:06:47Z</time>
      </trkpt>
      <trkpt lat="44.4255" lon="5.74086">
        <ele>1149.393555</ele>
        <time>2011-10-27T09:09:03Z</time>
      </trkpt>
      <trkpt lat="44.4254" lon="5.74103">
        <ele>1150.835449</ele>
        <time>2011-10-27T09:10:25Z</time>
      </trkpt>
      <trkpt lat="44.42528" lon="5.74116">
        <ele>1150.835449</ele>
        <time>2011-10-27T09:10:41Z</time>
      </trkpt>
      <trkpt lat="44.42518" lon="5.74122">
        <ele>1150.35498</ele>
        <time>2011-10-27T09:10:54Z</time>
      </trkpt>
      <trkpt lat="44.42506" lon="5.74155">
        <ele>1151.316162</ele>
        <time>2011-10-27T09:11:13Z</time>
      </trkpt>
      <trkpt lat="44.42508" lon="5.74168">
        <ele>1154.680664</ele>
        <time>2011-10-27T09:11:29Z</time>
      </trkpt>
      <trkpt lat="44.4251" lon="5.74178">
        <ele>1158.04541</ele>
        <time>2011-10-27T09:11:43Z</time>
      </trkpt>
      <trkpt lat="44.42513" lon="5.74189">
        <ele>1160.929199</ele>
        <time>2011-10-27T09:11:59Z</time>
      </trkpt>
      <trkpt lat="44.42514" lon="5.74198">
        <ele>1164.293945</ele>
        <time>2011-10-27T09:12:11Z</time>
      </trkpt>
      <trkpt lat="44.42516" lon="5.74216">
        <ele>1167.658447</ele>
        <time>2011-10-27T09:12:31Z</time>
      </trkpt>
      <trkpt lat="44.4252" lon="5.74231">
        <ele>1170.54248</ele>
        <time>2011-10-27T09:12:50Z</time>
      </trkpt>
      <trkpt lat="44.42519" lon="5.74237">
        <ele>1170.54248</ele>
        <time>2011-10-27T09:12:55Z</time>
      </trkpt>
      <trkpt lat="44.42522" lon="5.74258">
        <ele>1171.984375</ele>
        <time>2011-10-27T09:13:13Z</time>
      </trkpt>
      <trkpt lat="44.42525" lon="5.74271">
        <ele>1174.387695</ele>
        <time>2011-10-27T09:13:29Z</time>
      </trkpt>
      <trkpt lat="44.42527" lon="5.74284">
        <ele>1177.271729</ele>
        <time>2011-10-27T09:13:46Z</time>
      </trkpt>
      <trkpt lat="44.42534" lon="5.74291">
        <ele>1178.713623</ele>
        <time>2011-10-27T09:14:03Z</time>
      </trkpt>
      <trkpt lat="44.42533" lon="5.7429">
        <ele>1178.713623</ele>
        <time>2011-10-27T09:14:06Z</time>
      </trkpt>
      <trkpt lat="44.42532" lon="5.7429">
        <ele>1178.713623</ele>
        <time>2011-10-27T09:14:29Z</time>
      </trkpt>
      <trkpt lat="44.42535" lon="5.74292">
        <ele>1180.155762</ele>
        <time>2011-10-27T09:16:04Z</time>
      </trkpt>
      <trkpt lat="44.4254" lon="5.74291">
        <ele>1183.039551</ele>
        <time>2011-10-27T09:16:17Z</time>
      </trkpt>
      <trkpt lat="44.42541" lon="5.74291">
        <ele>1184.481689</ele>
        <time>2011-10-27T09:16:20Z</time>
      </trkpt>
      <trkpt lat="44.42543" lon="5.74293">
        <ele>1184.481689</ele>
        <time>2011-10-27T09:16:50Z</time>
      </trkpt>
      <trkpt lat="44.42546" lon="5.74294">
        <ele>1185.442871</ele>
        <time>2011-10-27T09:18:05Z</time>
      </trkpt>
      <trkpt lat="44.42549" lon="5.74294">
        <ele>1185.923584</ele>
        <time>2011-10-27T09:18:19Z</time>
      </trkpt>
      <trkpt lat="44.42551" lon="5.74299">
        <ele>1186.884766</ele>
        <time>2011-10-27T09:19:22Z</time>
      </trkpt>
      <trkpt lat="44.42558" lon="5.74304">
        <ele>1188.326904</ele>
        <time>2011-10-27T09:19:34Z</time>
      </trkpt>
      <trkpt lat="44.42564" lon="5.74304">
        <ele>1190.72998</ele>
        <time>2011-10-27T09:19:44Z</time>
      </trkpt>
      <trkpt lat="44.4257" lon="5.74302">
        <ele>1192.652832</ele>
        <time>2011-10-27T09:19:54Z</time>
      </trkpt>
      <trkpt lat="44.42581" lon="5.74296">
        <ele>1194.575195</ele>
        <time>2011-10-27T09:20:10Z</time>
      </trkpt>
      <trkpt lat="44.42583" lon="5.74295">
        <ele>1195.055908</ele>
        <time>2011-10-27T09:20:12Z</time>
      </trkpt>
      <trkpt lat="44.42591" lon="5.74287">
        <ele>1196.017578</ele>
        <time>2011-10-27T09:20:25Z</time>
      </trkpt>
      <trkpt lat="44.42593" lon="5.74288">
        <ele>1196.017578</ele>
        <time>2011-10-27T09:20:27Z</time>
      </trkpt>
      <trkpt lat="44.42603" lon="5.74301">
        <ele>1197.459473</ele>
        <time>2011-10-27T09:20:41Z</time>
      </trkpt>
      <trkpt lat="44.42605" lon="5.74304">
        <ele>1198.420654</ele>
        <time>2011-10-27T09:20:45Z</time>
      </trkpt>
      <trkpt lat="44.42619" lon="5.74316">
        <ele>1199.862793</ele>
        <time>2011-10-27T09:20:57Z</time>
      </trkpt>
      <trkpt lat="44.42623" lon="5.74322">
        <ele>1200.343506</ele>
        <time>2011-10-27T09:21:04Z</time>
      </trkpt>
      <trkpt lat="44.4263" lon="5.74328">
        <ele>1202.746582</ele>
        <time>2011-10-27T09:21:16Z</time>
      </trkpt>
      <trkpt lat="44.42631" lon="5.7433">
        <ele>1203.708008</ele>
        <time>2011-10-27T09:21:20Z</time>
      </trkpt>
      <trkpt lat="44.42637" lon="5.74332">
        <ele>1205.149902</ele>
        <time>2011-10-27T09:21:24Z</time>
      </trkpt>
      <trkpt lat="44.4264" lon="5.74335">
        <ele>1206.111084</ele>
        <time>2011-10-27T09:21:34Z</time>
      </trkpt>
      <trkpt lat="44.42643" lon="5.74338">
        <ele>1206.111084</ele>
        <time>2011-10-27T09:21:38Z</time>
      </trkpt>
      <trkpt lat="44.42645" lon="5.74338">
        <ele>1207.553223</ele>
        <time>2011-10-27T09:21:42Z</time>
      </trkpt>
      <trkpt lat="44.42648" lon="5.74341">
        <ele>1208.033936</ele>
        <time>2011-10-27T09:21:49Z</time>
      </trkpt>
      <trkpt lat="44.42652" lon="5.74345">
        <ele>1210.437012</ele>
        <time>2011-10-27T09:21:58Z</time>
      </trkpt>
      <trkpt lat="44.42655" lon="5.74349">
        <ele>1212.840576</ele>
        <time>2011-10-27T09:22:13Z</time>
      </trkpt>
      <trkpt lat="44.42661" lon="5.74357">
        <ele>1215.243896</ele>
        <time>2011-10-27T09:22:30Z</time>
      </trkpt>
      <trkpt lat="44.42667" lon="5.74368">
        <ele>1218.127686</ele>
        <time>2011-10-27T09:22:51Z</time>
      </trkpt>
      <trkpt lat="44.42672" lon="5.74377">
        <ele>1221.011719</ele>
        <time>2011-10-27T09:23:08Z</time>
      </trkpt>
      <trkpt lat="44.42677" lon="5.74383">
        <ele>1224.376221</ele>
        <time>2011-10-27T09:23:25Z</time>
      </trkpt>
      <trkpt lat="44.42681" lon="5.7439">
        <ele>1227.260254</ele>
        <time>2011-10-27T09:23:41Z</time>
      </trkpt>
      <trkpt lat="44.42683" lon="5.74405">
        <ele>1227.740723</ele>
        <time>2011-10-27T09:24:00Z</time>
      </trkpt>
      <trkpt lat="44.42684" lon="5.74419">
        <ele>1229.182861</ele>
        <time>2011-10-27T09:24:16Z</time>
      </trkpt>
      <trkpt lat="44.42687" lon="5.74423">
        <ele>1231.105713</ele>
        <time>2011-10-27T09:24:30Z</time>
      </trkpt>
      <trkpt lat="44.4269" lon="5.7443">
        <ele>1233.028076</ele>
        <time>2011-10-27T09:24:45Z</time>
      </trkpt>
      <trkpt lat="44.42692" lon="5.74436">
        <ele>1236.392822</ele>
        <time>2011-10-27T09:25:02Z</time>
      </trkpt>
      <trkpt lat="44.42695" lon="5.74443">
        <ele>1238.796143</ele>
        <time>2011-10-27T09:25:21Z</time>
      </trkpt>
      <trkpt lat="44.42695" lon="5.74448">
        <ele>1242.160645</ele>
        <time>2011-10-27T09:25:37Z</time>
      </trkpt>
      <trkpt lat="44.42699" lon="5.74454">
        <ele>1245.044678</ele>
        <time>2011-10-27T09:25:53Z</time>
      </trkpt>
      <trkpt lat="44.42704" lon="5.74458">
        <ele>1248.40918</ele>
        <time>2011-10-27T09:26:16Z</time>
      </trkpt>
      <trkpt lat="44.42708" lon="5.74458">
        <ele>1248.889893</ele>
        <time>2011-10-27T09:26:26Z</time>
      </trkpt>
      <trkpt lat="44.42709" lon="5.74464">
        <ele>1251.773926</ele>
        <time>2011-10-27T09:26:42Z</time>
      </trkpt>
      <trkpt lat="44.42711" lon="5.74468">
        <ele>1254.657715</ele>
        <time>2011-10-27T09:27:03Z</time>
      </trkpt>
      <trkpt lat="44.42714" lon="5.7447">
        <ele>1256.580322</ele>
        <time>2011-10-27T09:27:17Z</time>
      </trkpt>
      <trkpt lat="44.42718" lon="5.74477">
        <ele>1259.944824</ele>
        <time>2011-10-27T09:27:35Z</time>
      </trkpt>
      <trkpt lat="44.42716" lon="5.74483">
        <ele>1262.829102</ele>
        <time>2011-10-27T09:27:51Z</time>
      </trkpt>
      <trkpt lat="44.42718" lon="5.74489">
        <ele>1264.270996</ele>
        <time>2011-10-27T09:28:06Z</time>
      </trkpt>
      <trkpt lat="44.42728" lon="5.74494">
        <ele>1267.635498</ele>
        <time>2011-10-27T09:28:28Z</time>
      </trkpt>
      <trkpt lat="44.42731" lon="5.74494">
        <ele>1270.519531</ele>
        <time>2011-10-27T09:28:44Z</time>
      </trkpt>
      <trkpt lat="44.42735" lon="5.74496">
        <ele>1271.480713</ele>
        <time>2011-10-27T09:28:57Z</time>
      </trkpt>
      <trkpt lat="44.42736" lon="5.74498">
        <ele>1273.884033</ele>
        <time>2011-10-27T09:29:14Z</time>
      </trkpt>
      <trkpt lat="44.42733" lon="5.74512">
        <ele>1276.768311</ele>
        <time>2011-10-27T09:29:51Z</time>
      </trkpt>
      <trkpt lat="44.42734" lon="5.74519">
        <ele>1279.171387</ele>
        <time>2011-10-27T09:30:05Z</time>
      </trkpt>
      <trkpt lat="44.4274" lon="5.74518">
        <ele>1282.536133</ele>
        <time>2011-10-27T09:30:21Z</time>
      </trkpt>
      <trkpt lat="44.42738" lon="5.74526">
        <ele>1285.900635</ele>
        <time>2011-10-27T09:30:45Z</time>
      </trkpt>
      <trkpt lat="44.42744" lon="5.74525">
        <ele>1287.823242</ele>
        <time>2011-10-27T09:31:00Z</time>
      </trkpt>
      <trkpt lat="44.42752" lon="5.7453">
        <ele>1290.707031</ele>
        <time>2011-10-27T09:31:20Z</time>
      </trkpt>
      <trkpt lat="44.42759" lon="5.74528">
        <ele>1294.072021</ele>
        <time>2011-10-27T09:31:40Z</time>
      </trkpt>
      <trkpt lat="44.42766" lon="5.74529">
        <ele>1295.994629</ele>
        <time>2011-10-27T09:32:00Z</time>
      </trkpt>
      <trkpt lat="44.42775" lon="5.74525">
        <ele>1298.878418</ele>
        <time>2011-10-27T09:32:18Z</time>
      </trkpt>
      <trkpt lat="44.4278" lon="5.74526">
        <ele>1301.762451</ele>
        <time>2011-10-27T09:32:37Z</time>
      </trkpt>
      <trkpt lat="44.42786" lon="5.74519">
        <ele>1304.64624</ele>
        <time>2011-10-27T09:32:54Z</time>
      </trkpt>
      <trkpt lat="44.42792" lon="5.74522">
        <ele>1308.01123</ele>
        <time>2011-10-27T09:33:11Z</time>
      </trkpt>
      <trkpt lat="44.42794" lon="5.74524">
        <ele>1311.375732</ele>
        <time>2011-10-27T09:33:27Z</time>
      </trkpt>
      <trkpt lat="44.42796" lon="5.74526">
        <ele>1311.856445</ele>
        <time>2011-10-27T09:33:35Z</time>
      </trkpt>
      <trkpt lat="44.42801" lon="5.74529">
        <ele>1313.778809</ele>
        <time>2011-10-27T09:33:51Z</time>
      </trkpt>
      <trkpt lat="44.42805" lon="5.74529">
        <ele>1315.70166</ele>
        <time>2011-10-27T09:34:05Z</time>
      </trkpt>
      <trkpt lat="44.42809" lon="5.74532">
        <ele>1319.546875</ele>
        <time>2011-10-27T09:34:24Z</time>
      </trkpt>
      <trkpt lat="44.42812" lon="5.74532">
        <ele>1322.430664</ele>
        <time>2011-10-27T09:34:39Z</time>
      </trkpt>
      <trkpt lat="44.4282" lon="5.74532">
        <ele>1325.79541</ele>
        <time>2011-10-27T09:34:59Z</time>
      </trkpt>
      <trkpt lat="44.42827" lon="5.74531">
        <ele>1327.718018</ele>
        <time>2011-10-27T09:35:21Z</time>
      </trkpt>
      <trkpt lat="44.42831" lon="5.74528">
        <ele>1329.640625</ele>
        <time>2011-10-27T09:35:47Z</time>
      </trkpt>
      <trkpt lat="44.42831" lon="5.74528">
        <ele>1331.082764</ele>
        <time>2011-10-27T09:35:49Z</time>
      </trkpt>
      <trkpt lat="44.42836" lon="5.74526">
        <ele>1332.524658</ele>
        <time>2011-10-27T09:36:05Z</time>
      </trkpt>
      <trkpt lat="44.42841" lon="5.7453">
        <ele>1335.88916</ele>
        <time>2011-10-27T09:36:22Z</time>
      </trkpt>
      <trkpt lat="44.42844" lon="5.74532">
        <ele>1337.811768</ele>
        <time>2011-10-27T09:36:38Z</time>
      </trkpt>
      <trkpt lat="44.42847" lon="5.74534">
        <ele>1339.734375</ele>
        <time>2011-10-27T09:36:58Z</time>
      </trkpt>
      <trkpt lat="44.42853" lon="5.74534">
        <ele>1343.099121</ele>
        <time>2011-10-27T09:37:14Z</time>
      </trkpt>
      <trkpt lat="44.42859" lon="5.74529">
        <ele>1345.983154</ele>
        <time>2011-10-27T09:37:30Z</time>
      </trkpt>
      <trkpt lat="44.42863" lon="5.7453">
        <ele>1349.347656</ele>
        <time>2011-10-27T09:37:46Z</time>
      </trkpt>
      <trkpt lat="44.42871" lon="5.74529">
        <ele>1352.712158</ele>
        <time>2011-10-27T09:38:05Z</time>
      </trkpt>
      <trkpt lat="44.42874" lon="5.74533">
        <ele>1355.596191</ele>
        <time>2011-10-27T09:38:23Z</time>
      </trkpt>
      <trkpt lat="44.42876" lon="5.74536">
        <ele>1357.03833</ele>
        <time>2011-10-27T09:38:29Z</time>
      </trkpt>
      <trkpt lat="44.42882" lon="5.74532">
        <ele>1360.883545</ele>
        <time>2011-10-27T09:38:46Z</time>
      </trkpt>
      <trkpt lat="44.42887" lon="5.74534">
        <ele>1362.806152</ele>
        <time>2011-10-27T09:39:00Z</time>
      </trkpt>
      <trkpt lat="44.42887" lon="5.74537">
        <ele>1363.286865</ele>
        <time>2011-10-27T09:39:14Z</time>
      </trkpt>
      <trkpt lat="44.42886" lon="5.74537">
        <ele>1360.402832</ele>
        <time>2011-10-27T09:39:42Z</time>
      </trkpt>
      <trkpt lat="44.42886" lon="5.74537">
        <ele>1360.402832</ele>
        <time>2011-10-27T09:39:43Z</time>
      </trkpt>
      <trkpt lat="44.42886" lon="5.74537">
        <ele>1363.286865</ele>
        <time>2011-10-27T09:40:10Z</time>
      </trkpt>
      <trkpt lat="44.42887" lon="5.74543">
        <ele>1366.651367</ele>
        <time>2011-10-27T09:40:46Z</time>
      </trkpt>
      <trkpt lat="44.42887" lon="5.74544">
        <ele>1367.612549</ele>
        <time>2011-10-27T09:40:48Z</time>
      </trkpt>
      <trkpt lat="44.42889" lon="5.74547">
        <ele>1369.054688</ele>
        <time>2011-10-27T09:40:55Z</time>
      </trkpt>
      <trkpt lat="44.42893" lon="5.74551">
        <ele>1369.054688</ele>
        <time>2011-10-27T09:41:10Z</time>
      </trkpt>
      <trkpt lat="44.42892" lon="5.74555">
        <ele>1370.496582</ele>
        <time>2011-10-27T09:41:18Z</time>
      </trkpt>
      <trkpt lat="44.42892" lon="5.74555">
        <ele>1371.457764</ele>
        <time>2011-10-27T09:41:20Z</time>
      </trkpt>
      <trkpt lat="44.42891" lon="5.74558">
        <ele>1373.380859</ele>
        <time>2011-10-27T09:41:27Z</time>
      </trkpt>
      <trkpt lat="44.42892" lon="5.74559">
        <ele>1374.342041</ele>
        <time>2011-10-27T09:41:32Z</time>
      </trkpt>
      <trkpt lat="44.42893" lon="5.74561">
        <ele>1375.303223</ele>
        <time>2011-10-27T09:41:36Z</time>
      </trkpt>
      <trkpt lat="44.42895" lon="5.74561">
        <ele>1378.187256</ele>
        <time>2011-10-27T09:41:41Z</time>
      </trkpt>
      <trkpt lat="44.42901" lon="5.7456">
        <ele>1379.62915</ele>
        <time>2011-10-27T09:41:58Z</time>
      </trkpt>
      <trkpt lat="44.42909" lon="5.7456">
        <ele>1382.513184</ele>
        <time>2011-10-27T09:42:18Z</time>
      </trkpt>
      <trkpt lat="44.42915" lon="5.74558">
        <ele>1385.877686</ele>
        <time>2011-10-27T09:42:36Z</time>
      </trkpt>
      <trkpt lat="44.42922" lon="5.74558">
        <ele>1388.28125</ele>
        <time>2011-10-27T09:42:55Z</time>
      </trkpt>
      <trkpt lat="44.42922" lon="5.74567">
        <ele>1389.242432</ele>
        <time>2011-10-27T09:43:12Z</time>
      </trkpt>
      <trkpt lat="44.4292" lon="5.74576">
        <ele>1392.126465</ele>
        <time>2011-10-27T09:43:28Z</time>
      </trkpt>
      <trkpt lat="44.42923" lon="5.74575">
        <ele>1394.529541</ele>
        <time>2011-10-27T09:43:37Z</time>
      </trkpt>
      <trkpt lat="44.42932" lon="5.74577">
        <ele>1397.413574</ele>
        <time>2011-10-27T09:44:03Z</time>
      </trkpt>
      <trkpt lat="44.42933" lon="5.74578">
        <ele>1398.855469</ele>
        <time>2011-10-27T09:44:05Z</time>
      </trkpt>
      <trkpt lat="44.42934" lon="5.74578">
        <ele>1399.816895</ele>
        <time>2011-10-27T09:44:07Z</time>
      </trkpt>
      <trkpt lat="44.42939" lon="5.74576">
        <ele>1402.219971</ele>
        <time>2011-10-27T09:44:23Z</time>
      </trkpt>
      <trkpt lat="44.42947" lon="5.74574">
        <ele>1405.584961</ele>
        <time>2011-10-27T09:44:45Z</time>
      </trkpt>
      <trkpt lat="44.42958" lon="5.74571">
        <ele>1408.46875</ele>
        <time>2011-10-27T09:45:13Z</time>
      </trkpt>
      <trkpt lat="44.42963" lon="5.7457">
        <ele>1411.833496</ele>
        <time>2011-10-27T09:45:27Z</time>
      </trkpt>
      <trkpt lat="44.42963" lon="5.7457">
        <ele>1411.833496</ele>
        <time>2011-10-27T09:45:28Z</time>
      </trkpt>
      <trkpt lat="44.42976" lon="5.74564">
        <ele>1415.197998</ele>
        <time>2011-10-27T09:45:54Z</time>
      </trkpt>
      <trkpt lat="44.42986" lon="5.74561">
        <ele>1418.5625</ele>
        <time>2011-10-27T09:46:13Z</time>
      </trkpt>
      <trkpt lat="44.42992" lon="5.74561">
        <ele>1420.485352</ele>
        <time>2011-10-27T09:46:26Z</time>
      </trkpt>
      <trkpt lat="44.42996" lon="5.74562">
        <ele>1421.927246</ele>
        <time>2011-10-27T09:46:33Z</time>
      </trkpt>
      <trkpt lat="44.43002" lon="5.74562">
        <ele>1424.330566</ele>
        <time>2011-10-27T09:46:49Z</time>
      </trkpt>
      <trkpt lat="44.43002" lon="5.74561">
        <ele>1424.811279</ele>
        <time>2011-10-27T09:47:05Z</time>
      </trkpt>
      <trkpt lat="44.43001" lon="5.7456">
        <ele>1422.407959</ele>
        <time>2011-10-27T09:47:17Z</time>
      </trkpt>
      <trkpt lat="44.42996" lon="5.74564">
        <ele>1423.849854</ele>
        <time>2011-10-27T09:47:31Z</time>
      </trkpt>
      <trkpt lat="44.42996" lon="5.74564">
        <ele>1421.927246</ele>
        <time>2011-10-27T09:47:35Z</time>
      </trkpt>
      <trkpt lat="44.42996" lon="5.74564">
        <ele>1423.369385</ele>
        <time>2011-10-27T09:47:56Z</time>
      </trkpt>
      <trkpt lat="44.42996" lon="5.74564">
        <ele>1425.291748</ele>
        <time>2011-10-27T09:48:22Z</time>
      </trkpt>
      <trkpt lat="44.42996" lon="5.74564">
        <ele>1422.407959</ele>
        <time>2011-10-27T09:48:43Z</time>
      </trkpt>
      <trkpt lat="44.42996" lon="5.74565">
        <ele>1421.927246</ele>
        <time>2011-10-27T09:49:16Z</time>
      </trkpt>
      <trkpt lat="44.42996" lon="5.74566">
        <ele>1424.330566</ele>
        <time>2011-10-27T09:49:29Z</time>
      </trkpt>
      <trkpt lat="44.42996" lon="5.74566">
        <ele>1423.849854</ele>
        <time>2011-10-27T09:49:33Z</time>
      </trkpt>
      <trkpt lat="44.42996" lon="5.74569">
        <ele>1420.966064</ele>
        <time>2011-10-27T09:50:30Z</time>
      </trkpt>
      <trkpt lat="44.42995" lon="5.74569">
        <ele>1421.927246</ele>
        <time>2011-10-27T09:51:13Z</time>
      </trkpt>
      <trkpt lat="44.42995" lon="5.74569">
        <ele>1421.446533</ele>
        <time>2011-10-27T09:53:27Z</time>
      </trkpt>
      <trkpt lat="44.42995" lon="5.74569">
        <ele>1420.485352</ele>
        <time>2011-10-27T09:53:45Z</time>
      </trkpt>
      <trkpt lat="44.42995" lon="5.74569">
        <ele>1419.523926</ele>
        <time>2011-10-27T09:53:48Z</time>
      </trkpt>
      <trkpt lat="44.42995" lon="5.74569">
        <ele>1421.927246</ele>
        <time>2011-10-27T09:53:50Z</time>
      </trkpt>
      <trkpt lat="44.42995" lon="5.74567">
        <ele>1425.291748</ele>
        <time>2011-10-27T09:55:10Z</time>
      </trkpt>
      <trkpt lat="44.42995" lon="5.74567">
        <ele>1422.888672</ele>
        <time>2011-10-27T09:55:16Z</time>
      </trkpt>
      <trkpt lat="44.42994" lon="5.74567">
        <ele>1421.927246</ele>
        <time>2011-10-27T09:55:18Z</time>
      </trkpt>
      <trkpt lat="44.42993" lon="5.74568">
        <ele>1422.888672</ele>
        <time>2011-10-27T09:55:49Z</time>
      </trkpt>
      <trkpt lat="44.42993" lon="5.74569">
        <ele>1422.888672</ele>
        <time>2011-10-27T09:56:56Z</time>
      </trkpt>
      <trkpt lat="44.42993" lon="5.74567">
        <ele>1424.330566</ele>
        <time>2011-10-27T09:58:40Z</time>
      </trkpt>
      <trkpt lat="44.42993" lon="5.74566">
        <ele>1424.330566</ele>
        <time>2011-10-27T09:59:37Z</time>
      </trkpt>
      <trkpt lat="44.42993" lon="5.74566">
        <ele>1421.927246</ele>
        <time>2011-10-27T10:00:54Z</time>
      </trkpt>
      <trkpt lat="44.42993" lon="5.74566">
        <ele>1423.369385</ele>
        <time>2011-10-27T10:00:59Z</time>
      </trkpt>
      <trkpt lat="44.42989" lon="5.74564">
        <ele>1420.004639</ele>
        <time>2011-10-27T10:01:32Z</time>
      </trkpt>
      <trkpt lat="44.42988" lon="5.74564">
        <ele>1420.004639</ele>
        <time>2011-10-27T10:01:33Z</time>
      </trkpt>
      <trkpt lat="44.42975" lon="5.74566">
        <ele>1417.120605</ele>
        <time>2011-10-27T10:01:48Z</time>
      </trkpt>
      <trkpt lat="44.42966" lon="5.74567">
        <ele>1415.678711</ele>
        <time>2011-10-27T10:01:57Z</time>
      </trkpt>
      <trkpt lat="44.42961" lon="5.74569">
        <ele>1412.794678</ele>
        <time>2011-10-27T10:02:03Z</time>
      </trkpt>
      <trkpt lat="44.42952" lon="5.74572">
        <ele>1409.430176</ele>
        <time>2011-10-27T10:02:18Z</time>
      </trkpt>
      <trkpt lat="44.42942" lon="5.74576">
        <ele>1406.06543</ele>
        <time>2011-10-27T10:02:35Z</time>
      </trkpt>
      <trkpt lat="44.42937" lon="5.74575">
        <ele>1402.700684</ele>
        <time>2011-10-27T10:02:46Z</time>
      </trkpt>
      <trkpt lat="44.42935" lon="5.74575">
        <ele>1401.739502</ele>
        <time>2011-10-27T10:02:49Z</time>
      </trkpt>
      <trkpt lat="44.42929" lon="5.74574">
        <ele>1398.855469</ele>
        <time>2011-10-27T10:03:02Z</time>
      </trkpt>
      <trkpt lat="44.42924" lon="5.74573">
        <ele>1395.490967</ele>
        <time>2011-10-27T10:03:23Z</time>
      </trkpt>
      <trkpt lat="44.42923" lon="5.74558">
        <ele>1392.126465</ele>
        <time>2011-10-27T10:03:37Z</time>
      </trkpt>
      <trkpt lat="44.42922" lon="5.74557">
        <ele>1389.242432</ele>
        <time>2011-10-27T10:03:48Z</time>
      </trkpt>
      <trkpt lat="44.42919" lon="5.74559">
        <ele>1385.877686</ele>
        <time>2011-10-27T10:04:01Z</time>
      </trkpt>
      <trkpt lat="44.42919" lon="5.74559">
        <ele>1385.877686</ele>
        <time>2011-10-27T10:04:02Z</time>
      </trkpt>
      <trkpt lat="44.42915" lon="5.74558">
        <ele>1383.955078</ele>
        <time>2011-10-27T10:04:07Z</time>
      </trkpt>
      <trkpt lat="44.42905" lon="5.74558">
        <ele>1381.551758</ele>
        <time>2011-10-27T10:04:17Z</time>
      </trkpt>
      <trkpt lat="44.42901" lon="5.74561">
        <ele>1378.187256</ele>
        <time>2011-10-27T10:04:37Z</time>
      </trkpt>
      <trkpt lat="44.429" lon="5.74561">
        <ele>1377.226074</ele>
        <time>2011-10-27T10:04:39Z</time>
      </trkpt>
      <trkpt lat="44.42897" lon="5.74559">
        <ele>1373.380859</ele>
        <time>2011-10-27T10:04:59Z</time>
      </trkpt>
      <trkpt lat="44.42896" lon="5.74558">
        <ele>1373.380859</ele>
        <time>2011-10-27T10:05:00Z</time>
      </trkpt>
      <trkpt lat="44.42893" lon="5.7455">
        <ele>1371.938477</ele>
        <time>2011-10-27T10:05:09Z</time>
      </trkpt>
      <trkpt lat="44.42893" lon="5.7455">
        <ele>1370.496582</ele>
        <time>2011-10-27T10:05:11Z</time>
      </trkpt>
      <trkpt lat="44.42888" lon="5.74544">
        <ele>1369.054688</ele>
        <time>2011-10-27T10:05:27Z</time>
      </trkpt>
      <trkpt lat="44.42887" lon="5.74534">
        <ele>1366.651367</ele>
        <time>2011-10-27T10:05:37Z</time>
      </trkpt>
      <trkpt lat="44.42883" lon="5.74528">
        <ele>1363.767334</ele>
        <time>2011-10-27T10:05:49Z</time>
      </trkpt>
      <trkpt lat="44.42876" lon="5.7453">
        <ele>1359.922119</ele>
        <time>2011-10-27T10:06:06Z</time>
      </trkpt>
      <trkpt lat="44.42873" lon="5.74528">
        <ele>1357.999756</ele>
        <time>2011-10-27T10:06:20Z</time>
      </trkpt>
      <trkpt lat="44.42872" lon="5.74528">
        <ele>1355.115479</ele>
        <time>2011-10-27T10:06:28Z</time>
      </trkpt>
      <trkpt lat="44.42862" lon="5.74529">
        <ele>1350.789551</ele>
        <time>2011-10-27T10:06:47Z</time>
      </trkpt>
      <trkpt lat="44.42862" lon="5.74529">
        <ele>1350.789551</ele>
        <time>2011-10-27T10:06:48Z</time>
      </trkpt>
      <trkpt lat="44.42848" lon="5.74532">
        <ele>1347.905762</ele>
        <time>2011-10-27T10:07:16Z</time>
      </trkpt>
      <trkpt lat="44.42847" lon="5.74531">
        <ele>1345.983154</ele>
        <time>2011-10-27T10:07:18Z</time>
      </trkpt>
      <trkpt lat="44.42846" lon="5.74531">
        <ele>1347.425049</ele>
        <time>2011-10-27T10:07:20Z</time>
      </trkpt>
      <trkpt lat="44.42846" lon="5.74531">
        <ele>1344.060547</ele>
        <time>2011-10-27T10:07:29Z</time>
      </trkpt>
      <trkpt lat="44.42842" lon="5.74527">
        <ele>1339.253662</ele>
        <time>2011-10-27T10:07:40Z</time>
      </trkpt>
      <trkpt lat="44.42841" lon="5.74527">
        <ele>1340.695801</ele>
        <time>2011-10-27T10:07:41Z</time>
      </trkpt>
      <trkpt lat="44.42838" lon="5.74527">
        <ele>1338.29248</ele>
        <time>2011-10-27T10:07:55Z</time>
      </trkpt>
      <trkpt lat="44.42831" lon="5.74526">
        <ele>1336.850342</ele>
        <time>2011-10-27T10:08:14Z</time>
      </trkpt>
      <trkpt lat="44.42829" lon="5.74526">
        <ele>1334.927979</ele>
        <time>2011-10-27T10:08:19Z</time>
      </trkpt>
      <trkpt lat="44.42827" lon="5.74526">
        <ele>1333.966553</ele>
        <time>2011-10-27T10:08:22Z</time>
      </trkpt>
      <trkpt lat="44.42817" lon="5.74529">
        <ele>1332.043945</ele>
        <time>2011-10-27T10:08:36Z</time>
      </trkpt>
      <trkpt lat="44.42808" lon="5.74528">
        <ele>1328.679443</ele>
        <time>2011-10-27T10:08:48Z</time>
      </trkpt>
      <trkpt lat="44.42808" lon="5.74528">
        <ele>1328.679443</ele>
        <time>2011-10-27T10:08:49Z</time>
      </trkpt>
      <trkpt lat="44.42805" lon="5.74525">
        <ele>1326.276123</ele>
        <time>2011-10-27T10:09:07Z</time>
      </trkpt>
      <trkpt lat="44.42803" lon="5.74523">
        <ele>1324.834229</ele>
        <time>2011-10-27T10:09:25Z</time>
      </trkpt>
      <trkpt lat="44.42798" lon="5.7452">
        <ele>1322.430664</ele>
        <time>2011-10-27T10:09:41Z</time>
      </trkpt>
      <trkpt lat="44.42795" lon="5.74519">
        <ele>1320.508057</ele>
        <time>2011-10-27T10:09:47Z</time>
      </trkpt>
      <trkpt lat="44.42794" lon="5.7452">
        <ele>1321.469238</ele>
        <time>2011-10-27T10:09:51Z</time>
      </trkpt>
      <trkpt lat="44.42793" lon="5.74518">
        <ele>1318.104736</ele>
        <time>2011-10-27T10:09:57Z</time>
      </trkpt>
      <trkpt lat="44.42793" lon="5.74517">
        <ele>1318.585449</ele>
        <time>2011-10-27T10:09:58Z</time>
      </trkpt>
      <trkpt lat="44.42793" lon="5.74517">
        <ele>1315.220947</ele>
        <time>2011-10-27T10:10:00Z</time>
      </trkpt>
      <trkpt lat="44.42793" lon="5.74517">
        <ele>1315.220947</ele>
        <time>2011-10-27T10:10:01Z</time>
      </trkpt>
      <trkpt lat="44.42792" lon="5.74517">
        <ele>1316.662842</ele>
        <time>2011-10-27T10:10:03Z</time>
      </trkpt>
      <trkpt lat="44.42794" lon="5.74516">
        <ele>1315.70166</ele>
        <time>2011-10-27T10:10:07Z</time>
      </trkpt>
      <trkpt lat="44.42791" lon="5.74518">
        <ele>1313.29834</ele>
        <time>2011-10-27T10:10:14Z</time>
      </trkpt>
      <trkpt lat="44.42782" lon="5.74519">
        <ele>1310.89502</ele>
        <time>2011-10-27T10:10:33Z</time>
      </trkpt>
      <trkpt lat="44.42776" lon="5.74518">
        <ele>1307.530273</ele>
        <time>2011-10-27T10:10:48Z</time>
      </trkpt>
      <trkpt lat="44.42769" lon="5.74521">
        <ele>1305.607666</ele>
        <time>2011-10-27T10:11:02Z</time>
      </trkpt>
      <trkpt lat="44.42767" lon="5.74522">
        <ele>1306.088135</ele>
        <time>2011-10-27T10:11:15Z</time>
      </trkpt>
      <trkpt lat="44.42761" lon="5.74523">
        <ele>1302.723633</ele>
        <time>2011-10-27T10:11:30Z</time>
      </trkpt>
      <trkpt lat="44.42755" lon="5.74526">
        <ele>1299.359131</ele>
        <time>2011-10-27T10:11:44Z</time>
      </trkpt>
      <trkpt lat="44.42755" lon="5.74526">
        <ele>1299.359131</ele>
        <time>2011-10-27T10:11:45Z</time>
      </trkpt>
      <trkpt lat="44.42754" lon="5.74526">
        <ele>1302.24292</ele>
        <time>2011-10-27T10:11:48Z</time>
      </trkpt>
      <trkpt lat="44.42753" lon="5.74527">
        <ele>1302.24292</ele>
        <time>2011-10-27T10:11:49Z</time>
      </trkpt>
      <trkpt lat="44.42752" lon="5.74526">
        <ele>1299.839844</ele>
        <time>2011-10-27T10:11:51Z</time>
      </trkpt>
      <trkpt lat="44.42748" lon="5.74521">
        <ele>1297.917236</ele>
        <time>2011-10-27T10:11:59Z</time>
      </trkpt>
      <trkpt lat="44.42743" lon="5.74521">
        <ele>1295.994629</ele>
        <time>2011-10-27T10:12:14Z</time>
      </trkpt>
      <trkpt lat="44.42742" lon="5.74503">
        <ele>1292.630127</ele>
        <time>2011-10-27T10:12:34Z</time>
      </trkpt>
      <trkpt lat="44.42737" lon="5.7451">
        <ele>1290.226563</ele>
        <time>2011-10-27T10:12:47Z</time>
      </trkpt>
      <trkpt lat="44.42734" lon="5.74507">
        <ele>1287.342529</ele>
        <time>2011-10-27T10:12:59Z</time>
      </trkpt>
      <trkpt lat="44.42731" lon="5.74505">
        <ele>1284.45874</ele>
        <time>2011-10-27T10:13:16Z</time>
      </trkpt>
      <trkpt lat="44.42725" lon="5.745">
        <ele>1280.132813</ele>
        <time>2011-10-27T10:13:28Z</time>
      </trkpt>
      <trkpt lat="44.42724" lon="5.74501">
        <ele>1280.132813</ele>
        <time>2011-10-27T10:13:29Z</time>
      </trkpt>
      <trkpt lat="44.42715" lon="5.74499">
        <ele>1277.729492</ele>
        <time>2011-10-27T10:13:47Z</time>
      </trkpt>
      <trkpt lat="44.42711" lon="5.74488">
        <ele>1274.364746</ele>
        <time>2011-10-27T10:14:09Z</time>
      </trkpt>
      <trkpt lat="44.4271" lon="5.7448">
        <ele>1270.519531</ele>
        <time>2011-10-27T10:14:21Z</time>
      </trkpt>
      <trkpt lat="44.4271" lon="5.74474">
        <ele>1268.116211</ele>
        <time>2011-10-27T10:14:41Z</time>
      </trkpt>
      <trkpt lat="44.42707" lon="5.74476">
        <ele>1265.713135</ele>
        <time>2011-10-27T10:14:51Z</time>
      </trkpt>
      <trkpt lat="44.42705" lon="5.74465">
        <ele>1263.790283</ele>
        <time>2011-10-27T10:15:10Z</time>
      </trkpt>
      <trkpt lat="44.42702" lon="5.74462">
        <ele>1260.425781</ele>
        <time>2011-10-27T10:15:24Z</time>
      </trkpt>
      <trkpt lat="44.42697" lon="5.74457">
        <ele>1257.541748</ele>
        <time>2011-10-27T10:15:38Z</time>
      </trkpt>
      <trkpt lat="44.42695" lon="5.74454">
        <ele>1254.177246</ele>
        <time>2011-10-27T10:15:47Z</time>
      </trkpt>
      <trkpt lat="44.42692" lon="5.74448">
        <ele>1251.293213</ele>
        <time>2011-10-27T10:16:00Z</time>
      </trkpt>
      <trkpt lat="44.42692" lon="5.74447">
        <ele>1251.773926</ele>
        <time>2011-10-27T10:16:04Z</time>
      </trkpt>
      <trkpt lat="44.42689" lon="5.74441">
        <ele>1247.447998</ele>
        <time>2011-10-27T10:16:17Z</time>
      </trkpt>
      <trkpt lat="44.42689" lon="5.74438">
        <ele>1247.447998</ele>
        <time>2011-10-27T10:16:18Z</time>
      </trkpt>
      <trkpt lat="44.42686" lon="5.74432">
        <ele>1245.044678</ele>
        <time>2011-10-27T10:16:29Z</time>
      </trkpt>
      <trkpt lat="44.42681" lon="5.74424">
        <ele>1241.679932</ele>
        <time>2011-10-27T10:16:43Z</time>
      </trkpt>
      <trkpt lat="44.42679" lon="5.74423">
        <ele>1238.796143</ele>
        <time>2011-10-27T10:16:53Z</time>
      </trkpt>
      <trkpt lat="44.42678" lon="5.74418">
        <ele>1237.834717</ele>
        <time>2011-10-27T10:16:58Z</time>
      </trkpt>
      <trkpt lat="44.4268" lon="5.74404">
        <ele>1238.31543</ele>
        <time>2011-10-27T10:17:10Z</time>
      </trkpt>
      <trkpt lat="44.42677" lon="5.74393">
        <ele>1237.354004</ele>
        <time>2011-10-27T10:17:23Z</time>
      </trkpt>
      <trkpt lat="44.42675" lon="5.74387">
        <ele>1234.950928</ele>
        <time>2011-10-27T10:17:36Z</time>
      </trkpt>
      <trkpt lat="44.42671" lon="5.74383">
        <ele>1232.547607</ele>
        <time>2011-10-27T10:17:51Z</time>
      </trkpt>
      <trkpt lat="44.42668" lon="5.74382">
        <ele>1231.105713</ele>
        <time>2011-10-27T10:18:02Z</time>
      </trkpt>
      <trkpt lat="44.42663" lon="5.74376">
        <ele>1228.22168</ele>
        <time>2011-10-27T10:18:15Z</time>
      </trkpt>
      <trkpt lat="44.42653" lon="5.74364">
        <ele>1225.818115</ele>
        <time>2011-10-27T10:18:35Z</time>
      </trkpt>
      <trkpt lat="44.42649" lon="5.74357">
        <ele>1222.453613</ele>
        <time>2011-10-27T10:18:47Z</time>
      </trkpt>
      <trkpt lat="44.42647" lon="5.74353">
        <ele>1220.531006</ele>
        <time>2011-10-27T10:18:51Z</time>
      </trkpt>
      <trkpt lat="44.42642" lon="5.74345">
        <ele>1217.646973</ele>
        <time>2011-10-27T10:19:04Z</time>
      </trkpt>
      <trkpt lat="44.42631" lon="5.74341">
        <ele>1214.763184</ele>
        <time>2011-10-27T10:19:19Z</time>
      </trkpt>
      <trkpt lat="44.42622" lon="5.74334">
        <ele>1212.359863</ele>
        <time>2011-10-27T10:19:32Z</time>
      </trkpt>
      <trkpt lat="44.4262" lon="5.74332">
        <ele>1211.87915</ele>
        <time>2011-10-27T10:19:34Z</time>
      </trkpt>
      <trkpt lat="44.42612" lon="5.74325">
        <ele>1208.033936</ele>
        <time>2011-10-27T10:19:45Z</time>
      </trkpt>
      <trkpt lat="44.42604" lon="5.74315">
        <ele>1206.591797</ele>
        <time>2011-10-27T10:19:55Z</time>
      </trkpt>
      <trkpt lat="44.42603" lon="5.74314">
        <ele>1206.591797</ele>
        <time>2011-10-27T10:19:56Z</time>
      </trkpt>
      <trkpt lat="44.42594" lon="5.74299">
        <ele>1205.149902</ele>
        <time>2011-10-27T10:20:10Z</time>
      </trkpt>
      <trkpt lat="44.42592" lon="5.74296">
        <ele>1205.630615</ele>
        <time>2011-10-27T10:20:13Z</time>
      </trkpt>
      <trkpt lat="44.42587" lon="5.74294">
        <ele>1205.149902</ele>
        <time>2011-10-27T10:20:17Z</time>
      </trkpt>
      <trkpt lat="44.42582" lon="5.74292">
        <ele>1205.149902</ele>
        <time>2011-10-27T10:20:21Z</time>
      </trkpt>
      <trkpt lat="44.42579" lon="5.743">
        <ele>1205.630615</ele>
        <time>2011-10-27T10:20:29Z</time>
      </trkpt>
      <trkpt lat="44.42576" lon="5.74304">
        <ele>1204.669189</ele>
        <time>2011-10-27T10:20:32Z</time>
      </trkpt>
      <trkpt lat="44.42568" lon="5.74309">
        <ele>1203.227295</ele>
        <time>2011-10-27T10:20:46Z</time>
      </trkpt>
      <trkpt lat="44.42565" lon="5.74308">
        <ele>1201.304688</ele>
        <time>2011-10-27T10:20:49Z</time>
      </trkpt>
      <trkpt lat="44.42554" lon="5.74309">
        <ele>1197.459473</ele>
        <time>2011-10-27T10:21:02Z</time>
      </trkpt>
      <trkpt lat="44.42553" lon="5.74308">
        <ele>1197.459473</ele>
        <time>2011-10-27T10:21:03Z</time>
      </trkpt>
      <trkpt lat="44.42544" lon="5.743">
        <ele>1193.614014</ele>
        <time>2011-10-27T10:21:13Z</time>
      </trkpt>
      <trkpt lat="44.42539" lon="5.74292">
        <ele>1190.72998</ele>
        <time>2011-10-27T10:21:25Z</time>
      </trkpt>
      <trkpt lat="44.42538" lon="5.74292">
        <ele>1190.72998</ele>
        <time>2011-10-27T10:21:26Z</time>
      </trkpt>
      <trkpt lat="44.42533" lon="5.74291">
        <ele>1187.846191</ele>
        <time>2011-10-27T10:21:35Z</time>
      </trkpt>
      <trkpt lat="44.42531" lon="5.74293">
        <ele>1185.923584</ele>
        <time>2011-10-27T10:21:49Z</time>
      </trkpt>
      <trkpt lat="44.42531" lon="5.74294">
        <ele>1186.884766</ele>
        <time>2011-10-27T10:22:27Z</time>
      </trkpt>
      <trkpt lat="44.42527" lon="5.74294">
        <ele>1184.481689</ele>
        <time>2011-10-27T10:23:14Z</time>
      </trkpt>
      <trkpt lat="44.42527" lon="5.74295">
        <ele>1185.923584</ele>
        <time>2011-10-27T10:23:17Z</time>
      </trkpt>
      <trkpt lat="44.42528" lon="5.74304">
        <ele>1184.481689</ele>
        <time>2011-10-27T10:23:30Z</time>
      </trkpt>
      <trkpt lat="44.42532" lon="5.7431">
        <ele>1185.923584</ele>
        <time>2011-10-27T10:23:45Z</time>
      </trkpt>
      <trkpt lat="44.42543" lon="5.74321">
        <ele>1185.923584</ele>
        <time>2011-10-27T10:24:06Z</time>
      </trkpt>
      <trkpt lat="44.4255" lon="5.74326">
        <ele>1187.846191</ele>
        <time>2011-10-27T10:24:22Z</time>
      </trkpt>
      <trkpt lat="44.42557" lon="5.74328">
        <ele>1187.365479</ele>
        <time>2011-10-27T10:24:35Z</time>
      </trkpt>
      <trkpt lat="44.42557" lon="5.74333">
        <ele>1186.884766</ele>
        <time>2011-10-27T10:24:38Z</time>
      </trkpt>
      <trkpt lat="44.42558" lon="5.74337">
        <ele>1187.365479</ele>
        <time>2011-10-27T10:24:43Z</time>
      </trkpt>
      <trkpt lat="44.42552" lon="5.74348">
        <ele>1188.807617</ele>
        <time>2011-10-27T10:24:57Z</time>
      </trkpt>
      <trkpt lat="44.42548" lon="5.74352">
        <ele>1190.249512</ele>
        <time>2011-10-27T10:25:04Z</time>
      </trkpt>
      <trkpt lat="44.42546" lon="5.74371">
        <ele>1190.72998</ele>
        <time>2011-10-27T10:25:18Z</time>
      </trkpt>
      <trkpt lat="44.42538" lon="5.74385">
        <ele>1190.72998</ele>
        <time>2011-10-27T10:25:29Z</time>
      </trkpt>
      <trkpt lat="44.42527" lon="5.74403">
        <ele>1190.72998</ele>
        <time>2011-10-27T10:25:49Z</time>
      </trkpt>
      <trkpt lat="44.42523" lon="5.74421">
        <ele>1190.72998</ele>
        <time>2011-10-27T10:26:06Z</time>
      </trkpt>
      <trkpt lat="44.42528" lon="5.74433">
        <ele>1191.691406</ele>
        <time>2011-10-27T10:26:15Z</time>
      </trkpt>
      <trkpt lat="44.42527" lon="5.74445">
        <ele>1193.133301</ele>
        <time>2011-10-27T10:26:28Z</time>
      </trkpt>
      <trkpt lat="44.42529" lon="5.74458">
        <ele>1195.536621</ele>
        <time>2011-10-27T10:26:48Z</time>
      </trkpt>
      <trkpt lat="44.42532" lon="5.74461">
        <ele>1198.420654</ele>
        <time>2011-10-27T10:27:07Z</time>
      </trkpt>
      <trkpt lat="44.42536" lon="5.74473">
        <ele>1201.7854</ele>
        <time>2011-10-27T10:27:31Z</time>
      </trkpt>
      <trkpt lat="44.42539" lon="5.74484">
        <ele>1204.188721</ele>
        <time>2011-10-27T10:27:46Z</time>
      </trkpt>
      <trkpt lat="44.4254" lon="5.74487">
        <ele>1205.149902</ele>
        <time>2011-10-27T10:27:50Z</time>
      </trkpt>
      <trkpt lat="44.42537" lon="5.74495">
        <ele>1206.111084</ele>
        <time>2011-10-27T10:28:03Z</time>
      </trkpt>
      <trkpt lat="44.4254" lon="5.74502">
        <ele>1205.630615</ele>
        <time>2011-10-27T10:28:40Z</time>
      </trkpt>
      <trkpt lat="44.42544" lon="5.74503">
        <ele>1208.995117</ele>
        <time>2011-10-27T10:29:12Z</time>
      </trkpt>
      <trkpt lat="44.4255" lon="5.74511">
        <ele>1211.87915</ele>
        <time>2011-10-27T10:29:33Z</time>
      </trkpt>
      <trkpt lat="44.4255" lon="5.74512">
        <ele>1212.359863</ele>
        <time>2011-10-27T10:29:35Z</time>
      </trkpt>
      <trkpt lat="44.42558" lon="5.74517">
        <ele>1214.763184</ele>
        <time>2011-10-27T10:29:57Z</time>
      </trkpt>
      <trkpt lat="44.42561" lon="5.74524">
        <ele>1215.724609</ele>
        <time>2011-10-27T10:30:12Z</time>
      </trkpt>
      <trkpt lat="44.42567" lon="5.7453">
        <ele>1218.127686</ele>
        <time>2011-10-27T10:30:28Z</time>
      </trkpt>
      <trkpt lat="44.42566" lon="5.7454">
        <ele>1217.166504</ele>
        <time>2011-10-27T10:30:45Z</time>
      </trkpt>
      <trkpt lat="44.42565" lon="5.74553">
        <ele>1213.801758</ele>
        <time>2011-10-27T10:31:01Z</time>
      </trkpt>
      <trkpt lat="44.42562" lon="5.74565">
        <ele>1211.398438</ele>
        <time>2011-10-27T10:31:17Z</time>
      </trkpt>
      <trkpt lat="44.42561" lon="5.7457">
        <ele>1210.437012</ele>
        <time>2011-10-27T10:31:20Z</time>
      </trkpt>
      <trkpt lat="44.42559" lon="5.74583">
        <ele>1208.514404</ele>
        <time>2011-10-27T10:31:33Z</time>
      </trkpt>
      <trkpt lat="44.42557" lon="5.74599">
        <ele>1206.591797</ele>
        <time>2011-10-27T10:31:52Z</time>
      </trkpt>
      <trkpt lat="44.42555" lon="5.74605">
        <ele>1204.188721</ele>
        <time>2011-10-27T10:32:12Z</time>
      </trkpt>
      <trkpt lat="44.42552" lon="5.74623">
        <ele>1204.669189</ele>
        <time>2011-10-27T10:32:28Z</time>
      </trkpt>
      <trkpt lat="44.42548" lon="5.74633">
        <ele>1208.033936</ele>
        <time>2011-10-27T10:32:41Z</time>
      </trkpt>
      <trkpt lat="44.42556" lon="5.74635">
        <ele>1210.917725</ele>
        <time>2011-10-27T10:32:57Z</time>
      </trkpt>
      <trkpt lat="44.42563" lon="5.74637">
        <ele>1213.801758</ele>
        <time>2011-10-27T10:33:15Z</time>
      </trkpt>
      <trkpt lat="44.42564" lon="5.74652">
        <ele>1217.166504</ele>
        <time>2011-10-27T10:33:36Z</time>
      </trkpt>
      <trkpt lat="44.42569" lon="5.7466">
        <ele>1220.050293</ele>
        <time>2011-10-27T10:33:59Z</time>
      </trkpt>
      <trkpt lat="44.42573" lon="5.7466">
        <ele>1221.492188</ele>
        <time>2011-10-27T10:35:31Z</time>
      </trkpt>
      <trkpt lat="44.42572" lon="5.7466">
        <ele>1221.492188</ele>
        <time>2011-10-27T10:45:11Z</time>
      </trkpt>
      <trkpt lat="44.42572" lon="5.74661">
        <ele>1221.9729</ele>
        <time>2011-10-27T10:47:24Z</time>
      </trkpt>
      <trkpt lat="44.42572" lon="5.74661">
        <ele>1219.089111</ele>
        <time>2011-10-27T10:47:33Z</time>
      </trkpt>
      <trkpt lat="44.42572" lon="5.74661">
        <ele>1222.453613</ele>
        <time>2011-10-27T10:51:03Z</time>
      </trkpt>
      <trkpt lat="44.42572" lon="5.74662">
        <ele>1219.089111</ele>
        <time>2011-10-27T10:55:22Z</time>
      </trkpt>
      <trkpt lat="44.42572" lon="5.74662">
        <ele>1219.089111</ele>
        <time>2011-10-27T10:55:37Z</time>
      </trkpt>
      <trkpt lat="44.42572" lon="5.74662">
        <ele>1221.492188</ele>
        <time>2011-10-27T10:55:42Z</time>
      </trkpt>
      <trkpt lat="44.42573" lon="5.74663">
        <ele>1218.608398</ele>
        <time>2011-10-27T11:03:08Z</time>
      </trkpt>
      <trkpt lat="44.42573" lon="5.74663">
        <ele>1221.011719</ele>
        <time>2011-10-27T11:03:25Z</time>
      </trkpt>
      <trkpt lat="44.42573" lon="5.74663">
        <ele>1224.376221</ele>
        <time>2011-10-27T11:04:01Z</time>
      </trkpt>
      <trkpt lat="44.42572" lon="5.74662">
        <ele>1223.895508</ele>
        <time>2011-10-27T11:10:15Z</time>
      </trkpt>
      <trkpt lat="44.42572" lon="5.74661">
        <ele>1221.9729</ele>
        <time>2011-10-27T11:12:32Z</time>
      </trkpt>
      <trkpt lat="44.42572" lon="5.74661">
        <ele>1223.415039</ele>
        <time>2011-10-27T11:12:34Z</time>
      </trkpt>
      <trkpt lat="44.42572" lon="5.74661">
        <ele>1222.934326</ele>
        <time>2011-10-27T11:12:50Z</time>
      </trkpt>
      <trkpt lat="44.42572" lon="5.7466">
        <ele>1225.818115</ele>
        <time>2011-10-27T11:15:07Z</time>
      </trkpt>
      <trkpt lat="44.42572" lon="5.74659">
        <ele>1225.337402</ele>
        <time>2011-10-27T11:15:51Z</time>
      </trkpt>
      <trkpt lat="44.42572" lon="5.74659">
        <ele>1226.298828</ele>
        <time>2011-10-27T11:15:55Z</time>
      </trkpt>
      <trkpt lat="44.42571" lon="5.74659">
        <ele>1224.376221</ele>
        <time>2011-10-27T11:18:18Z</time>
      </trkpt>
      <trkpt lat="44.42567" lon="5.74663">
        <ele>1222.453613</ele>
        <time>2011-10-27T11:18:54Z</time>
      </trkpt>
      <trkpt lat="44.42571" lon="5.7467">
        <ele>1220.531006</ele>
        <time>2011-10-27T11:19:08Z</time>
      </trkpt>
      <trkpt lat="44.42568" lon="5.74676">
        <ele>1217.646973</ele>
        <time>2011-10-27T11:19:23Z</time>
      </trkpt>
      <trkpt lat="44.42568" lon="5.7468">
        <ele>1214.763184</ele>
        <time>2011-10-27T11:19:31Z</time>
      </trkpt>
      <trkpt lat="44.42569" lon="5.74682">
        <ele>1212.840576</ele>
        <time>2011-10-27T11:19:35Z</time>
      </trkpt>
      <trkpt lat="44.42574" lon="5.74683">
        <ele>1209.956299</ele>
        <time>2011-10-27T11:19:41Z</time>
      </trkpt>
      <trkpt lat="44.42577" lon="5.74687">
        <ele>1208.033936</ele>
        <time>2011-10-27T11:19:47Z</time>
      </trkpt>
      <trkpt lat="44.4258" lon="5.74692">
        <ele>1208.514404</ele>
        <time>2011-10-27T11:20:06Z</time>
      </trkpt>
      <trkpt lat="44.42578" lon="5.74696">
        <ele>1207.07251</ele>
        <time>2011-10-27T11:20:23Z</time>
      </trkpt>
      <trkpt lat="44.42577" lon="5.74696">
        <ele>1207.07251</ele>
        <time>2011-10-27T11:20:24Z</time>
      </trkpt>
      <trkpt lat="44.42568" lon="5.74696">
        <ele>1204.188721</ele>
        <time>2011-10-27T11:20:38Z</time>
      </trkpt>
      <trkpt lat="44.42564" lon="5.74698">
        <ele>1200.823975</ele>
        <time>2011-10-27T11:20:49Z</time>
      </trkpt>
      <trkpt lat="44.42565" lon="5.74701">
        <ele>1199.862793</ele>
        <time>2011-10-27T11:20:53Z</time>
      </trkpt>
      <trkpt lat="44.42569" lon="5.74706">
        <ele>1197.940186</ele>
        <time>2011-10-27T11:20:59Z</time>
      </trkpt>
      <trkpt lat="44.42575" lon="5.74712">
        <ele>1197.459473</ele>
        <time>2011-10-27T11:21:13Z</time>
      </trkpt>
      <trkpt lat="44.42573" lon="5.74721">
        <ele>1196.017578</ele>
        <time>2011-10-27T11:21:27Z</time>
      </trkpt>
      <trkpt lat="44.42572" lon="5.74724">
        <ele>1194.094727</ele>
        <time>2011-10-27T11:21:46Z</time>
      </trkpt>
      <trkpt lat="44.4257" lon="5.74732">
        <ele>1190.72998</ele>
        <time>2011-10-27T11:22:05Z</time>
      </trkpt>
      <trkpt lat="44.42572" lon="5.74733">
        <ele>1187.365479</ele>
        <time>2011-10-27T11:22:19Z</time>
      </trkpt>
      <trkpt lat="44.42573" lon="5.74737">
        <ele>1184.481689</ele>
        <time>2011-10-27T11:22:32Z</time>
      </trkpt>
      <trkpt lat="44.42573" lon="5.74736">
        <ele>1184.481689</ele>
        <time>2011-10-27T11:22:33Z</time>
      </trkpt>
      <trkpt lat="44.42562" lon="5.74743">
        <ele>1181.597656</ele>
        <time>2011-10-27T11:22:48Z</time>
      </trkpt>
      <trkpt lat="44.42551" lon="5.74747">
        <ele>1179.194092</ele>
        <time>2011-10-27T11:23:06Z</time>
      </trkpt>
      <trkpt lat="44.42547" lon="5.74745">
        <ele>1176.310303</ele>
        <time>2011-10-27T11:23:24Z</time>
      </trkpt>
      <trkpt lat="44.42546" lon="5.74754">
        <ele>1172.945801</ele>
        <time>2011-10-27T11:23:38Z</time>
      </trkpt>
      <trkpt lat="44.42542" lon="5.74761">
        <ele>1169.581299</ele>
        <time>2011-10-27T11:23:49Z</time>
      </trkpt>
      <trkpt lat="44.42552" lon="5.74771">
        <ele>1169.100586</ele>
        <time>2011-10-27T11:24:06Z</time>
      </trkpt>
      <trkpt lat="44.42561" lon="5.74779">
        <ele>1165.736084</ele>
        <time>2011-10-27T11:24:21Z</time>
      </trkpt>
      <trkpt lat="44.42553" lon="5.74784">
        <ele>1162.371094</ele>
        <time>2011-10-27T11:24:31Z</time>
      </trkpt>
      <trkpt lat="44.42546" lon="5.74788">
        <ele>1160.448486</ele>
        <time>2011-10-27T11:24:39Z</time>
      </trkpt>
      <trkpt lat="44.42546" lon="5.74791">
        <ele>1159.006592</ele>
        <time>2011-10-27T11:24:46Z</time>
      </trkpt>
      <trkpt lat="44.42554" lon="5.74793">
        <ele>1155.64209</ele>
        <time>2011-10-27T11:24:58Z</time>
      </trkpt>
      <trkpt lat="44.42546" lon="5.74801">
        <ele>1155.161377</ele>
        <time>2011-10-27T11:25:13Z</time>
      </trkpt>
      <trkpt lat="44.42547" lon="5.74808">
        <ele>1152.277344</ele>
        <time>2011-10-27T11:25:24Z</time>
      </trkpt>
      <trkpt lat="44.42548" lon="5.74817">
        <ele>1148.912842</ele>
        <time>2011-10-27T11:25:43Z</time>
      </trkpt>
      <trkpt lat="44.42553" lon="5.74822">
        <ele>1146.028809</ele>
        <time>2011-10-27T11:25:58Z</time>
      </trkpt>
      <trkpt lat="44.42556" lon="5.74827">
        <ele>1142.664307</ele>
        <time>2011-10-27T11:26:19Z</time>
      </trkpt>
      <trkpt lat="44.42547" lon="5.7483">
        <ele>1139.299561</ele>
        <time>2011-10-27T11:26:31Z</time>
      </trkpt>
      <trkpt lat="44.42534" lon="5.74832">
        <ele>1136.89624</ele>
        <time>2011-10-27T11:26:48Z</time>
      </trkpt>
      <trkpt lat="44.42537" lon="5.74844">
        <ele>1134.012451</ele>
        <time>2011-10-27T11:27:09Z</time>
      </trkpt>
      <trkpt lat="44.42535" lon="5.7485">
        <ele>1130.647705</ele>
        <time>2011-10-27T11:27:22Z</time>
      </trkpt>
      <trkpt lat="44.42527" lon="5.74858">
        <ele>1127.763672</ele>
        <time>2011-10-27T11:27:33Z</time>
      </trkpt>
      <trkpt lat="44.42526" lon="5.74863">
        <ele>1126.80249</ele>
        <time>2011-10-27T11:27:36Z</time>
      </trkpt>
      <trkpt lat="44.42516" lon="5.74864">
        <ele>1122.476563</ele>
        <time>2011-10-27T11:27:45Z</time>
      </trkpt>
      <trkpt lat="44.42516" lon="5.74863">
        <ele>1122.476563</ele>
        <time>2011-10-27T11:27:46Z</time>
      </trkpt>
      <trkpt lat="44.42515" lon="5.74865">
        <ele>1121.99585</ele>
        <time>2011-10-27T11:28:01Z</time>
      </trkpt>
      <trkpt lat="44.42508" lon="5.74867">
        <ele>1118.631348</ele>
        <time>2011-10-27T11:30:22Z</time>
      </trkpt>
      <trkpt lat="44.42497" lon="5.74873">
        <ele>1115.747314</ele>
        <time>2011-10-27T11:30:37Z</time>
      </trkpt>
      <trkpt lat="44.42482" lon="5.74872">
        <ele>1112.382568</ele>
        <time>2011-10-27T11:30:53Z</time>
      </trkpt>
      <trkpt lat="44.42474" lon="5.74875">
        <ele>1109.979248</ele>
        <time>2011-10-27T11:31:09Z</time>
      </trkpt>
      <trkpt lat="44.42467" lon="5.74878">
        <ele>1107.095459</ele>
        <time>2011-10-27T11:31:22Z</time>
      </trkpt>
      <trkpt lat="44.42458" lon="5.7488">
        <ele>1104.21167</ele>
        <time>2011-10-27T11:31:34Z</time>
      </trkpt>
      <trkpt lat="44.4245" lon="5.74885">
        <ele>1100.846924</ele>
        <time>2011-10-27T11:31:48Z</time>
      </trkpt>
      <trkpt lat="44.42441" lon="5.74888">
        <ele>1098.443359</ele>
        <time>2011-10-27T11:32:03Z</time>
      </trkpt>
      <trkpt lat="44.42439" lon="5.74889">
        <ele>1097.001465</ele>
        <time>2011-10-27T11:32:06Z</time>
      </trkpt>
      <trkpt lat="44.4243" lon="5.74891">
        <ele>1094.117676</ele>
        <time>2011-10-27T11:32:23Z</time>
      </trkpt>
      <trkpt lat="44.42423" lon="5.74894">
        <ele>1091.233643</ele>
        <time>2011-10-27T11:32:38Z</time>
      </trkpt>
      <trkpt lat="44.42424" lon="5.74905">
        <ele>1087.869141</ele>
        <time>2011-10-27T11:32:53Z</time>
      </trkpt>
      <trkpt lat="44.42418" lon="5.74907">
        <ele>1085.46582</ele>
        <time>2011-10-27T11:33:05Z</time>
      </trkpt>
      <trkpt lat="44.42413" lon="5.74913">
        <ele>1082.101074</ele>
        <time>2011-10-27T11:33:18Z</time>
      </trkpt>
      <trkpt lat="44.4241" lon="5.74917">
        <ele>1079.217041</ele>
        <time>2011-10-27T11:33:27Z</time>
      </trkpt>
      <trkpt lat="44.424" lon="5.74918">
        <ele>1075.852539</ele>
        <time>2011-10-27T11:33:40Z</time>
      </trkpt>
      <trkpt lat="44.4239" lon="5.74919">
        <ele>1072.488037</ele>
        <time>2011-10-27T11:33:51Z</time>
      </trkpt>
      <trkpt lat="44.42385" lon="5.74922">
        <ele>1070.56543</ele>
        <time>2011-10-27T11:33:57Z</time>
      </trkpt>
      <trkpt lat="44.4238" lon="5.74925">
        <ele>1067.681152</ele>
        <time>2011-10-27T11:34:05Z</time>
      </trkpt>
      <trkpt lat="44.4237" lon="5.74925">
        <ele>1064.797363</ele>
        <time>2011-10-27T11:34:20Z</time>
      </trkpt>
      <trkpt lat="44.42358" lon="5.74929">
        <ele>1061.432861</ele>
        <time>2011-10-27T11:34:33Z</time>
      </trkpt>
      <trkpt lat="44.42353" lon="5.74935">
        <ele>1058.548828</ele>
        <time>2011-10-27T11:34:46Z</time>
      </trkpt>
      <trkpt lat="44.42356" lon="5.74939">
        <ele>1055.184326</ele>
        <time>2011-10-27T11:34:56Z</time>
      </trkpt>
      <trkpt lat="44.42355" lon="5.74947">
        <ele>1052.781006</ele>
        <time>2011-10-27T11:35:07Z</time>
      </trkpt>
      <trkpt lat="44.42351" lon="5.74949">
        <ele>1050.858154</ele>
        <time>2011-10-27T11:35:13Z</time>
      </trkpt>
      <trkpt lat="44.42352" lon="5.74959">
        <ele>1047.974365</ele>
        <time>2011-10-27T11:35:25Z</time>
      </trkpt>
      <trkpt lat="44.42358" lon="5.74969">
        <ele>1045.090332</ele>
        <time>2011-10-27T11:35:37Z</time>
      </trkpt>
      <trkpt lat="44.42358" lon="5.74983">
        <ele>1041.72583</ele>
        <time>2011-10-27T11:35:49Z</time>
      </trkpt>
      <trkpt lat="44.4236" lon="5.7499">
        <ele>1038.361328</ele>
        <time>2011-10-27T11:36:03Z</time>
      </trkpt>
      <trkpt lat="44.4236" lon="5.74999">
        <ele>1035.957764</ele>
        <time>2011-10-27T11:36:17Z</time>
      </trkpt>
      <trkpt lat="44.4236" lon="5.75009">
        <ele>1033.554443</ele>
        <time>2011-10-27T11:36:30Z</time>
      </trkpt>
      <trkpt lat="44.42361" lon="5.75011">
        <ele>1031.151367</ele>
        <time>2011-10-27T11:36:42Z</time>
      </trkpt>
      <trkpt lat="44.42361" lon="5.75018">
        <ele>1028.267334</ele>
        <time>2011-10-27T11:37:03Z</time>
      </trkpt>
      <trkpt lat="44.42358" lon="5.75024">
        <ele>1027.306152</ele>
        <time>2011-10-27T11:37:48Z</time>
      </trkpt>
      <trkpt lat="44.42356" lon="5.75031">
        <ele>1027.786621</ele>
        <time>2011-10-27T11:38:08Z</time>
      </trkpt>
      <trkpt lat="44.42358" lon="5.75025">
        <ele>1026.344727</ele>
        <time>2011-10-27T11:40:28Z</time>
      </trkpt>
      <trkpt lat="44.42357" lon="5.7503">
        <ele>1024.422119</ele>
        <time>2011-10-27T11:40:52Z</time>
      </trkpt>
      <trkpt lat="44.42356" lon="5.75041">
        <ele>1020.576904</ele>
        <time>2011-10-27T11:41:06Z</time>
      </trkpt>
      <trkpt lat="44.42359" lon="5.75054">
        <ele>1017.692627</ele>
        <time>2011-10-27T11:41:18Z</time>
      </trkpt>
      <trkpt lat="44.42366" lon="5.75068">
        <ele>1014.328125</ele>
        <time>2011-10-27T11:41:32Z</time>
      </trkpt>
      <trkpt lat="44.42367" lon="5.7508">
        <ele>1011.444336</ele>
        <time>2011-10-27T11:41:44Z</time>
      </trkpt>
      <trkpt lat="44.42365" lon="5.75093">
        <ele>1007.599121</ele>
        <time>2011-10-27T11:41:59Z</time>
      </trkpt>
      <trkpt lat="44.42365" lon="5.75095">
        <ele>1007.118408</ele>
        <time>2011-10-27T11:42:01Z</time>
      </trkpt>
      <trkpt lat="44.42365" lon="5.751">
        <ele>1005.195801</ele>
        <time>2011-10-27T11:42:08Z</time>
      </trkpt>
      <trkpt lat="44.42363" lon="5.75109">
        <ele>1003.272949</ele>
        <time>2011-10-27T11:42:15Z</time>
      </trkpt>
      <trkpt lat="44.42365" lon="5.7512">
        <ele>999.427734</ele>
        <time>2011-10-27T11:42:28Z</time>
      </trkpt>
      <trkpt lat="44.42364" lon="5.75134">
        <ele>996.543945</ele>
        <time>2011-10-27T11:42:42Z</time>
      </trkpt>
      <trkpt lat="44.42363" lon="5.75142">
        <ele>993.179199</ele>
        <time>2011-10-27T11:42:53Z</time>
      </trkpt>
      <trkpt lat="44.4236" lon="5.75148">
        <ele>991.737305</ele>
        <time>2011-10-27T11:42:59Z</time>
      </trkpt>
      <trkpt lat="44.4236" lon="5.75157">
        <ele>988.853516</ele>
        <time>2011-10-27T11:43:09Z</time>
      </trkpt>
      <trkpt lat="44.42359" lon="5.75162">
        <ele>986.93042</ele>
        <time>2011-10-27T11:43:14Z</time>
      </trkpt>
      <trkpt lat="44.42359" lon="5.75165">
        <ele>985.969238</ele>
        <time>2011-10-27T11:43:19Z</time>
      </trkpt>
      <trkpt lat="44.42357" lon="5.75172">
        <ele>983.085205</ele>
        <time>2011-10-27T11:43:29Z</time>
      </trkpt>
      <trkpt lat="44.42353" lon="5.75179">
        <ele>980.201416</ele>
        <time>2011-10-27T11:43:39Z</time>
      </trkpt>
      <trkpt lat="44.42352" lon="5.75182">
        <ele>979.720703</ele>
        <time>2011-10-27T11:43:41Z</time>
      </trkpt>
      <trkpt lat="44.42349" lon="5.75188">
        <ele>975.394775</ele>
        <time>2011-10-27T11:43:55Z</time>
      </trkpt>
      <trkpt lat="44.42341" lon="5.75206">
        <ele>972.030273</ele>
        <time>2011-10-27T11:44:09Z</time>
      </trkpt>
      <trkpt lat="44.42332" lon="5.75213">
        <ele>968.665527</ele>
        <time>2011-10-27T11:44:23Z</time>
      </trkpt>
      <trkpt lat="44.42333" lon="5.75221">
        <ele>965.781738</ele>
        <time>2011-10-27T11:44:35Z</time>
      </trkpt>
      <trkpt lat="44.4233" lon="5.7523">
        <ele>962.897705</ele>
        <time>2011-10-27T11:44:50Z</time>
      </trkpt>
      <trkpt lat="44.42324" lon="5.75236">
        <ele>959.533203</ele>
        <time>2011-10-27T11:45:02Z</time>
      </trkpt>
      <trkpt lat="44.42318" lon="5.75245">
        <ele>956.64917</ele>
        <time>2011-10-27T11:45:12Z</time>
      </trkpt>
      <trkpt lat="44.42312" lon="5.75253">
        <ele>953.284424</ele>
        <time>2011-10-27T11:45:23Z</time>
      </trkpt>
      <trkpt lat="44.4231" lon="5.75263">
        <ele>950.881104</ele>
        <time>2011-10-27T11:45:36Z</time>
      </trkpt>
      <trkpt lat="44.4231" lon="5.75263">
        <ele>949.919922</ele>
        <time>2011-10-27T11:46:05Z</time>
      </trkpt>
      <trkpt lat="44.42305" lon="5.75266">
        <ele>948.477783</ele>
        <time>2011-10-27T11:46:34Z</time>
      </trkpt>
      <trkpt lat="44.42301" lon="5.75274">
        <ele>946.074707</ele>
        <time>2011-10-27T11:46:52Z</time>
      </trkpt>
      <trkpt lat="44.42302" lon="5.7528">
        <ele>945.593994</ele>
        <time>2011-10-27T11:47:10Z</time>
      </trkpt>
      <trkpt lat="44.42299" lon="5.75283">
        <ele>945.593994</ele>
        <time>2011-10-27T11:47:30Z</time>
      </trkpt>
      <trkpt lat="44.42299" lon="5.75288">
        <ele>943.671387</ele>
        <time>2011-10-27T11:47:48Z</time>
      </trkpt>
      <trkpt lat="44.423" lon="5.75283">
        <ele>944.632568</ele>
        <time>2011-10-27T11:48:23Z</time>
      </trkpt>
      <trkpt lat="44.42301" lon="5.75289">
        <ele>942.229492</ele>
        <time>2011-10-27T11:49:56Z</time>
      </trkpt>
      <trkpt lat="44.42301" lon="5.75302">
        <ele>938.864746</ele>
        <time>2011-10-27T11:50:11Z</time>
      </trkpt>
      <trkpt lat="44.42298" lon="5.75311">
        <ele>935.5</ele>
        <time>2011-10-27T11:50:27Z</time>
      </trkpt>
      <trkpt lat="44.42294" lon="5.75322">
        <ele>932.616211</ele>
        <time>2011-10-27T11:50:41Z</time>
      </trkpt>
      <trkpt lat="44.42291" lon="5.75332">
        <ele>931.174316</ele>
        <time>2011-10-27T11:50:51Z</time>
      </trkpt>
      <trkpt lat="44.42289" lon="5.75345">
        <ele>928.290283</ele>
        <time>2011-10-27T11:51:04Z</time>
      </trkpt>
      <trkpt lat="44.42286" lon="5.75358">
        <ele>924.925781</ele>
        <time>2011-10-27T11:51:18Z</time>
      </trkpt>
      <trkpt lat="44.42282" lon="5.75371">
        <ele>921.560791</ele>
        <time>2011-10-27T11:51:29Z</time>
      </trkpt>
      <trkpt lat="44.42275" lon="5.75382">
        <ele>918.677002</ele>
        <time>2011-10-27T11:51:41Z</time>
      </trkpt>
      <trkpt lat="44.42271" lon="5.75388">
        <ele>917.235107</ele>
        <time>2011-10-27T11:51:46Z</time>
      </trkpt>
      <trkpt lat="44.4226" lon="5.75403">
        <ele>913.870361</ele>
        <time>2011-10-27T11:52:01Z</time>
      </trkpt>
      <trkpt lat="44.42251" lon="5.75415">
        <ele>910.986572</ele>
        <time>2011-10-27T11:52:13Z</time>
      </trkpt>
      <trkpt lat="44.42242" lon="5.75433">
        <ele>907.621826</ele>
        <time>2011-10-27T11:52:27Z</time>
      </trkpt>
      <trkpt lat="44.42232" lon="5.75452">
        <ele>904.257324</ele>
        <time>2011-10-27T11:52:43Z</time>
      </trkpt>
      <trkpt lat="44.42226" lon="5.7546">
        <ele>902.815186</ele>
        <time>2011-10-27T11:52:52Z</time>
      </trkpt>
      <trkpt lat="44.42215" lon="5.75468">
        <ele>899.450684</ele>
        <time>2011-10-27T11:53:06Z</time>
      </trkpt>
      <trkpt lat="44.42207" lon="5.75472">
        <ele>897.528076</ele>
        <time>2011-10-27T11:53:24Z</time>
      </trkpt>
      <trkpt lat="44.4221" lon="5.75471">
        <ele>898.008789</ele>
        <time>2011-10-27T11:53:36Z</time>
      </trkpt>
      <trkpt lat="44.42215" lon="5.7547">
        <ele>899.450684</ele>
        <time>2011-10-27T11:57:16Z</time>
      </trkpt>
      <trkpt lat="44.42215" lon="5.7547">
        <ele>899.450684</ele>
        <time>2011-10-27T11:58:28Z</time>
      </trkpt>
      <trkpt lat="44.42215" lon="5.7547">
        <ele>899.450684</ele>
        <time>2011-10-27T11:58:55Z</time>
      </trkpt>
      <trkpt lat="44.42215" lon="5.7547">
        <ele>897.528076</ele>
        <time>2011-10-27T11:59:00Z</time>
      </trkpt>
      <trkpt lat="44.42215" lon="5.7547">
        <ele>900.412109</ele>
        <time>2011-10-27T11:59:02Z</time>
      </trkpt>
      <trkpt lat="44.42208" lon="5.75474">
        <ele>897.528076</ele>
        <time>2011-10-27T11:59:37Z</time>
      </trkpt>
      <trkpt lat="44.42192" lon="5.75475">
        <ele>894.644043</ele>
        <time>2011-10-27T11:59:56Z</time>
      </trkpt>
      <trkpt lat="44.42176" lon="5.75478">
        <ele>891.279297</ele>
        <time>2011-10-27T12:00:13Z</time>
      </trkpt>
      <trkpt lat="44.42161" lon="5.75475">
        <ele>888.876221</ele>
        <time>2011-10-27T12:00:28Z</time>
      </trkpt>
      <trkpt lat="44.42151" lon="5.75472">
        <ele>886.953369</ele>
        <time>2011-10-27T12:00:38Z</time>
      </trkpt>
      <trkpt lat="44.42131" lon="5.75466">
        <ele>883.588867</ele>
        <time>2011-10-27T12:00:57Z</time>
      </trkpt>
      <trkpt lat="44.42118" lon="5.75461">
        <ele>880.705078</ele>
        <time>2011-10-27T12:01:10Z</time>
      </trkpt>
      <trkpt lat="44.42112" lon="5.75454">
        <ele>879.743652</ele>
        <time>2011-10-27T12:01:18Z</time>
      </trkpt>
      <trkpt lat="44.42108" lon="5.75452">
        <ele>879.262939</ele>
        <time>2011-10-27T12:01:23Z</time>
      </trkpt>
      <trkpt lat="44.42104" lon="5.75449">
        <ele>878.301758</ele>
        <time>2011-10-27T12:01:27Z</time>
      </trkpt>
      <trkpt lat="44.4209" lon="5.75442">
        <ele>875.41748</ele>
        <time>2011-10-27T12:01:40Z</time>
      </trkpt>
      <trkpt lat="44.4208" lon="5.75426">
        <ele>873.495117</ele>
        <time>2011-10-27T12:01:52Z</time>
      </trkpt>
      <trkpt lat="44.42066" lon="5.75407">
        <ele>872.052979</ele>
        <time>2011-10-27T12:02:07Z</time>
      </trkpt>
      <trkpt lat="44.42062" lon="5.75403">
        <ele>871.572266</ele>
        <time>2011-10-27T12:02:11Z</time>
      </trkpt>
      <trkpt lat="44.4205" lon="5.75389">
        <ele>870.130371</ele>
        <time>2011-10-27T12:02:25Z</time>
      </trkpt>
      <trkpt lat="44.42049" lon="5.75382">
        <ele>870.130371</ele>
        <time>2011-10-27T12:02:29Z</time>
      </trkpt>
      <trkpt lat="44.42045" lon="5.75375">
        <ele>869.169189</ele>
        <time>2011-10-27T12:02:34Z</time>
      </trkpt>
      <trkpt lat="44.42027" lon="5.75361">
        <ele>867.246582</ele>
        <time>2011-10-27T12:02:51Z</time>
      </trkpt>
      <trkpt lat="44.42017" lon="5.75359">
        <ele>866.765869</ele>
        <time>2011-10-27T12:02:59Z</time>
      </trkpt>
      <trkpt lat="44.42009" lon="5.75361">
        <ele>865.323975</ele>
        <time>2011-10-27T12:03:06Z</time>
      </trkpt>
      <trkpt lat="44.42003" lon="5.75362">
        <ele>863.881836</ele>
        <time>2011-10-27T12:03:17Z</time>
      </trkpt>
      <trkpt lat="44.41997" lon="5.75372">
        <ele>862.920654</ele>
        <time>2011-10-27T12:03:30Z</time>
      </trkpt>
      <trkpt lat="44.41997" lon="5.75378">
        <ele>860.998047</ele>
        <time>2011-10-27T12:03:38Z</time>
      </trkpt>
      <trkpt lat="44.41991" lon="5.75393">
        <ele>859.555908</ele>
        <time>2011-10-27T12:03:54Z</time>
      </trkpt>
      <trkpt lat="44.41977" lon="5.75403">
        <ele>857.152588</ele>
        <time>2011-10-27T12:04:14Z</time>
      </trkpt>
      <trkpt lat="44.41976" lon="5.75404">
        <ele>856.191162</ele>
        <time>2011-10-27T12:04:28Z</time>
      </trkpt>
      <trkpt lat="44.41972" lon="5.75403">
        <ele>855.22998</ele>
        <time>2011-10-27T12:04:52Z</time>
      </trkpt>
      <trkpt lat="44.41965" lon="5.75405">
        <ele>854.268799</ele>
        <time>2011-10-27T12:05:15Z</time>
      </trkpt>
      <trkpt lat="44.41963" lon="5.75404">
        <ele>853.788086</ele>
        <time>2011-10-27T12:05:21Z</time>
      </trkpt>
      <trkpt lat="44.41959" lon="5.75402">
        <ele>853.307373</ele>
        <time>2011-10-27T12:05:33Z</time>
      </trkpt>
      <trkpt lat="44.41957" lon="5.75404">
        <ele>852.345947</ele>
        <time>2011-10-27T12:05:49Z</time>
      </trkpt>
      <trkpt lat="44.41941" lon="5.75407">
        <ele>849.942871</ele>
        <time>2011-10-27T12:06:02Z</time>
      </trkpt>
      <trkpt lat="44.41939" lon="5.7541">
        <ele>849.462158</ele>
        <time>2011-10-27T12:06:04Z</time>
      </trkpt>
      <trkpt lat="44.41934" lon="5.75415">
        <ele>848.020264</ele>
        <time>2011-10-27T12:06:10Z</time>
      </trkpt>
      <trkpt lat="44.41922" lon="5.75417">
        <ele>847.539551</ele>
        <time>2011-10-27T12:06:23Z</time>
      </trkpt>
      <trkpt lat="44.41921" lon="5.75421">
        <ele>847.058838</ele>
        <time>2011-10-27T12:06:26Z</time>
      </trkpt>
      <trkpt lat="44.4191" lon="5.75427">
        <ele>846.097656</ele>
        <time>2011-10-27T12:06:39Z</time>
      </trkpt>
      <trkpt lat="44.41901" lon="5.75425">
        <ele>845.13623</ele>
        <time>2011-10-27T12:06:47Z</time>
      </trkpt>
      <trkpt lat="44.41892" lon="5.75426">
        <ele>842.73291</ele>
        <time>2011-10-27T12:06:59Z</time>
      </trkpt>
      <trkpt lat="44.41887" lon="5.75422">
        <ele>840.32959</ele>
        <time>2011-10-27T12:07:04Z</time>
      </trkpt>
      <trkpt lat="44.41875" lon="5.75418">
        <ele>838.406982</ele>
        <time>2011-10-27T12:07:19Z</time>
      </trkpt>
      <trkpt lat="44.4186" lon="5.75417">
        <ele>835.04248</ele>
        <time>2011-10-27T12:07:35Z</time>
      </trkpt>
      <trkpt lat="44.41851" lon="5.75417">
        <ele>833.119629</ele>
        <time>2011-10-27T12:07:45Z</time>
      </trkpt>
      <trkpt lat="44.41836" lon="5.75421">
        <ele>830.716553</ele>
        <time>2011-10-27T12:07:59Z</time>
      </trkpt>
      <trkpt lat="44.41831" lon="5.75419">
        <ele>830.716553</ele>
        <time>2011-10-27T12:08:03Z</time>
      </trkpt>
      <trkpt lat="44.41827" lon="5.75425">
        <ele>828.793945</ele>
        <time>2011-10-27T12:08:11Z</time>
      </trkpt>
      <trkpt lat="44.41825" lon="5.75428">
        <ele>827.832275</ele>
        <time>2011-10-27T12:08:14Z</time>
      </trkpt>
      <trkpt lat="44.41824" lon="5.75429">
        <ele>827.832275</ele>
        <time>2011-10-27T12:08:16Z</time>
      </trkpt>
      <trkpt lat="44.41821" lon="5.7543">
        <ele>826.871094</ele>
        <time>2011-10-27T12:08:19Z</time>
      </trkpt>
      <trkpt lat="44.41816" lon="5.75432">
        <ele>825.428955</ele>
        <time>2011-10-27T12:08:24Z</time>
      </trkpt>
      <trkpt lat="44.41805" lon="5.75441">
        <ele>822.064453</ele>
        <time>2011-10-27T12:08:37Z</time>
      </trkpt>
      <trkpt lat="44.41805" lon="5.75441">
        <ele>822.064453</ele>
        <time>2011-10-27T12:08:38Z</time>
      </trkpt>
      <trkpt lat="44.41793" lon="5.7544">
        <ele>818.699951</ele>
        <time>2011-10-27T12:08:53Z</time>
      </trkpt>
      <trkpt lat="44.41787" lon="5.75441">
        <ele>817.258057</ele>
        <time>2011-10-27T12:09:00Z</time>
      </trkpt>
      <trkpt lat="44.41779" lon="5.75445">
        <ele>814.374023</ele>
        <time>2011-10-27T12:09:11Z</time>
      </trkpt>
      <trkpt lat="44.41775" lon="5.75443">
        <ele>813.412842</ele>
        <time>2011-10-27T12:09:18Z</time>
      </trkpt>
      <trkpt lat="44.41765" lon="5.75443">
        <ele>811.48999</ele>
        <time>2011-10-27T12:09:31Z</time>
      </trkpt>
      <trkpt lat="44.41764" lon="5.75443">
        <ele>811.48999</ele>
        <time>2011-10-27T12:09:32Z</time>
      </trkpt>
      <trkpt lat="44.41759" lon="5.75446">
        <ele>811.48999</ele>
        <time>2011-10-27T12:09:37Z</time>
      </trkpt>
      <trkpt lat="44.41749" lon="5.75452">
        <ele>809.567383</ele>
        <time>2011-10-27T12:09:48Z</time>
      </trkpt>
      <trkpt lat="44.4174" lon="5.75461">
        <ele>808.125488</ele>
        <time>2011-10-27T12:10:00Z</time>
      </trkpt>
      <trkpt lat="44.41734" lon="5.75461">
        <ele>805.722168</ele>
        <time>2011-10-27T12:10:08Z</time>
      </trkpt>
      <trkpt lat="44.41736" lon="5.7546">
        <ele>804.760742</ele>
        <time>2011-10-27T12:10:18Z</time>
      </trkpt>
      <trkpt lat="44.41733" lon="5.75455">
        <ele>805.722168</ele>
        <time>2011-10-27T12:10:34Z</time>
      </trkpt>
      <trkpt lat="44.4173" lon="5.75452">
        <ele>805.722168</ele>
        <time>2011-10-27T12:10:49Z</time>
      </trkpt>
      <trkpt lat="44.41731" lon="5.75451">
        <ele>807.164063</ele>
        <time>2011-10-27T12:11:30Z</time>
      </trkpt>
      <trkpt lat="44.41733" lon="5.75446">
        <ele>806.202637</ele>
        <time>2011-10-27T12:11:58Z</time>
      </trkpt>
      <trkpt lat="44.41733" lon="5.75434">
        <ele>805.722168</ele>
        <time>2011-10-27T12:12:07Z</time>
      </trkpt>
      <trkpt lat="44.41733" lon="5.75432">
        <ele>804.760742</ele>
        <time>2011-10-27T12:12:09Z</time>
      </trkpt>
      <trkpt lat="44.41741" lon="5.75418">
        <ele>802.357422</ele>
        <time>2011-10-27T12:12:27Z</time>
      </trkpt>
      <trkpt lat="44.41743" lon="5.75413">
        <ele>802.838135</ele>
        <time>2011-10-27T12:12:34Z</time>
      </trkpt>
      <trkpt lat="44.41746" lon="5.75403">
        <ele>802.838135</ele>
        <time>2011-10-27T12:12:47Z</time>
      </trkpt>
      <trkpt lat="44.41752" lon="5.75391">
        <ele>800.915527</ele>
        <time>2011-10-27T12:13:01Z</time>
      </trkpt>
      <trkpt lat="44.41752" lon="5.75389">
        <ele>800.435059</ele>
        <time>2011-10-27T12:13:03Z</time>
      </trkpt>
      <trkpt lat="44.41757" lon="5.75391">
        <ele>801.39624</ele>
        <time>2011-10-27T12:13:08Z</time>
      </trkpt>
      <trkpt lat="44.41757" lon="5.75383">
        <ele>799.473633</ele>
        <time>2011-10-27T12:13:14Z</time>
      </trkpt>
      <trkpt lat="44.41756" lon="5.75382">
        <ele>795.628174</ele>
        <time>2011-10-27T12:13:27Z</time>
      </trkpt>
      <trkpt lat="44.41751" lon="5.75385">
        <ele>793.705566</ele>
        <time>2011-10-27T12:13:40Z</time>
      </trkpt>
      <trkpt lat="44.41742" lon="5.75382">
        <ele>790.341064</ele>
        <time>2011-10-27T12:13:54Z</time>
      </trkpt>
      <trkpt lat="44.41741" lon="5.75381">
        <ele>789.379639</ele>
        <time>2011-10-27T12:13:57Z</time>
      </trkpt>
      <trkpt lat="44.41737" lon="5.75392">
        <ele>786.49585</ele>
        <time>2011-10-27T12:14:06Z</time>
      </trkpt>
      <trkpt lat="44.41732" lon="5.75391">
        <ele>785.053955</ele>
        <time>2011-10-27T12:14:10Z</time>
      </trkpt>
      <trkpt lat="44.41728" lon="5.75389">
        <ele>784.573242</ele>
        <time>2011-10-27T12:14:13Z</time>
      </trkpt>
      <trkpt lat="44.41726" lon="5.75389">
        <ele>784.092529</ele>
        <time>2011-10-27T12:14:15Z</time>
      </trkpt>
      <trkpt lat="44.41724" lon="5.75388">
        <ele>783.131104</ele>
        <time>2011-10-27T12:14:17Z</time>
      </trkpt>
      <trkpt lat="44.41715" lon="5.75388">
        <ele>781.689209</ele>
        <time>2011-10-27T12:14:26Z</time>
      </trkpt>
      <trkpt lat="44.41708" lon="5.75396">
        <ele>780.728027</ele>
        <time>2011-10-27T12:14:35Z</time>
      </trkpt>
      <trkpt lat="44.41707" lon="5.75404">
        <ele>780.728027</ele>
        <time>2011-10-27T12:14:38Z</time>
      </trkpt>
      <trkpt lat="44.41703" lon="5.75405">
        <ele>780.247314</ele>
        <time>2011-10-27T12:14:42Z</time>
      </trkpt>
      <trkpt lat="44.41701" lon="5.75407">
        <ele>780.247314</ele>
        <time>2011-10-27T12:14:45Z</time>
      </trkpt>
      <trkpt lat="44.41691" lon="5.75405">
        <ele>779.766357</ele>
        <time>2011-10-27T12:14:54Z</time>
      </trkpt>
      <trkpt lat="44.41677" lon="5.75403">
        <ele>779.766357</ele>
        <time>2011-10-27T12:15:04Z</time>
      </trkpt>
      <trkpt lat="44.41675" lon="5.75404">
        <ele>779.285645</ele>
        <time>2011-10-27T12:15:06Z</time>
      </trkpt>
      <trkpt lat="44.41671" lon="5.75401">
        <ele>779.285645</ele>
        <time>2011-10-27T12:15:09Z</time>
      </trkpt>
      <trkpt lat="44.4167" lon="5.754">
        <ele>778.805176</ele>
        <time>2011-10-27T12:15:12Z</time>
      </trkpt>
      <trkpt lat="44.41664" lon="5.75402">
        <ele>777.84375</ele>
        <time>2011-10-27T12:15:19Z</time>
      </trkpt>
      <trkpt lat="44.41649" lon="5.75397">
        <ele>776.401855</ele>
        <time>2011-10-27T12:15:31Z</time>
      </trkpt>
      <trkpt lat="44.41646" lon="5.75402">
        <ele>775.921143</ele>
        <time>2011-10-27T12:15:38Z</time>
      </trkpt>
      <trkpt lat="44.41644" lon="5.75414">
        <ele>774.479248</ele>
        <time>2011-10-27T12:15:48Z</time>
      </trkpt>
      <trkpt lat="44.41642" lon="5.75414">
        <ele>773.998535</ele>
        <time>2011-10-27T12:15:50Z</time>
      </trkpt>
      <trkpt lat="44.41633" lon="5.75422">
        <ele>771.114746</ele>
        <time>2011-10-27T12:16:04Z</time>
      </trkpt>
      <trkpt lat="44.4162" lon="5.75433">
        <ele>769.192139</ele>
        <time>2011-10-27T12:16:22Z</time>
      </trkpt>
      <trkpt lat="44.41613" lon="5.75454">
        <ele>767.269531</ele>
        <time>2011-10-27T12:16:39Z</time>
      </trkpt>
      <trkpt lat="44.41607" lon="5.75466">
        <ele>765.827637</ele>
        <time>2011-10-27T12:16:51Z</time>
      </trkpt>
      <trkpt lat="44.41605" lon="5.75472">
        <ele>764.866211</ele>
        <time>2011-10-27T12:16:54Z</time>
      </trkpt>
      <trkpt lat="44.416" lon="5.75479">
        <ele>763.424072</ele>
        <time>2011-10-27T12:17:02Z</time>
      </trkpt>
      <trkpt lat="44.41592" lon="5.75486">
        <ele>761.020752</ele>
        <time>2011-10-27T12:17:15Z</time>
      </trkpt>
      <trkpt lat="44.41585" lon="5.75488">
        <ele>757.65625</ele>
        <time>2011-10-27T12:17:28Z</time>
      </trkpt>
      <trkpt lat="44.41579" lon="5.75492">
        <ele>755.733643</ele>
        <time>2011-10-27T12:17:41Z</time>
      </trkpt>
      <trkpt lat="44.41571" lon="5.755">
        <ele>752.849609</ele>
        <time>2011-10-27T12:17:55Z</time>
      </trkpt>
      <trkpt lat="44.41567" lon="5.75518">
        <ele>750.446533</ele>
        <time>2011-10-27T12:18:11Z</time>
      </trkpt>
      <trkpt lat="44.4156" lon="5.75531">
        <ele>747.081543</ele>
        <time>2011-10-27T12:18:23Z</time>
      </trkpt>
      <trkpt lat="44.41558" lon="5.75533">
        <ele>746.601074</ele>
        <time>2011-10-27T12:18:25Z</time>
      </trkpt>
      <trkpt lat="44.41555" lon="5.75536">
        <ele>746.120361</ele>
        <time>2011-10-27T12:18:29Z</time>
      </trkpt>
      <trkpt lat="44.41544" lon="5.75549">
        <ele>743.717041</ele>
        <time>2011-10-27T12:18:42Z</time>
      </trkpt>
      <trkpt lat="44.41533" lon="5.75571">
        <ele>741.313721</ele>
        <time>2011-10-27T12:18:59Z</time>
      </trkpt>
      <trkpt lat="44.41525" lon="5.75579">
        <ele>738.910645</ele>
        <time>2011-10-27T12:19:11Z</time>
      </trkpt>
      <trkpt lat="44.41517" lon="5.75585">
        <ele>736.987793</ele>
        <time>2011-10-27T12:19:24Z</time>
      </trkpt>
      <trkpt lat="44.41513" lon="5.75592">
        <ele>734.584717</ele>
        <time>2011-10-27T12:19:32Z</time>
      </trkpt>
      <trkpt lat="44.41511" lon="5.75603">
        <ele>732.181396</ele>
        <time>2011-10-27T12:19:46Z</time>
      </trkpt>
      <trkpt lat="44.41512" lon="5.75609">
        <ele>730.739258</ele>
        <time>2011-10-27T12:19:54Z</time>
      </trkpt>
      <trkpt lat="44.41519" lon="5.7562">
        <ele>727.374756</ele>
        <time>2011-10-27T12:20:09Z</time>
      </trkpt>
      <trkpt lat="44.4152" lon="5.75621">
        <ele>727.374756</ele>
        <time>2011-10-27T12:20:10Z</time>
      </trkpt>
      <trkpt lat="44.41513" lon="5.75633">
        <ele>725.451904</ele>
        <time>2011-10-27T12:20:23Z</time>
      </trkpt>
      <trkpt lat="44.41503" lon="5.75631">
        <ele>723.529541</ele>
        <time>2011-10-27T12:20:34Z</time>
      </trkpt>
      <trkpt lat="44.41492" lon="5.75621">
        <ele>721.606689</ele>
        <time>2011-10-27T12:20:49Z</time>
      </trkpt>
      <trkpt lat="44.41469" lon="5.75609">
        <ele>720.645508</ele>
        <time>2011-10-27T12:21:12Z</time>
      </trkpt>
      <trkpt lat="44.41453" lon="5.75609">
        <ele>722.568115</ele>
        <time>2011-10-27T12:21:32Z</time>
      </trkpt>
      <trkpt lat="44.41442" lon="5.75604">
        <ele>724.01001</ele>
        <time>2011-10-27T12:21:44Z</time>
      </trkpt>
      <trkpt lat="44.41429" lon="5.7561">
        <ele>724.01001</ele>
        <time>2011-10-27T12:21:58Z</time>
      </trkpt>
      <trkpt lat="44.41417" lon="5.75613">
        <ele>723.529541</ele>
        <time>2011-10-27T12:22:14Z</time>
      </trkpt>
      <trkpt lat="44.41413" lon="5.75617">
        <ele>723.529541</ele>
        <time>2011-10-27T12:22:34Z</time>
      </trkpt>
      <trkpt lat="44.4141" lon="5.75617">
        <ele>723.048828</ele>
        <time>2011-10-27T12:22:55Z</time>
      </trkpt>
      <trkpt lat="44.41407" lon="5.75618">
        <ele>724.490723</ele>
        <time>2011-10-27T12:23:15Z</time>
      </trkpt>
      <trkpt lat="44.41407" lon="5.75615">
        <ele>724.490723</ele>
        <time>2011-10-27T12:23:33Z</time>
      </trkpt>
      <trkpt lat="44.41406" lon="5.75609">
        <ele>724.490723</ele>
        <time>2011-10-27T12:24:14Z</time>
      </trkpt>
      <trkpt lat="44.41407" lon="5.75611">
        <ele>721.126221</ele>
        <time>2011-10-27T12:24:27Z</time>
      </trkpt>
      <trkpt lat="44.41407" lon="5.75611">
        <ele>721.126221</ele>
        <time>2011-10-27T12:24:28Z</time>
      </trkpt>
      <trkpt lat="44.41406" lon="5.75616">
        <ele>720.645508</ele>
        <time>2011-10-27T12:24:53Z</time>
      </trkpt>
      <trkpt lat="44.41405" lon="5.75616">
        <ele>721.606689</ele>
        <time>2011-10-27T12:24:58Z</time>
      </trkpt>
      <trkpt lat="44.41403" lon="5.75616">
        <ele>721.606689</ele>
        <time>2011-10-27T12:26:55Z</time>
      </trkpt>
      <trkpt lat="44.41402" lon="5.75615">
        <ele>720.645508</ele>
        <time>2011-10-27T12:27:52Z</time>
      </trkpt>
      <trkpt lat="44.41402" lon="5.75615">
        <ele>719.684326</ele>
        <time>2011-10-27T12:27:58Z</time>
      </trkpt>
      <trkpt lat="44.41402" lon="5.75615">
        <ele>721.126221</ele>
        <time>2011-10-27T12:28:01Z</time>
      </trkpt>
      <trkpt lat="44.41402" lon="5.75615">
        <ele>722.087402</ele>
        <time>2011-10-27T12:28:12Z</time>
      </trkpt>
      <trkpt lat="44.41403" lon="5.75615">
        <ele>718.7229</ele>
        <time>2011-10-27T12:29:39Z</time>
      </trkpt>
      <trkpt lat="44.41403" lon="5.75615">
        <ele>718.7229</ele>
        <time>2011-10-27T12:29:40Z</time>
      </trkpt>
      <trkpt lat="44.41403" lon="5.75615">
        <ele>718.242188</ele>
        <time>2011-10-27T12:29:45Z</time>
      </trkpt>
      <trkpt lat="44.41403" lon="5.75615">
        <ele>720.645508</ele>
        <time>2011-10-27T12:30:03Z</time>
      </trkpt>
      <trkpt lat="44.41403" lon="5.75615">
        <ele>719.203613</ele>
        <time>2011-10-27T12:30:05Z</time>
      </trkpt>
      <trkpt lat="44.41403" lon="5.75615">
        <ele>719.684326</ele>
        <time>2011-10-27T12:30:26Z</time>
      </trkpt>
      <trkpt lat="44.41403" lon="5.75615">
        <ele>718.7229</ele>
        <time>2011-10-27T12:30:38Z</time>
      </trkpt>
      <trkpt lat="44.41403" lon="5.75615">
        <ele>717.761475</ele>
        <time>2011-10-27T12:30:54Z</time>
      </trkpt>
      <trkpt lat="44.41403" lon="5.75615">
        <ele>719.684326</ele>
        <time>2011-10-27T12:30:57Z</time>
      </trkpt>
      <trkpt lat="44.41403" lon="5.75615">
        <ele>720.164795</ele>
        <time>2011-10-27T12:31:04Z</time>
      </trkpt>
      <trkpt lat="44.41402" lon="5.75615">
        <ele>720.164795</ele>
        <time>2011-10-27T12:31:11Z</time>
      </trkpt>
      <trkpt lat="44.41402" lon="5.75615">
        <ele>718.7229</ele>
        <time>2011-10-27T12:31:18Z</time>
      </trkpt>
      <trkpt lat="44.41402" lon="5.75615">
        <ele>720.164795</ele>
        <time>2011-10-27T12:31:22Z</time>
      </trkpt>
      <trkpt lat="44.41402" lon="5.75615">
        <ele>719.684326</ele>
        <time>2011-10-27T12:31:45Z</time>
      </trkpt>
      <trkpt lat="44.41402" lon="5.75615">
        <ele>720.645508</ele>
        <time>2011-10-27T12:32:06Z</time>
      </trkpt>
      <trkpt lat="44.41402" lon="5.75612">
        <ele>718.7229</ele>
        <time>2011-10-27T12:32:15Z</time>
      </trkpt>
      <trkpt lat="44.414" lon="5.7561">
        <ele>719.203613</ele>
        <time>2011-10-27T12:32:40Z</time>
      </trkpt>
      <trkpt lat="44.41393" lon="5.7559">
        <ele>721.126221</ele>
        <time>2011-10-27T12:32:56Z</time>
      </trkpt>
      <trkpt lat="44.41389" lon="5.75578">
        <ele>720.645508</ele>
        <time>2011-10-27T12:33:09Z</time>
      </trkpt>
      <trkpt lat="44.41387" lon="5.75576">
        <ele>721.126221</ele>
        <time>2011-10-27T12:33:12Z</time>
      </trkpt>
      <trkpt lat="44.4138" lon="5.75566">
        <ele>721.126221</ele>
        <time>2011-10-27T12:33:21Z</time>
      </trkpt>
      <trkpt lat="44.41367" lon="5.7555">
        <ele>719.684326</ele>
        <time>2011-10-27T12:33:40Z</time>
      </trkpt>
      <trkpt lat="44.4136" lon="5.75545">
        <ele>718.7229</ele>
        <time>2011-10-27T12:33:52Z</time>
      </trkpt>
      <trkpt lat="44.41345" lon="5.75527">
        <ele>719.203613</ele>
        <time>2011-10-27T12:34:08Z</time>
      </trkpt>
      <trkpt lat="44.41332" lon="5.75513">
        <ele>717.281006</ele>
        <time>2011-10-27T12:34:27Z</time>
      </trkpt>
      <trkpt lat="44.41331" lon="5.75512">
        <ele>716.800293</ele>
        <time>2011-10-27T12:34:28Z</time>
      </trkpt>
      <trkpt lat="44.41327" lon="5.75508">
        <ele>716.800293</ele>
        <time>2011-10-27T12:34:33Z</time>
      </trkpt>
      <trkpt lat="44.41325" lon="5.75505">
        <ele>715.838867</ele>
        <time>2011-10-27T12:34:37Z</time>
      </trkpt>
      <trkpt lat="44.41296" lon="5.75485">
        <ele>712.954834</ele>
        <time>2011-10-27T12:34:57Z</time>
      </trkpt>
      <trkpt lat="44.41286" lon="5.75481">
        <ele>711.993652</ele>
        <time>2011-10-27T12:35:09Z</time>
      </trkpt>
      <trkpt lat="44.41283" lon="5.75479">
        <ele>711.512939</ele>
        <time>2011-10-27T12:35:12Z</time>
      </trkpt>
      <trkpt lat="44.41269" lon="5.75468">
        <ele>711.032227</ele>
        <time>2011-10-27T12:35:25Z</time>
      </trkpt>
      <trkpt lat="44.41255" lon="5.7546">
        <ele>708.628906</ele>
        <time>2011-10-27T12:35:39Z</time>
      </trkpt>
      <trkpt lat="44.41235" lon="5.75433">
        <ele>705.745117</ele>
        <time>2011-10-27T12:35:57Z</time>
      </trkpt>
      <trkpt lat="44.41224" lon="5.75409">
        <ele>705.745117</ele>
        <time>2011-10-27T12:36:14Z</time>
      </trkpt>
      <trkpt lat="44.41222" lon="5.75403">
        <ele>706.225586</ele>
        <time>2011-10-27T12:36:18Z</time>
      </trkpt>
      <trkpt lat="44.41214" lon="5.7538">
        <ele>706.225586</ele>
        <time>2011-10-27T12:36:31Z</time>
      </trkpt>
      <trkpt lat="44.41207" lon="5.75355">
        <ele>707.187012</ele>
        <time>2011-10-27T12:36:47Z</time>
      </trkpt>
      <trkpt lat="44.41202" lon="5.75323">
        <ele>706.706299</ele>
        <time>2011-10-27T12:37:08Z</time>
      </trkpt>
      <trkpt lat="44.41203" lon="5.7531">
        <ele>706.225586</ele>
        <time>2011-10-27T12:37:16Z</time>
      </trkpt>
      <trkpt lat="44.41209" lon="5.7529">
        <ele>706.225586</ele>
        <time>2011-10-27T12:37:30Z</time>
      </trkpt>
      <trkpt lat="44.41209" lon="5.75245">
        <ele>704.783691</ele>
        <time>2011-10-27T12:37:57Z</time>
      </trkpt>
      <trkpt lat="44.41212" lon="5.7522">
        <ele>703.82251</ele>
        <time>2011-10-27T12:38:14Z</time>
      </trkpt>
      <trkpt lat="44.41213" lon="5.75192">
        <ele>702.380371</ele>
        <time>2011-10-27T12:38:32Z</time>
      </trkpt>
      <trkpt lat="44.41213" lon="5.75189">
        <ele>702.380371</ele>
        <time>2011-10-27T12:38:34Z</time>
      </trkpt>
      <trkpt lat="44.4122" lon="5.75163">
        <ele>700.458008</ele>
        <time>2011-10-27T12:38:50Z</time>
      </trkpt>
      <trkpt lat="44.41227" lon="5.75133">
        <ele>699.496338</ele>
        <time>2011-10-27T12:39:09Z</time>
      </trkpt>
      <trkpt lat="44.41231" lon="5.75122">
        <ele>699.015625</ele>
        <time>2011-10-27T12:39:17Z</time>
      </trkpt>
      <trkpt lat="44.41233" lon="5.75115">
        <ele>698.534912</ele>
        <time>2011-10-27T12:39:21Z</time>
      </trkpt>
      <trkpt lat="44.41241" lon="5.75087">
        <ele>698.054443</ele>
        <time>2011-10-27T12:39:38Z</time>
      </trkpt>
      <trkpt lat="44.41237" lon="5.75076">
        <ele>698.054443</ele>
        <time>2011-10-27T12:39:50Z</time>
      </trkpt>
      <trkpt lat="44.41224" lon="5.75063">
        <ele>699.977051</ele>
        <time>2011-10-27T12:40:10Z</time>
      </trkpt>
      <trkpt lat="44.41215" lon="5.75046">
        <ele>701.419189</ele>
        <time>2011-10-27T12:40:23Z</time>
      </trkpt>
      <trkpt lat="44.41206" lon="5.7503">
        <ele>701.899902</ele>
        <time>2011-10-27T12:40:34Z</time>
      </trkpt>
      <trkpt lat="44.41204" lon="5.75027">
        <ele>701.899902</ele>
        <time>2011-10-27T12:40:36Z</time>
      </trkpt>
      <trkpt lat="44.412" lon="5.75004">
        <ele>702.861084</ele>
        <time>2011-10-27T12:40:52Z</time>
      </trkpt>
      <trkpt lat="44.41193" lon="5.74989">
        <ele>704.303223</ele>
        <time>2011-10-27T12:41:06Z</time>
      </trkpt>
      <trkpt lat="44.41185" lon="5.74967">
        <ele>706.225586</ele>
        <time>2011-10-27T12:41:23Z</time>
      </trkpt>
      <trkpt lat="44.41178" lon="5.74953">
        <ele>707.187012</ele>
        <time>2011-10-27T12:41:37Z</time>
      </trkpt>
      <trkpt lat="44.41172" lon="5.74929">
        <ele>708.148438</ele>
        <time>2011-10-27T12:41:55Z</time>
      </trkpt>
      <trkpt lat="44.41167" lon="5.7491">
        <ele>709.109619</ele>
        <time>2011-10-27T12:42:08Z</time>
      </trkpt>
      <trkpt lat="44.41162" lon="5.74886">
        <ele>709.109619</ele>
        <time>2011-10-27T12:42:23Z</time>
      </trkpt>
      <trkpt lat="44.41158" lon="5.74862">
        <ele>709.590332</ele>
        <time>2011-10-27T12:42:38Z</time>
      </trkpt>
      <trkpt lat="44.41155" lon="5.74845">
        <ele>709.109619</ele>
        <time>2011-10-27T12:42:49Z</time>
      </trkpt>
      <trkpt lat="44.41151" lon="5.74818">
        <ele>709.109619</ele>
        <time>2011-10-27T12:43:08Z</time>
      </trkpt>
      <trkpt lat="44.41152" lon="5.74802">
        <ele>708.148438</ele>
        <time>2011-10-27T12:43:18Z</time>
      </trkpt>
      <trkpt lat="44.41153" lon="5.74787">
        <ele>706.706299</ele>
        <time>2011-10-27T12:43:26Z</time>
      </trkpt>
      <trkpt lat="44.41152" lon="5.74783">
        <ele>706.706299</ele>
        <time>2011-10-27T12:43:28Z</time>
      </trkpt>
      <trkpt lat="44.41157" lon="5.74763">
        <ele>705.264404</ele>
        <time>2011-10-27T12:43:43Z</time>
      </trkpt>
      <trkpt lat="44.41157" lon="5.74753">
        <ele>705.264404</ele>
        <time>2011-10-27T12:43:49Z</time>
      </trkpt>
      <trkpt lat="44.41152" lon="5.74736">
        <ele>705.264404</ele>
        <time>2011-10-27T12:43:57Z</time>
      </trkpt>
      <trkpt lat="44.4115" lon="5.74725">
        <ele>705.264404</ele>
        <time>2011-10-27T12:44:04Z</time>
      </trkpt>
      <trkpt lat="44.41148" lon="5.74715">
        <ele>705.264404</ele>
        <time>2011-10-27T12:44:12Z</time>
      </trkpt>
      <trkpt lat="44.41146" lon="5.74702">
        <ele>706.225586</ele>
        <time>2011-10-27T12:44:24Z</time>
      </trkpt>
      <trkpt lat="44.41149" lon="5.74695">
        <ele>706.706299</ele>
        <time>2011-10-27T12:44:28Z</time>
      </trkpt>
      <trkpt lat="44.41143" lon="5.74664">
        <ele>708.148438</ele>
        <time>2011-10-27T12:44:48Z</time>
      </trkpt>
      <trkpt lat="44.41142" lon="5.74658">
        <ele>708.148438</ele>
        <time>2011-10-27T12:44:52Z</time>
      </trkpt>
      <trkpt lat="44.41134" lon="5.74627">
        <ele>709.590332</ele>
        <time>2011-10-27T12:45:12Z</time>
      </trkpt>
      <trkpt lat="44.4113" lon="5.74598">
        <ele>709.109619</ele>
        <time>2011-10-27T12:45:28Z</time>
      </trkpt>
      <trkpt lat="44.41129" lon="5.74589">
        <ele>708.628906</ele>
        <time>2011-10-27T12:45:33Z</time>
      </trkpt>
      <trkpt lat="44.41127" lon="5.74577">
        <ele>709.109619</ele>
        <time>2011-10-27T12:45:39Z</time>
      </trkpt>
      <trkpt lat="44.41127" lon="5.7456">
        <ele>708.628906</ele>
        <time>2011-10-27T12:45:49Z</time>
      </trkpt>
      <trkpt lat="44.41125" lon="5.74535">
        <ele>707.667725</ele>
        <time>2011-10-27T12:46:04Z</time>
      </trkpt>
      <trkpt lat="44.41125" lon="5.74532">
        <ele>708.148438</ele>
        <time>2011-10-27T12:46:06Z</time>
      </trkpt>
      <trkpt lat="44.41126" lon="5.74519">
        <ele>707.187012</ele>
        <time>2011-10-27T12:46:14Z</time>
      </trkpt>
      <trkpt lat="44.41127" lon="5.74515">
        <ele>707.667725</ele>
        <time>2011-10-27T12:46:18Z</time>
      </trkpt>
      <trkpt lat="44.41133" lon="5.745">
        <ele>706.225586</ele>
        <time>2011-10-27T12:46:29Z</time>
      </trkpt>
      <trkpt lat="44.41136" lon="5.74496">
        <ele>706.225586</ele>
        <time>2011-10-27T12:46:33Z</time>
      </trkpt>
      <trkpt lat="44.41138" lon="5.7449">
        <ele>706.225586</ele>
        <time>2011-10-27T12:46:38Z</time>
      </trkpt>
      <trkpt lat="44.41139" lon="5.74483">
        <ele>705.264404</ele>
        <time>2011-10-27T12:46:42Z</time>
      </trkpt>
      <trkpt lat="44.41143" lon="5.74476">
        <ele>704.783691</ele>
        <time>2011-10-27T12:46:48Z</time>
      </trkpt>
      <trkpt lat="44.41144" lon="5.7447">
        <ele>704.783691</ele>
        <time>2011-10-27T12:46:52Z</time>
      </trkpt>
      <trkpt lat="44.41147" lon="5.74466">
        <ele>703.82251</ele>
        <time>2011-10-27T12:46:56Z</time>
      </trkpt>
      <trkpt lat="44.41155" lon="5.74459">
        <ele>703.82251</ele>
        <time>2011-10-27T12:47:01Z</time>
      </trkpt>
      <trkpt lat="44.41164" lon="5.7445">
        <ele>703.341797</ele>
        <time>2011-10-27T12:47:09Z</time>
      </trkpt>
      <trkpt lat="44.41163" lon="5.7444">
        <ele>703.341797</ele>
        <time>2011-10-27T12:47:15Z</time>
      </trkpt>
      <trkpt lat="44.4116" lon="5.74435">
        <ele>703.341797</ele>
        <time>2011-10-27T12:47:23Z</time>
      </trkpt>
      <trkpt lat="44.41145" lon="5.7443">
        <ele>704.783691</ele>
        <time>2011-10-27T12:47:37Z</time>
      </trkpt>
      <trkpt lat="44.41136" lon="5.74423">
        <ele>707.187012</ele>
        <time>2011-10-27T12:47:53Z</time>
      </trkpt>
      <trkpt lat="44.41134" lon="5.7442">
        <ele>707.187012</ele>
        <time>2011-10-27T12:47:54Z</time>
      </trkpt>
      <trkpt lat="44.41132" lon="5.74418">
        <ele>707.667725</ele>
        <time>2011-10-27T12:47:56Z</time>
      </trkpt>
      <trkpt lat="44.41131" lon="5.74416">
        <ele>708.148438</ele>
        <time>2011-10-27T12:47:59Z</time>
      </trkpt>
      <trkpt lat="44.4112" lon="5.74399">
        <ele>709.590332</ele>
        <time>2011-10-27T12:48:13Z</time>
      </trkpt>
      <trkpt lat="44.41112" lon="5.74387">
        <ele>710.551514</ele>
        <time>2011-10-27T12:48:26Z</time>
      </trkpt>
      <trkpt lat="44.41108" lon="5.7437">
        <ele>711.032227</ele>
        <time>2011-10-27T12:48:39Z</time>
      </trkpt>
      <trkpt lat="44.41109" lon="5.74367">
        <ele>711.032227</ele>
        <time>2011-10-27T12:48:41Z</time>
      </trkpt>
      <trkpt lat="44.41112" lon="5.74354">
        <ele>711.993652</ele>
        <time>2011-10-27T12:48:50Z</time>
      </trkpt>
      <trkpt lat="44.41126" lon="5.74341">
        <ele>713.916016</ele>
        <time>2011-10-27T12:49:08Z</time>
      </trkpt>
      <trkpt lat="44.41143" lon="5.7433">
        <ele>715.838867</ele>
        <time>2011-10-27T12:49:26Z</time>
      </trkpt>
      <trkpt lat="44.41148" lon="5.74326">
        <ele>716.31958</ele>
        <time>2011-10-27T12:49:33Z</time>
      </trkpt>
      <trkpt lat="44.41161" lon="5.74318">
        <ele>717.761475</ele>
        <time>2011-10-27T12:49:48Z</time>
      </trkpt>
      <trkpt lat="44.4117" lon="5.74313">
        <ele>718.7229</ele>
        <time>2011-10-27T12:49:59Z</time>
      </trkpt>
      <trkpt lat="44.41182" lon="5.74303">
        <ele>719.684326</ele>
        <time>2011-10-27T12:50:11Z</time>
      </trkpt>
      <trkpt lat="44.41186" lon="5.74299">
        <ele>721.126221</ele>
        <time>2011-10-27T12:50:16Z</time>
      </trkpt>
      <trkpt lat="44.41189" lon="5.74294">
        <ele>720.645508</ele>
        <time>2011-10-27T12:50:22Z</time>
      </trkpt>
      <trkpt lat="44.41196" lon="5.74289">
        <ele>721.606689</ele>
        <time>2011-10-27T12:50:29Z</time>
      </trkpt>
      <trkpt lat="44.41208" lon="5.74277">
        <ele>723.048828</ele>
        <time>2011-10-27T12:50:44Z</time>
      </trkpt>
      <trkpt lat="44.41226" lon="5.74262">
        <ele>724.971436</ele>
        <time>2011-10-27T12:51:04Z</time>
      </trkpt>
      <trkpt lat="44.41241" lon="5.74251">
        <ele>726.894043</ele>
        <time>2011-10-27T12:51:23Z</time>
      </trkpt>
      <trkpt lat="44.41257" lon="5.74238">
        <ele>727.855225</ele>
        <time>2011-10-27T12:51:41Z</time>
      </trkpt>
      <trkpt lat="44.41262" lon="5.74235">
        <ele>728.335938</ele>
        <time>2011-10-27T12:51:46Z</time>
      </trkpt>
      <trkpt lat="44.41269" lon="5.74219">
        <ele>729.297119</ele>
        <time>2011-10-27T12:52:02Z</time>
      </trkpt>
      <trkpt lat="44.41263" lon="5.7421">
        <ele>730.258545</ele>
        <time>2011-10-27T12:52:12Z</time>
      </trkpt>
      <trkpt lat="44.41257" lon="5.742">
        <ele>729.297119</ele>
        <time>2011-10-27T12:52:26Z</time>
      </trkpt>
      <trkpt lat="44.41248" lon="5.74189">
        <ele>728.81665</ele>
        <time>2011-10-27T12:52:45Z</time>
      </trkpt>
      <trkpt lat="44.41248" lon="5.74186">
        <ele>729.297119</ele>
        <time>2011-10-27T12:53:26Z</time>
      </trkpt>
      <trkpt lat="44.41248" lon="5.74186">
        <ele>730.258545</ele>
        <time>2011-10-27T12:53:50Z</time>
      </trkpt>
      <trkpt lat="44.41246" lon="5.74187">
        <ele>727.855225</ele>
        <time>2011-10-27T12:55:25Z</time>
      </trkpt>
      <trkpt lat="44.41244" lon="5.74177">
        <ele>725.451904</ele>
        <time>2011-10-27T12:55:43Z</time>
      </trkpt>
      <trkpt lat="44.41247" lon="5.74173">
        <ele>723.529541</ele>
        <time>2011-10-27T12:55:48Z</time>
      </trkpt>
      <trkpt lat="44.41244" lon="5.74164">
        <ele>723.048828</ele>
        <time>2011-10-27T12:56:00Z</time>
      </trkpt>
      <trkpt lat="44.41245" lon="5.74158">
        <ele>719.684326</ele>
        <time>2011-10-27T12:56:05Z</time>
      </trkpt>
      <trkpt lat="44.41245" lon="5.74157">
        <ele>719.684326</ele>
        <time>2011-10-27T12:56:06Z</time>
      </trkpt>
      <trkpt lat="44.41247" lon="5.74145">
        <ele>719.203613</ele>
        <time>2011-10-27T12:56:15Z</time>
      </trkpt>
      <trkpt lat="44.41253" lon="5.74141">
        <ele>716.31958</ele>
        <time>2011-10-27T12:56:23Z</time>
      </trkpt>
      <trkpt lat="44.41259" lon="5.74139">
        <ele>713.916016</ele>
        <time>2011-10-27T12:56:28Z</time>
      </trkpt>
      <trkpt lat="44.4126" lon="5.74137">
        <ele>711.993652</ele>
        <time>2011-10-27T12:56:30Z</time>
      </trkpt>
      <trkpt lat="44.41266" lon="5.74127">
        <ele>711.993652</ele>
        <time>2011-10-27T12:56:38Z</time>
      </trkpt>
      <trkpt lat="44.41278" lon="5.74112">
        <ele>710.551514</ele>
        <time>2011-10-27T12:56:53Z</time>
      </trkpt>
      <trkpt lat="44.41281" lon="5.74102">
        <ele>707.187012</ele>
        <time>2011-10-27T12:57:01Z</time>
      </trkpt>
      <trkpt lat="44.41277" lon="5.74096">
        <ele>706.225586</ele>
        <time>2011-10-27T12:57:05Z</time>
      </trkpt>
      <trkpt lat="44.41287" lon="5.74087">
        <ele>702.861084</ele>
        <time>2011-10-27T12:57:17Z</time>
      </trkpt>
      <trkpt lat="44.41287" lon="5.74086">
        <ele>702.861084</ele>
        <time>2011-10-27T12:57:18Z</time>
      </trkpt>
      <trkpt lat="44.41288" lon="5.74083">
        <ele>701.419189</ele>
        <time>2011-10-27T12:57:20Z</time>
      </trkpt>
      <trkpt lat="44.4129" lon="5.74073">
        <ele>699.977051</ele>
        <time>2011-10-27T12:57:27Z</time>
      </trkpt>
      <trkpt lat="44.41292" lon="5.74064">
        <ele>696.612549</ele>
        <time>2011-10-27T12:57:34Z</time>
      </trkpt>
      <trkpt lat="44.41294" lon="5.7406">
        <ele>695.17041</ele>
        <time>2011-10-27T12:57:37Z</time>
      </trkpt>
      <trkpt lat="44.41293" lon="5.74059">
        <ele>694.689697</ele>
        <time>2011-10-27T12:57:38Z</time>
      </trkpt>
      <trkpt lat="44.41296" lon="5.74053">
        <ele>694.209229</ele>
        <time>2011-10-27T12:57:43Z</time>
      </trkpt>
      <trkpt lat="44.41295" lon="5.74044">
        <ele>694.689697</ele>
        <time>2011-10-27T12:57:47Z</time>
      </trkpt>
      <trkpt lat="44.41296" lon="5.74038">
        <ele>695.651123</ele>
        <time>2011-10-27T12:57:50Z</time>
      </trkpt>
      <trkpt lat="44.41297" lon="5.74029">
        <ele>695.651123</ele>
        <time>2011-10-27T12:57:58Z</time>
      </trkpt>
      <trkpt lat="44.413" lon="5.74021">
        <ele>693.728516</ele>
        <time>2011-10-27T12:58:04Z</time>
      </trkpt>
      <trkpt lat="44.41304" lon="5.74014">
        <ele>693.247803</ele>
        <time>2011-10-27T12:58:09Z</time>
      </trkpt>
      <trkpt lat="44.41304" lon="5.74004">
        <ele>693.247803</ele>
        <time>2011-10-27T12:58:17Z</time>
      </trkpt>
      <trkpt lat="44.41312" lon="5.73996">
        <ele>695.651123</ele>
        <time>2011-10-27T12:58:29Z</time>
      </trkpt>
      <trkpt lat="44.41313" lon="5.73992">
        <ele>697.57373</ele>
        <time>2011-10-27T12:58:35Z</time>
      </trkpt>
      <trkpt lat="44.41314" lon="5.73991">
        <ele>697.57373</ele>
        <time>2011-10-27T12:58:36Z</time>
      </trkpt>
      <trkpt lat="44.41332" lon="5.73973">
        <ele>700.458008</ele>
        <time>2011-10-27T12:58:57Z</time>
      </trkpt>
      <trkpt lat="44.41338" lon="5.73971">
        <ele>700.938477</ele>
        <time>2011-10-27T12:59:03Z</time>
      </trkpt>
      <trkpt lat="44.41353" lon="5.73965">
        <ele>701.419189</ele>
        <time>2011-10-27T12:59:16Z</time>
      </trkpt>
      <trkpt lat="44.41357" lon="5.73972">
        <ele>703.341797</ele>
        <time>2011-10-27T12:59:28Z</time>
      </trkpt>
      <trkpt lat="44.41368" lon="5.73972">
        <ele>704.783691</ele>
        <time>2011-10-27T12:59:37Z</time>
      </trkpt>
      <trkpt lat="44.41372" lon="5.73971">
        <ele>705.264404</ele>
        <time>2011-10-27T12:59:41Z</time>
      </trkpt>
      <trkpt lat="44.41374" lon="5.73969">
        <ele>705.745117</ele>
        <time>2011-10-27T12:59:43Z</time>
      </trkpt>
      <trkpt lat="44.41379" lon="5.73954">
        <ele>706.225586</ele>
        <time>2011-10-27T12:59:54Z</time>
      </trkpt>
      <trkpt lat="44.41381" lon="5.73949">
        <ele>706.706299</ele>
        <time>2011-10-27T12:59:58Z</time>
      </trkpt>
      <trkpt lat="44.41382" lon="5.73944">
        <ele>706.706299</ele>
        <time>2011-10-27T13:00:01Z</time>
      </trkpt>
      <trkpt lat="44.41383" lon="5.7394">
        <ele>707.187012</ele>
        <time>2011-10-27T13:00:04Z</time>
      </trkpt>
      <trkpt lat="44.4139" lon="5.73925">
        <ele>707.667725</ele>
        <time>2011-10-27T13:00:15Z</time>
      </trkpt>
      <trkpt lat="44.41392" lon="5.73922">
        <ele>707.667725</ele>
        <time>2011-10-27T13:00:17Z</time>
      </trkpt>
      <trkpt lat="44.41396" lon="5.73916">
        <ele>709.590332</ele>
        <time>2011-10-27T13:00:26Z</time>
      </trkpt>
      <trkpt lat="44.41398" lon="5.73913">
        <ele>709.590332</ele>
        <time>2011-10-27T13:00:29Z</time>
      </trkpt>
      <trkpt lat="44.41401" lon="5.73909">
        <ele>710.070801</ele>
        <time>2011-10-27T13:00:32Z</time>
      </trkpt>
      <trkpt lat="44.41403" lon="5.73906">
        <ele>709.590332</ele>
        <time>2011-10-27T13:00:34Z</time>
      </trkpt>
      <trkpt lat="44.41403" lon="5.73892">
        <ele>710.070801</ele>
        <time>2011-10-27T13:00:47Z</time>
      </trkpt>
      <trkpt lat="44.41401" lon="5.73887">
        <ele>708.628906</ele>
        <time>2011-10-27T13:00:53Z</time>
      </trkpt>
      <trkpt lat="44.41398" lon="5.73879">
        <ele>705.745117</ele>
        <time>2011-10-27T13:01:03Z</time>
      </trkpt>
      <trkpt lat="44.41398" lon="5.73874">
        <ele>704.783691</ele>
        <time>2011-10-27T13:01:08Z</time>
      </trkpt>
      <trkpt lat="44.41398" lon="5.7387">
        <ele>703.82251</ele>
        <time>2011-10-27T13:01:12Z</time>
      </trkpt>
      <trkpt lat="44.41399" lon="5.73861">
        <ele>702.380371</ele>
        <time>2011-10-27T13:01:17Z</time>
      </trkpt>
      <trkpt lat="44.41402" lon="5.73858">
        <ele>701.899902</ele>
        <time>2011-10-27T13:01:20Z</time>
      </trkpt>
      <trkpt lat="44.41413" lon="5.73848">
        <ele>699.496338</ele>
        <time>2011-10-27T13:01:35Z</time>
      </trkpt>
      <trkpt lat="44.41415" lon="5.73845">
        <ele>698.054443</ele>
        <time>2011-10-27T13:01:40Z</time>
      </trkpt>
      <trkpt lat="44.41412" lon="5.73842">
        <ele>697.093018</ele>
        <time>2011-10-27T13:01:43Z</time>
      </trkpt>
      <trkpt lat="44.41408" lon="5.73831">
        <ele>695.651123</ele>
        <time>2011-10-27T13:01:48Z</time>
      </trkpt>
      <trkpt lat="44.41401" lon="5.73819">
        <ele>695.651123</ele>
        <time>2011-10-27T13:02:01Z</time>
      </trkpt>
      <trkpt lat="44.41397" lon="5.73818">
        <ele>695.17041</ele>
        <time>2011-10-27T13:02:10Z</time>
      </trkpt>
      <trkpt lat="44.41392" lon="5.73816">
        <ele>695.17041</ele>
        <time>2011-10-27T13:02:14Z</time>
      </trkpt>
      <trkpt lat="44.41384" lon="5.73796">
        <ele>694.209229</ele>
        <time>2011-10-27T13:02:28Z</time>
      </trkpt>
      <trkpt lat="44.41379" lon="5.73788">
        <ele>694.209229</ele>
        <time>2011-10-27T13:02:34Z</time>
      </trkpt>
      <trkpt lat="44.41373" lon="5.7378">
        <ele>694.209229</ele>
        <time>2011-10-27T13:02:47Z</time>
      </trkpt>
      <trkpt lat="44.41365" lon="5.73765">
        <ele>693.247803</ele>
        <time>2011-10-27T13:03:01Z</time>
      </trkpt>
      <trkpt lat="44.41358" lon="5.73748">
        <ele>694.689697</ele>
        <time>2011-10-27T13:03:11Z</time>
      </trkpt>
      <trkpt lat="44.41356" lon="5.73738">
        <ele>696.131836</ele>
        <time>2011-10-27T13:03:26Z</time>
      </trkpt>
      <trkpt lat="44.4135" lon="5.7373">
        <ele>697.57373</ele>
        <time>2011-10-27T13:03:39Z</time>
      </trkpt>
      <trkpt lat="44.41348" lon="5.73715">
        <ele>699.496338</ele>
        <time>2011-10-27T13:03:52Z</time>
      </trkpt>
      <trkpt lat="44.41352" lon="5.73702">
        <ele>700.938477</ele>
        <time>2011-10-27T13:04:04Z</time>
      </trkpt>
      <trkpt lat="44.41359" lon="5.73691">
        <ele>702.861084</ele>
        <time>2011-10-27T13:04:15Z</time>
      </trkpt>
      <trkpt lat="44.41361" lon="5.7369">
        <ele>702.380371</ele>
        <time>2011-10-27T13:04:19Z</time>
      </trkpt>
      <trkpt lat="44.41377" lon="5.73676">
        <ele>704.303223</ele>
        <time>2011-10-27T13:04:35Z</time>
      </trkpt>
      <trkpt lat="44.41383" lon="5.73671">
        <ele>703.82251</ele>
        <time>2011-10-27T13:04:40Z</time>
      </trkpt>
      <trkpt lat="44.41393" lon="5.73667">
        <ele>704.303223</ele>
        <time>2011-10-27T13:04:49Z</time>
      </trkpt>
      <trkpt lat="44.4139" lon="5.73667">
        <ele>704.303223</ele>
        <time>2011-10-27T13:05:05Z</time>
      </trkpt>
      <trkpt lat="44.41388" lon="5.73668">
        <ele>704.303223</ele>
        <time>2011-10-27T13:06:10Z</time>
      </trkpt>
      <trkpt lat="44.41388" lon="5.73668">
        <ele>704.303223</ele>
        <time>2011-10-27T13:06:57Z</time>
      </trkpt>
      <trkpt lat="44.41388" lon="5.73667">
        <ele>704.783691</ele>
        <time>2011-10-27T13:08:25Z</time>
      </trkpt>
      <trkpt lat="44.4139" lon="5.73661">
        <ele>703.82251</ele>
        <time>2011-10-27T13:08:36Z</time>
      </trkpt>
      <trkpt lat="44.41391" lon="5.73656">
        <ele>703.341797</ele>
        <time>2011-10-27T13:08:40Z</time>
      </trkpt>
      <trkpt lat="44.41392" lon="5.73652">
        <ele>702.861084</ele>
        <time>2011-10-27T13:08:43Z</time>
      </trkpt>
      <trkpt lat="44.41402" lon="5.7364">
        <ele>701.419189</ele>
        <time>2011-10-27T13:08:56Z</time>
      </trkpt>
      <trkpt lat="44.41408" lon="5.73634">
        <ele>700.938477</ele>
        <time>2011-10-27T13:09:03Z</time>
      </trkpt>
      <trkpt lat="44.41415" lon="5.73626">
        <ele>700.458008</ele>
        <time>2011-10-27T13:09:12Z</time>
      </trkpt>
      <trkpt lat="44.41418" lon="5.73622">
        <ele>699.496338</ele>
        <time>2011-10-27T13:09:17Z</time>
      </trkpt>
      <trkpt lat="44.41418" lon="5.73619">
        <ele>699.496338</ele>
        <time>2011-10-27T13:09:19Z</time>
      </trkpt>
      <trkpt lat="44.4142" lon="5.73615">
        <ele>699.496338</ele>
        <time>2011-10-27T13:09:23Z</time>
      </trkpt>
      <trkpt lat="44.41428" lon="5.73605">
        <ele>699.015625</ele>
        <time>2011-10-27T13:09:32Z</time>
      </trkpt>
      <trkpt lat="44.41437" lon="5.73597">
        <ele>699.015625</ele>
        <time>2011-10-27T13:09:42Z</time>
      </trkpt>
      <trkpt lat="44.41439" lon="5.73592">
        <ele>699.015625</ele>
        <time>2011-10-27T13:09:46Z</time>
      </trkpt>
      <trkpt lat="44.41444" lon="5.73577">
        <ele>700.458008</ele>
        <time>2011-10-27T13:09:59Z</time>
      </trkpt>
      <trkpt lat="44.41449" lon="5.73572">
        <ele>700.458008</ele>
        <time>2011-10-27T13:10:05Z</time>
      </trkpt>
      <trkpt lat="44.4146" lon="5.73562">
        <ele>699.977051</ele>
        <time>2011-10-27T13:10:16Z</time>
      </trkpt>
      <trkpt lat="44.41464" lon="5.73553">
        <ele>700.458008</ele>
        <time>2011-10-27T13:10:25Z</time>
      </trkpt>
      <trkpt lat="44.41465" lon="5.73548">
        <ele>698.534912</ele>
        <time>2011-10-27T13:10:28Z</time>
      </trkpt>
      <trkpt lat="44.41465" lon="5.73548">
        <ele>698.534912</ele>
        <time>2011-10-27T13:10:29Z</time>
      </trkpt>
      <trkpt lat="44.41463" lon="5.7354">
        <ele>698.534912</ele>
        <time>2011-10-27T13:10:36Z</time>
      </trkpt>
      <trkpt lat="44.41464" lon="5.73527">
        <ele>700.458008</ele>
        <time>2011-10-27T13:10:43Z</time>
      </trkpt>
      <trkpt lat="44.41464" lon="5.73519">
        <ele>699.977051</ele>
        <time>2011-10-27T13:10:49Z</time>
      </trkpt>
      <trkpt lat="44.4147" lon="5.7351">
        <ele>701.899902</ele>
        <time>2011-10-27T13:10:59Z</time>
      </trkpt>
      <trkpt lat="44.41477" lon="5.73504">
        <ele>701.899902</ele>
        <time>2011-10-27T13:11:03Z</time>
      </trkpt>
      <trkpt lat="44.41481" lon="5.73499">
        <ele>703.341797</ele>
        <time>2011-10-27T13:11:07Z</time>
      </trkpt>
      <trkpt lat="44.41483" lon="5.73497">
        <ele>702.861084</ele>
        <time>2011-10-27T13:11:09Z</time>
      </trkpt>
      <trkpt lat="44.41486" lon="5.73493">
        <ele>702.861084</ele>
        <time>2011-10-27T13:11:15Z</time>
      </trkpt>
      <trkpt lat="44.41496" lon="5.73488">
        <ele>702.861084</ele>
        <time>2011-10-27T13:11:24Z</time>
      </trkpt>
      <trkpt lat="44.41497" lon="5.73486">
        <ele>704.303223</ele>
        <time>2011-10-27T13:11:26Z</time>
      </trkpt>
      <trkpt lat="44.41498" lon="5.73482">
        <ele>702.861084</ele>
        <time>2011-10-27T13:11:28Z</time>
      </trkpt>
      <trkpt lat="44.41507" lon="5.73477">
        <ele>703.341797</ele>
        <time>2011-10-27T13:11:44Z</time>
      </trkpt>
      <trkpt lat="44.41514" lon="5.73459">
        <ele>702.861084</ele>
        <time>2011-10-27T13:11:57Z</time>
      </trkpt>
      <trkpt lat="44.41515" lon="5.73457">
        <ele>702.861084</ele>
        <time>2011-10-27T13:11:58Z</time>
      </trkpt>
      <trkpt lat="44.41517" lon="5.73454">
        <ele>704.783691</ele>
        <time>2011-10-27T13:12:00Z</time>
      </trkpt>
      <trkpt lat="44.41518" lon="5.73453">
        <ele>704.783691</ele>
        <time>2011-10-27T13:12:01Z</time>
      </trkpt>
      <trkpt lat="44.41521" lon="5.73451">
        <ele>703.341797</ele>
        <time>2011-10-27T13:12:03Z</time>
      </trkpt>
      <trkpt lat="44.41522" lon="5.73449">
        <ele>704.783691</ele>
        <time>2011-10-27T13:12:05Z</time>
      </trkpt>
      <trkpt lat="44.41523" lon="5.73446">
        <ele>702.861084</ele>
        <time>2011-10-27T13:12:07Z</time>
      </trkpt>
      <trkpt lat="44.41524" lon="5.73444">
        <ele>704.303223</ele>
        <time>2011-10-27T13:12:09Z</time>
      </trkpt>
      <trkpt lat="44.41532" lon="5.73422">
        <ele>702.861084</ele>
        <time>2011-10-27T13:12:25Z</time>
      </trkpt>
      <trkpt lat="44.4154" lon="5.73406">
        <ele>702.861084</ele>
        <time>2011-10-27T13:12:36Z</time>
      </trkpt>
      <trkpt lat="44.41545" lon="5.73383">
        <ele>703.82251</ele>
        <time>2011-10-27T13:12:52Z</time>
      </trkpt>
      <trkpt lat="44.41548" lon="5.73376">
        <ele>704.303223</ele>
        <time>2011-10-27T13:12:58Z</time>
      </trkpt>
      <trkpt lat="44.41557" lon="5.73357">
        <ele>706.706299</ele>
        <time>2011-10-27T13:13:16Z</time>
      </trkpt>
      <trkpt lat="44.41565" lon="5.73342">
        <ele>707.187012</ele>
        <time>2011-10-27T13:13:31Z</time>
      </trkpt>
      <trkpt lat="44.41565" lon="5.73341">
        <ele>707.667725</ele>
        <time>2011-10-27T13:13:32Z</time>
      </trkpt>
      <trkpt lat="44.41567" lon="5.73337">
        <ele>708.148438</ele>
        <time>2011-10-27T13:13:35Z</time>
      </trkpt>
      <trkpt lat="44.41576" lon="5.7332">
        <ele>709.590332</ele>
        <time>2011-10-27T13:13:49Z</time>
      </trkpt>
      <trkpt lat="44.4158" lon="5.73309">
        <ele>710.551514</ele>
        <time>2011-10-27T13:13:57Z</time>
      </trkpt>
      <trkpt lat="44.41581" lon="5.73302">
        <ele>711.512939</ele>
        <time>2011-10-27T13:14:02Z</time>
      </trkpt>
      <trkpt lat="44.41581" lon="5.73293">
        <ele>711.512939</ele>
        <time>2011-10-27T13:14:09Z</time>
      </trkpt>
      <trkpt lat="44.41585" lon="5.7328">
        <ele>713.916016</ele>
        <time>2011-10-27T13:14:26Z</time>
      </trkpt>
      <trkpt lat="44.41588" lon="5.73272">
        <ele>713.916016</ele>
        <time>2011-10-27T13:14:33Z</time>
      </trkpt>
      <trkpt lat="44.4159" lon="5.73264">
        <ele>714.396729</ele>
        <time>2011-10-27T13:14:39Z</time>
      </trkpt>
      <trkpt lat="44.41593" lon="5.73257">
        <ele>715.358154</ele>
        <time>2011-10-27T13:14:45Z</time>
      </trkpt>
      <trkpt lat="44.41595" lon="5.7325">
        <ele>715.838867</ele>
        <time>2011-10-27T13:14:51Z</time>
      </trkpt>
      <trkpt lat="44.41601" lon="5.73245">
        <ele>717.281006</ele>
        <time>2011-10-27T13:14:59Z</time>
      </trkpt>
      <trkpt lat="44.41606" lon="5.73229">
        <ele>720.164795</ele>
        <time>2011-10-27T13:15:14Z</time>
      </trkpt>
      <trkpt lat="44.41609" lon="5.73215">
        <ele>723.048828</ele>
        <time>2011-10-27T13:15:29Z</time>
      </trkpt>
      <trkpt lat="44.41618" lon="5.73208">
        <ele>723.529541</ele>
        <time>2011-10-27T13:15:42Z</time>
      </trkpt>
      <trkpt lat="44.4162" lon="5.73207">
        <ele>724.971436</ele>
        <time>2011-10-27T13:15:45Z</time>
      </trkpt>
      <trkpt lat="44.41626" lon="5.73205">
        <ele>724.971436</ele>
        <time>2011-10-27T13:15:53Z</time>
      </trkpt>
      <trkpt lat="44.41646" lon="5.73204">
        <ele>727.855225</ele>
        <time>2011-10-27T13:16:12Z</time>
      </trkpt>
      <trkpt lat="44.41668" lon="5.73205">
        <ele>727.855225</ele>
        <time>2011-10-27T13:16:34Z</time>
      </trkpt>
      <trkpt lat="44.41676" lon="5.73202">
        <ele>727.374756</ele>
        <time>2011-10-27T13:16:46Z</time>
      </trkpt>
      <trkpt lat="44.41696" lon="5.732">
        <ele>728.81665</ele>
        <time>2011-10-27T13:17:00Z</time>
      </trkpt>
      <trkpt lat="44.41704" lon="5.73183">
        <ele>728.81665</ele>
        <time>2011-10-27T13:17:15Z</time>
      </trkpt>
      <trkpt lat="44.41707" lon="5.7318">
        <ele>728.81665</ele>
        <time>2011-10-27T13:17:18Z</time>
      </trkpt>
      <trkpt lat="44.41721" lon="5.73167">
        <ele>728.81665</ele>
        <time>2011-10-27T13:17:31Z</time>
      </trkpt>
      <trkpt lat="44.41725" lon="5.73162">
        <ele>728.81665</ele>
        <time>2011-10-27T13:17:36Z</time>
      </trkpt>
      <trkpt lat="44.41744" lon="5.73142">
        <ele>728.335938</ele>
        <time>2011-10-27T13:17:57Z</time>
      </trkpt>
      <trkpt lat="44.4176" lon="5.7313">
        <ele>729.297119</ele>
        <time>2011-10-27T13:18:12Z</time>
      </trkpt>
      <trkpt lat="44.41771" lon="5.73118">
        <ele>725.932617</ele>
        <time>2011-10-27T13:18:26Z</time>
      </trkpt>
      <trkpt lat="44.41771" lon="5.73118">
        <ele>725.932617</ele>
        <time>2011-10-27T13:18:27Z</time>
      </trkpt>
      <trkpt lat="44.41775" lon="5.73112">
        <ele>726.41333</ele>
        <time>2011-10-27T13:18:34Z</time>
      </trkpt>
      <trkpt lat="44.41778" lon="5.73106">
        <ele>724.971436</ele>
        <time>2011-10-27T13:18:38Z</time>
      </trkpt>
      <trkpt lat="44.41783" lon="5.73097">
        <ele>726.41333</ele>
        <time>2011-10-27T13:18:44Z</time>
      </trkpt>
      <trkpt lat="44.41802" lon="5.73077">
        <ele>725.451904</ele>
        <time>2011-10-27T13:19:03Z</time>
      </trkpt>
      <trkpt lat="44.41803" lon="5.73076">
        <ele>725.451904</ele>
        <time>2011-10-27T13:19:04Z</time>
      </trkpt>
      <trkpt lat="44.41812" lon="5.73071">
        <ele>726.41333</ele>
        <time>2011-10-27T13:19:09Z</time>
      </trkpt>
      <trkpt lat="44.41832" lon="5.7306">
        <ele>727.374756</ele>
        <time>2011-10-27T13:19:24Z</time>
      </trkpt>
      <trkpt lat="44.41838" lon="5.73053">
        <ele>727.374756</ele>
        <time>2011-10-27T13:19:35Z</time>
      </trkpt>
      <trkpt lat="44.41842" lon="5.73042">
        <ele>726.41333</ele>
        <time>2011-10-27T13:19:47Z</time>
      </trkpt>
      <trkpt lat="44.41843" lon="5.73034">
        <ele>726.894043</ele>
        <time>2011-10-27T13:19:52Z</time>
      </trkpt>
      <trkpt lat="44.41846" lon="5.73023">
        <ele>727.855225</ele>
        <time>2011-10-27T13:20:00Z</time>
      </trkpt>
      <trkpt lat="44.41846" lon="5.7302">
        <ele>726.894043</ele>
        <time>2011-10-27T13:20:02Z</time>
      </trkpt>
      <trkpt lat="44.41866" lon="5.73007">
        <ele>728.335938</ele>
        <time>2011-10-27T13:20:19Z</time>
      </trkpt>
      <trkpt lat="44.41876" lon="5.73002">
        <ele>728.335938</ele>
        <time>2011-10-27T13:20:27Z</time>
      </trkpt>
      <trkpt lat="44.41878" lon="5.72999">
        <ele>728.81665</ele>
        <time>2011-10-27T13:20:30Z</time>
      </trkpt>
      <trkpt lat="44.41894" lon="5.72984">
        <ele>729.777832</ele>
        <time>2011-10-27T13:20:43Z</time>
      </trkpt>
      <trkpt lat="44.41895" lon="5.72983">
        <ele>729.777832</ele>
        <time>2011-10-27T13:20:44Z</time>
      </trkpt>
      <trkpt lat="44.419" lon="5.72966">
        <ele>731.219971</ele>
        <time>2011-10-27T13:21:00Z</time>
      </trkpt>
      <trkpt lat="44.41904" lon="5.72954">
        <ele>732.181396</ele>
        <time>2011-10-27T13:21:12Z</time>
      </trkpt>
      <trkpt lat="44.41913" lon="5.72939">
        <ele>733.142578</ele>
        <time>2011-10-27T13:21:26Z</time>
      </trkpt>
      <trkpt lat="44.41926" lon="5.72908">
        <ele>735.06543</ele>
        <time>2011-10-27T13:21:47Z</time>
      </trkpt>
      <trkpt lat="44.41931" lon="5.72903">
        <ele>735.06543</ele>
        <time>2011-10-27T13:21:52Z</time>
      </trkpt>
      <trkpt lat="44.41933" lon="5.729">
        <ele>735.06543</ele>
        <time>2011-10-27T13:21:55Z</time>
      </trkpt>
      <trkpt lat="44.41939" lon="5.72889">
        <ele>736.507324</ele>
        <time>2011-10-27T13:22:04Z</time>
      </trkpt>
      <trkpt lat="44.4195" lon="5.72876">
        <ele>737.468506</ele>
        <time>2011-10-27T13:22:16Z</time>
      </trkpt>
      <trkpt lat="44.41951" lon="5.72875">
        <ele>737.949219</ele>
        <time>2011-10-27T13:22:17Z</time>
      </trkpt>
      <trkpt lat="44.41958" lon="5.72866">
        <ele>738.429932</ele>
        <time>2011-10-27T13:22:27Z</time>
      </trkpt>
      <trkpt lat="44.41973" lon="5.7285">
        <ele>739.871826</ele>
        <time>2011-10-27T13:22:40Z</time>
      </trkpt>
      <trkpt lat="44.41979" lon="5.72845">
        <ele>740.352539</ele>
        <time>2011-10-27T13:22:45Z</time>
      </trkpt>
      <trkpt lat="44.41988" lon="5.72828">
        <ele>741.313721</ele>
        <time>2011-10-27T13:22:59Z</time>
      </trkpt>
      <trkpt lat="44.41989" lon="5.72825">
        <ele>741.313721</ele>
        <time>2011-10-27T13:23:01Z</time>
      </trkpt>
      <trkpt lat="44.41994" lon="5.72814">
        <ele>743.236328</ele>
        <time>2011-10-27T13:23:13Z</time>
      </trkpt>
      <trkpt lat="44.42006" lon="5.72787">
        <ele>745.158936</ele>
        <time>2011-10-27T13:23:34Z</time>
      </trkpt>
      <trkpt lat="44.42018" lon="5.72748">
        <ele>747.081543</ele>
        <time>2011-10-27T13:24:05Z</time>
      </trkpt>
      <trkpt lat="44.42022" lon="5.72745">
        <ele>747.081543</ele>
        <time>2011-10-27T13:24:21Z</time>
      </trkpt>
      <trkpt lat="44.42025" lon="5.72745">
        <ele>746.601074</ele>
        <time>2011-10-27T13:24:52Z</time>
      </trkpt>
      <trkpt lat="44.42026" lon="5.72746">
        <ele>746.120361</ele>
        <time>2011-10-27T13:24:56Z</time>
      </trkpt>
      <trkpt lat="44.42024" lon="5.72745">
        <ele>746.601074</ele>
        <time>2011-10-27T13:25:31Z</time>
      </trkpt>
      <trkpt lat="44.42024" lon="5.72744">
        <ele>746.601074</ele>
        <time>2011-10-27T13:26:41Z</time>
      </trkpt>
      <trkpt lat="44.42024" lon="5.72743">
        <ele>748.523682</ele>
        <time>2011-10-27T13:28:33Z</time>
      </trkpt>
      <trkpt lat="44.42027" lon="5.72737">
        <ele>748.523682</ele>
        <time>2011-10-27T13:28:50Z</time>
      </trkpt>
      <trkpt lat="44.42031" lon="5.72724">
        <ele>745.639648</ele>
        <time>2011-10-27T13:29:03Z</time>
      </trkpt>
      <trkpt lat="44.42031" lon="5.72723">
        <ele>745.639648</ele>
        <time>2011-10-27T13:29:04Z</time>
      </trkpt>
      <trkpt lat="44.42037" lon="5.7271">
        <ele>745.639648</ele>
        <time>2011-10-27T13:29:18Z</time>
      </trkpt>
      <trkpt lat="44.42046" lon="5.72692">
        <ele>743.717041</ele>
        <time>2011-10-27T13:29:39Z</time>
      </trkpt>
      <trkpt lat="44.42052" lon="5.72662">
        <ele>741.794434</ele>
        <time>2011-10-27T13:30:05Z</time>
      </trkpt>
      <trkpt lat="44.42057" lon="5.72637">
        <ele>740.352539</ele>
        <time>2011-10-27T13:30:24Z</time>
      </trkpt>
      <trkpt lat="44.42059" lon="5.7261">
        <ele>739.391113</ele>
        <time>2011-10-27T13:30:43Z</time>
      </trkpt>
      <trkpt lat="44.42059" lon="5.72603">
        <ele>738.910645</ele>
        <time>2011-10-27T13:30:49Z</time>
      </trkpt>
      <trkpt lat="44.42055" lon="5.72566">
        <ele>736.026611</ele>
        <time>2011-10-27T13:31:14Z</time>
      </trkpt>
      <trkpt lat="44.42051" lon="5.7254">
        <ele>736.026611</ele>
        <time>2011-10-27T13:31:31Z</time>
      </trkpt>
      <trkpt lat="44.42049" lon="5.72514">
        <ele>733.623291</ele>
        <time>2011-10-27T13:31:47Z</time>
      </trkpt>
      <trkpt lat="44.42049" lon="5.72491">
        <ele>730.739258</ele>
        <time>2011-10-27T13:32:02Z</time>
      </trkpt>
      <trkpt lat="44.4205" lon="5.72456">
        <ele>728.81665</ele>
        <time>2011-10-27T13:32:26Z</time>
      </trkpt>
      <trkpt lat="44.4205" lon="5.72451">
        <ele>728.81665</ele>
        <time>2011-10-27T13:32:30Z</time>
      </trkpt>
      <trkpt lat="44.42052" lon="5.72444">
        <ele>726.894043</ele>
        <time>2011-10-27T13:32:45Z</time>
      </trkpt>
      <trkpt lat="44.42059" lon="5.72437">
        <ele>723.529541</ele>
        <time>2011-10-27T13:32:56Z</time>
      </trkpt>
      <trkpt lat="44.4207" lon="5.72423">
        <ele>720.164795</ele>
        <time>2011-10-27T13:33:13Z</time>
      </trkpt>
      <trkpt lat="44.42072" lon="5.72419">
        <ele>719.684326</ele>
        <time>2011-10-27T13:33:16Z</time>
      </trkpt>
      <trkpt lat="44.42077" lon="5.7242">
        <ele>719.203613</ele>
        <time>2011-10-27T13:33:20Z</time>
      </trkpt>
      <trkpt lat="44.42079" lon="5.72428">
        <ele>718.7229</ele>
        <time>2011-10-27T13:33:25Z</time>
      </trkpt>
      <trkpt lat="44.42077" lon="5.72447">
        <ele>718.242188</ele>
        <time>2011-10-27T13:33:39Z</time>
      </trkpt>
      <trkpt lat="44.42077" lon="5.72451">
        <ele>718.242188</ele>
        <time>2011-10-27T13:33:41Z</time>
      </trkpt>
      <trkpt lat="44.4208" lon="5.72461">
        <ele>718.7229</ele>
        <time>2011-10-27T13:33:47Z</time>
      </trkpt>
      <trkpt lat="44.42082" lon="5.72466">
        <ele>717.761475</ele>
        <time>2011-10-27T13:33:49Z</time>
      </trkpt>
      <trkpt lat="44.42085" lon="5.72474">
        <ele>717.761475</ele>
        <time>2011-10-27T13:33:52Z</time>
      </trkpt>
      <trkpt lat="44.42089" lon="5.72478">
        <ele>717.281006</ele>
        <time>2011-10-27T13:33:56Z</time>
      </trkpt>
      <trkpt lat="44.42089" lon="5.72486">
        <ele>717.761475</ele>
        <time>2011-10-27T13:34:00Z</time>
      </trkpt>
      <trkpt lat="44.4209" lon="5.72502">
        <ele>717.761475</ele>
        <time>2011-10-27T13:34:05Z</time>
      </trkpt>
      <trkpt lat="44.42097" lon="5.72496">
        <ele>716.800293</ele>
        <time>2011-10-27T13:34:14Z</time>
      </trkpt>
      <trkpt lat="44.42094" lon="5.72477">
        <ele>713.916016</ele>
        <time>2011-10-27T13:34:25Z</time>
      </trkpt>
      <trkpt lat="44.42095" lon="5.72471">
        <ele>713.435547</ele>
        <time>2011-10-27T13:34:28Z</time>
      </trkpt>
      <trkpt lat="44.42095" lon="5.72467">
        <ele>714.396729</ele>
        <time>2011-10-27T13:34:30Z</time>
      </trkpt>
      <trkpt lat="44.42095" lon="5.7246">
        <ele>712.474121</ele>
        <time>2011-10-27T13:34:33Z</time>
      </trkpt>
      <trkpt lat="44.42104" lon="5.72445">
        <ele>711.032227</ele>
        <time>2011-10-27T13:34:43Z</time>
      </trkpt>
      <trkpt lat="44.42104" lon="5.72443">
        <ele>711.032227</ele>
        <time>2011-10-27T13:34:44Z</time>
      </trkpt>
      <trkpt lat="44.42105" lon="5.72439">
        <ele>710.070801</ele>
        <time>2011-10-27T13:34:46Z</time>
      </trkpt>
      <trkpt lat="44.42107" lon="5.72431">
        <ele>710.070801</ele>
        <time>2011-10-27T13:34:50Z</time>
      </trkpt>
      <trkpt lat="44.4211" lon="5.72407">
        <ele>708.148438</ele>
        <time>2011-10-27T13:35:03Z</time>
      </trkpt>
      <trkpt lat="44.42118" lon="5.72388">
        <ele>706.225586</ele>
        <time>2011-10-27T13:35:15Z</time>
      </trkpt>
      <trkpt lat="44.42117" lon="5.72381">
        <ele>705.745117</ele>
        <time>2011-10-27T13:35:19Z</time>
      </trkpt>
      <trkpt lat="44.4212" lon="5.72372">
        <ele>704.783691</ele>
        <time>2011-10-27T13:35:24Z</time>
      </trkpt>
      <trkpt lat="44.42116" lon="5.72348">
        <ele>705.264404</ele>
        <time>2011-10-27T13:35:38Z</time>
      </trkpt>
      <trkpt lat="44.42113" lon="5.7233">
        <ele>702.380371</ele>
        <time>2011-10-27T13:35:45Z</time>
      </trkpt>
      <trkpt lat="44.42113" lon="5.72326">
        <ele>700.938477</ele>
        <time>2011-10-27T13:35:47Z</time>
      </trkpt>
      <trkpt lat="44.42115" lon="5.72318">
        <ele>699.496338</ele>
        <time>2011-10-27T13:35:52Z</time>
      </trkpt>
      <trkpt lat="44.42115" lon="5.72303">
        <ele>699.496338</ele>
        <time>2011-10-27T13:36:00Z</time>
      </trkpt>
      <trkpt lat="44.42113" lon="5.72283">
        <ele>698.534912</ele>
        <time>2011-10-27T13:36:12Z</time>
      </trkpt>
      <trkpt lat="44.4211" lon="5.72273">
        <ele>697.57373</ele>
        <time>2011-10-27T13:36:24Z</time>
      </trkpt>
      <trkpt lat="44.42107" lon="5.72257">
        <ele>696.131836</ele>
        <time>2011-10-27T13:36:34Z</time>
      </trkpt>
      <trkpt lat="44.42106" lon="5.72254">
        <ele>696.131836</ele>
        <time>2011-10-27T13:36:36Z</time>
      </trkpt>
      <trkpt lat="44.4211" lon="5.72235">
        <ele>694.689697</ele>
        <time>2011-10-27T13:36:47Z</time>
      </trkpt>
      <trkpt lat="44.42113" lon="5.72217">
        <ele>693.247803</ele>
        <time>2011-10-27T13:36:59Z</time>
      </trkpt>
      <trkpt lat="44.42113" lon="5.72204">
        <ele>691.325195</ele>
        <time>2011-10-27T13:37:14Z</time>
      </trkpt>
      <trkpt lat="44.42113" lon="5.72175">
        <ele>687.47998</ele>
        <time>2011-10-27T13:37:32Z</time>
      </trkpt>
      <trkpt lat="44.42113" lon="5.72174">
        <ele>687.47998</ele>
        <time>2011-10-27T13:37:33Z</time>
      </trkpt>
      <trkpt lat="44.42115" lon="5.72162">
        <ele>687.47998</ele>
        <time>2011-10-27T13:37:42Z</time>
      </trkpt>
      <trkpt lat="44.4214" lon="5.72141">
        <ele>686.518799</ele>
        <time>2011-10-27T13:38:07Z</time>
      </trkpt>
      <trkpt lat="44.42143" lon="5.72139">
        <ele>685.076904</ele>
        <time>2011-10-27T13:38:09Z</time>
      </trkpt>
      <trkpt lat="44.42161" lon="5.72121">
        <ele>682.67334</ele>
        <time>2011-10-27T13:38:29Z</time>
      </trkpt>
      <trkpt lat="44.42181" lon="5.72113">
        <ele>682.192627</ele>
        <time>2011-10-27T13:38:45Z</time>
      </trkpt>
      <trkpt lat="44.42189" lon="5.72111">
        <ele>680.750732</ele>
        <time>2011-10-27T13:38:52Z</time>
      </trkpt>
      <trkpt lat="44.42209" lon="5.72107">
        <ele>682.192627</ele>
        <time>2011-10-27T13:39:07Z</time>
      </trkpt>
      <trkpt lat="44.42222" lon="5.72104">
        <ele>683.153809</ele>
        <time>2011-10-27T13:39:19Z</time>
      </trkpt>
      <trkpt lat="44.42238" lon="5.72093">
        <ele>682.192627</ele>
        <time>2011-10-27T13:39:33Z</time>
      </trkpt>
      <trkpt lat="44.42257" lon="5.72073">
        <ele>681.711914</ele>
        <time>2011-10-27T13:39:54Z</time>
      </trkpt>
      <trkpt lat="44.42262" lon="5.72066">
        <ele>680.750732</ele>
        <time>2011-10-27T13:39:59Z</time>
      </trkpt>
      <trkpt lat="44.42274" lon="5.72047">
        <ele>678.828125</ele>
        <time>2011-10-27T13:40:18Z</time>
      </trkpt>
      <trkpt lat="44.4229" lon="5.72033">
        <ele>677.866699</ele>
        <time>2011-10-27T13:40:35Z</time>
      </trkpt>
      <trkpt lat="44.42306" lon="5.72015">
        <ele>676.905518</ele>
        <time>2011-10-27T13:40:50Z</time>
      </trkpt>
      <trkpt lat="44.42311" lon="5.72003">
        <ele>675.944092</ele>
        <time>2011-10-27T13:41:02Z</time>
      </trkpt>
      <trkpt lat="44.42324" lon="5.71988">
        <ele>674.98291</ele>
        <time>2011-10-27T13:41:13Z</time>
      </trkpt>
      <trkpt lat="44.42328" lon="5.7198">
        <ele>674.502197</ele>
        <time>2011-10-27T13:41:20Z</time>
      </trkpt>
      <trkpt lat="44.4233" lon="5.71977">
        <ele>674.502197</ele>
        <time>2011-10-27T13:41:22Z</time>
      </trkpt>
      <trkpt lat="44.42333" lon="5.71973">
        <ele>673.060303</ele>
        <time>2011-10-27T13:41:26Z</time>
      </trkpt>
      <trkpt lat="44.42348" lon="5.71964">
        <ele>672.098877</ele>
        <time>2011-10-27T13:41:37Z</time>
      </trkpt>
      <trkpt lat="44.42351" lon="5.71959">
        <ele>673.541016</ele>
        <time>2011-10-27T13:41:43Z</time>
      </trkpt>
      <trkpt lat="44.42353" lon="5.71958">
        <ele>672.098877</ele>
        <time>2011-10-27T13:41:45Z</time>
      </trkpt>
      <trkpt lat="44.42365" lon="5.71952">
        <ele>671.618164</ele>
        <time>2011-10-27T13:41:52Z</time>
      </trkpt>
      <trkpt lat="44.42371" lon="5.71947">
        <ele>671.137695</ele>
        <time>2011-10-27T13:41:59Z</time>
      </trkpt>
      <trkpt lat="44.4239" lon="5.7192">
        <ele>669.695801</ele>
        <time>2011-10-27T13:42:27Z</time>
      </trkpt>
      <trkpt lat="44.42399" lon="5.71912">
        <ele>669.215088</ele>
        <time>2011-10-27T13:42:36Z</time>
      </trkpt>
      <trkpt lat="44.42421" lon="5.71911">
        <ele>668.253662</ele>
        <time>2011-10-27T13:42:55Z</time>
      </trkpt>
      <trkpt lat="44.42437" lon="5.71909">
        <ele>669.695801</ele>
        <time>2011-10-27T13:43:08Z</time>
      </trkpt>
      <trkpt lat="44.42449" lon="5.71907">
        <ele>669.695801</ele>
        <time>2011-10-27T13:43:21Z</time>
      </trkpt>
      <trkpt lat="44.42466" lon="5.71903">
        <ele>670.656982</ele>
        <time>2011-10-27T13:43:37Z</time>
      </trkpt>
      <trkpt lat="44.42469" lon="5.71902">
        <ele>670.656982</ele>
        <time>2011-10-27T13:43:39Z</time>
      </trkpt>
      <trkpt lat="44.42478" lon="5.719">
        <ele>668.734375</ele>
        <time>2011-10-27T13:43:44Z</time>
      </trkpt>
      <trkpt lat="44.42492" lon="5.71894">
        <ele>669.215088</ele>
        <time>2011-10-27T13:43:57Z</time>
      </trkpt>
      <trkpt lat="44.42514" lon="5.71887">
        <ele>669.215088</ele>
        <time>2011-10-27T13:44:14Z</time>
      </trkpt>
      <trkpt lat="44.42538" lon="5.71879">
        <ele>668.734375</ele>
        <time>2011-10-27T13:44:34Z</time>
      </trkpt>
      <trkpt lat="44.42544" lon="5.71878">
        <ele>668.253662</ele>
        <time>2011-10-27T13:44:39Z</time>
      </trkpt>
      <trkpt lat="44.42564" lon="5.71873">
        <ele>667.292236</ele>
        <time>2011-10-27T13:44:59Z</time>
      </trkpt>
      <trkpt lat="44.42584" lon="5.71869">
        <ele>665.850342</ele>
        <time>2011-10-27T13:45:14Z</time>
      </trkpt>
      <trkpt lat="44.42601" lon="5.71865">
        <ele>665.850342</ele>
        <time>2011-10-27T13:45:30Z</time>
      </trkpt>
      <trkpt lat="44.42622" lon="5.71858">
        <ele>664.408203</ele>
        <time>2011-10-27T13:45:49Z</time>
      </trkpt>
      <trkpt lat="44.4264" lon="5.71852">
        <ele>662.966309</ele>
        <time>2011-10-27T13:46:05Z</time>
      </trkpt>
      <trkpt lat="44.42658" lon="5.71842">
        <ele>662.485596</ele>
        <time>2011-10-27T13:46:20Z</time>
      </trkpt>
      <trkpt lat="44.42674" lon="5.71826">
        <ele>661.043701</ele>
        <time>2011-10-27T13:46:35Z</time>
      </trkpt>
      <trkpt lat="44.4268" lon="5.71825">
        <ele>660.562988</ele>
        <time>2011-10-27T13:46:42Z</time>
      </trkpt>
      <trkpt lat="44.42697" lon="5.71828">
        <ele>660.082275</ele>
        <time>2011-10-27T13:46:59Z</time>
      </trkpt>
      <trkpt lat="44.427" lon="5.71828">
        <ele>660.082275</ele>
        <time>2011-10-27T13:47:02Z</time>
      </trkpt>
      <trkpt lat="44.42719" lon="5.7183">
        <ele>659.121094</ele>
        <time>2011-10-27T13:47:19Z</time>
      </trkpt>
      <trkpt lat="44.42743" lon="5.71832">
        <ele>657.679199</ele>
        <time>2011-10-27T13:47:37Z</time>
      </trkpt>
      <trkpt lat="44.4276" lon="5.71827">
        <ele>656.237061</ele>
        <time>2011-10-27T13:47:49Z</time>
      </trkpt>
      <trkpt lat="44.42784" lon="5.71817">
        <ele>655.275879</ele>
        <time>2011-10-27T13:48:09Z</time>
      </trkpt>
      <trkpt lat="44.42806" lon="5.71804">
        <ele>653.833984</ele>
        <time>2011-10-27T13:48:29Z</time>
      </trkpt>
      <trkpt lat="44.42818" lon="5.71797">
        <ele>652.872559</ele>
        <time>2011-10-27T13:48:41Z</time>
      </trkpt>
      <trkpt lat="44.42821" lon="5.71794">
        <ele>653.833984</ele>
        <time>2011-10-27T13:48:44Z</time>
      </trkpt>
      <trkpt lat="44.42833" lon="5.71787">
        <ele>652.872559</ele>
        <time>2011-10-27T13:48:58Z</time>
      </trkpt>
      <trkpt lat="44.42843" lon="5.71803">
        <ele>652.872559</ele>
        <time>2011-10-27T13:49:04Z</time>
      </trkpt>
      <trkpt lat="44.42864" lon="5.71799">
        <ele>652.391846</ele>
        <time>2011-10-27T13:49:25Z</time>
      </trkpt>
      <trkpt lat="44.42887" lon="5.7177">
        <ele>651.911133</ele>
        <time>2011-10-27T13:49:51Z</time>
      </trkpt>
      <trkpt lat="44.4291" lon="5.71745">
        <ele>650.949707</ele>
        <time>2011-10-27T13:50:15Z</time>
      </trkpt>
      <trkpt lat="44.42919" lon="5.71735">
        <ele>650.949707</ele>
        <time>2011-10-27T13:50:25Z</time>
      </trkpt>
      <trkpt lat="44.42929" lon="5.71737">
        <ele>650.949707</ele>
        <time>2011-10-27T13:50:33Z</time>
      </trkpt>
      <trkpt lat="44.42945" lon="5.71726">
        <ele>651.43042</ele>
        <time>2011-10-27T13:50:52Z</time>
      </trkpt>
      <trkpt lat="44.42961" lon="5.71732">
        <ele>652.391846</ele>
        <time>2011-10-27T13:51:06Z</time>
      </trkpt>
      <trkpt lat="44.42968" lon="5.71733">
        <ele>651.43042</ele>
        <time>2011-10-27T13:51:12Z</time>
      </trkpt>
      <trkpt lat="44.42987" lon="5.71723">
        <ele>652.391846</ele>
        <time>2011-10-27T13:51:30Z</time>
      </trkpt>
      <trkpt lat="44.43008" lon="5.71706">
        <ele>652.872559</ele>
        <time>2011-10-27T13:51:49Z</time>
      </trkpt>
      <trkpt lat="44.43026" lon="5.71685">
        <ele>653.833984</ele>
        <time>2011-10-27T13:52:12Z</time>
      </trkpt>
      <trkpt lat="44.43035" lon="5.71664">
        <ele>655.275879</ele>
        <time>2011-10-27T13:52:26Z</time>
      </trkpt>
      <trkpt lat="44.43044" lon="5.71641">
        <ele>655.756592</ele>
        <time>2011-10-27T13:52:43Z</time>
      </trkpt>
      <trkpt lat="44.43045" lon="5.71624">
        <ele>656.237061</ele>
        <time>2011-10-27T13:52:57Z</time>
      </trkpt>
      <trkpt lat="44.43047" lon="5.71614">
        <ele>656.237061</ele>
        <time>2011-10-27T13:53:02Z</time>
      </trkpt>
      <trkpt lat="44.43047" lon="5.7161">
        <ele>656.717773</ele>
        <time>2011-10-27T13:53:05Z</time>
      </trkpt>
      <trkpt lat="44.43051" lon="5.71594">
        <ele>655.756592</ele>
        <time>2011-10-27T13:53:14Z</time>
      </trkpt>
      <trkpt lat="44.43056" lon="5.71575">
        <ele>656.717773</ele>
        <time>2011-10-27T13:53:25Z</time>
      </trkpt>
      <trkpt lat="44.43057" lon="5.71569">
        <ele>657.679199</ele>
        <time>2011-10-27T13:53:30Z</time>
      </trkpt>
      <trkpt lat="44.43071" lon="5.71565">
        <ele>658.159912</ele>
        <time>2011-10-27T13:53:44Z</time>
      </trkpt>
      <trkpt lat="44.43097" lon="5.71553">
        <ele>658.159912</ele>
        <time>2011-10-27T13:54:01Z</time>
      </trkpt>
      <trkpt lat="44.43108" lon="5.7155">
        <ele>657.679199</ele>
        <time>2011-10-27T13:54:08Z</time>
      </trkpt>
      <trkpt lat="44.43098" lon="5.7152">
        <ele>657.198486</ele>
        <time>2011-10-27T13:54:16Z</time>
      </trkpt>
      <trkpt lat="44.43098" lon="5.71489">
        <ele>657.198486</ele>
        <time>2011-10-27T13:54:28Z</time>
      </trkpt>
      <trkpt lat="44.43109" lon="5.71471">
        <ele>656.717773</ele>
        <time>2011-10-27T13:54:43Z</time>
      </trkpt>
      <trkpt lat="44.43117" lon="5.71446">
        <ele>656.717773</ele>
        <time>2011-10-27T13:55:01Z</time>
      </trkpt>
      <trkpt lat="44.43137" lon="5.71428">
        <ele>656.717773</ele>
        <time>2011-10-27T13:55:18Z</time>
      </trkpt>
      <trkpt lat="44.4315" lon="5.71416">
        <ele>656.717773</ele>
        <time>2011-10-27T13:55:32Z</time>
      </trkpt>
      <trkpt lat="44.43158" lon="5.71405">
        <ele>656.237061</ele>
        <time>2011-10-27T13:55:42Z</time>
      </trkpt>
      <trkpt lat="44.43162" lon="5.71404">
        <ele>656.237061</ele>
        <time>2011-10-27T13:55:45Z</time>
      </trkpt>
      <trkpt lat="44.43167" lon="5.71396">
        <ele>657.679199</ele>
        <time>2011-10-27T13:55:58Z</time>
      </trkpt>
      <trkpt lat="44.43175" lon="5.71391">
        <ele>657.198486</ele>
        <time>2011-10-27T13:56:13Z</time>
      </trkpt>
      <trkpt lat="44.43173" lon="5.71392">
        <ele>658.159912</ele>
        <time>2011-10-27T13:56:27Z</time>
      </trkpt>
      <trkpt lat="44.43173" lon="5.71392">
        <ele>658.640381</ele>
        <time>2011-10-27T13:56:35Z</time>
      </trkpt>
      <trkpt lat="44.43169" lon="5.71388">
        <ele>660.082275</ele>
        <time>2011-10-27T13:57:23Z</time>
      </trkpt>
      <trkpt lat="44.43164" lon="5.71383">
        <ele>662.005127</ele>
        <time>2011-10-27T13:58:11Z</time>
      </trkpt>
      <trkpt lat="44.43164" lon="5.71378">
        <ele>662.005127</ele>
        <time>2011-10-27T13:58:25Z</time>
      </trkpt>
      <trkpt lat="44.43163" lon="5.71371">
        <ele>662.485596</ele>
        <time>2011-10-27T13:58:43Z</time>
      </trkpt>
      <trkpt lat="44.43161" lon="5.71355">
        <ele>662.966309</ele>
        <time>2011-10-27T14:00:28Z</time>
      </trkpt>
      <trkpt lat="44.4316" lon="5.71354">
        <ele>662.966309</ele>
        <time>2011-10-27T14:00:54Z</time>
      </trkpt>
      <trkpt lat="44.43163" lon="5.71355">
        <ele>663.447021</ele>
        <time>2011-10-27T14:01:21Z</time>
      </trkpt>
      <trkpt lat="44.43164" lon="5.71365">
        <ele>663.92749</ele>
        <time>2011-10-27T14:01:51Z</time>
      </trkpt>
      <trkpt lat="44.43168" lon="5.71367">
        <ele>664.408203</ele>
        <time>2011-10-27T14:02:39Z</time>
      </trkpt>
    </trkseg>
  </trk>
</gpx>